<?xml version='1.0' encoding='UTF-8'?>
<gpx version="1.1" creator="https://www.komoot.de" xmlns="http://www.topografix.com/GPX/1/1" xmlns:xsi="http://www.w3.org/2001/XMLSchema-instance" xsi:schemaLocation="http://www.topografix.com/GPX/1/1 http://www.topografix.com/GPX/1/1/gpx.xsd">
  <metadata>
    <name>51_880JungholzAltenschw</name>
    <author>
      <link href="https://www.komoot.de">
        <text>komoot</text>
        <type>text/html</type>
      </link>
    </author>
  </metadata>
  <trk>
    <name>51_880JungholzAltenschw</name>
    <trkseg>
      <trkpt lat="47.541745" lon="7.870954">
        <ele>342.204332</ele>
        <time>2021-11-13T08:44:18.034Z</time>
      </trkpt>
      <trkpt lat="47.541796" lon="7.871042">
        <ele>342.204332</ele>
        <time>2021-11-13T08:44:19.775Z</time>
      </trkpt>
      <trkpt lat="47.541953" lon="7.871286">
        <ele>342.204332</ele>
        <time>2021-11-13T08:44:24.764Z</time>
      </trkpt>
      <trkpt lat="47.542039" lon="7.871556">
        <ele>342.204332</ele>
        <time>2021-11-13T08:44:29.484Z</time>
      </trkpt>
      <trkpt lat="47.542067" lon="7.871664">
        <ele>342.204332</ele>
        <time>2021-11-13T08:44:31.119Z</time>
      </trkpt>
      <trkpt lat="47.542091" lon="7.871721">
        <ele>342.204332</ele>
        <time>2021-11-13T08:44:31.742Z</time>
      </trkpt>
      <trkpt lat="47.542218" lon="7.871866">
        <ele>342.204332</ele>
        <time>2021-11-13T08:44:37.179Z</time>
      </trkpt>
      <trkpt lat="47.542394" lon="7.872341">
        <ele>343.422520</ele>
        <time>2021-11-13T08:44:47.634Z</time>
      </trkpt>
      <trkpt lat="47.542436" lon="7.872494">
        <ele>343.949739</ele>
        <time>2021-11-13T08:44:51.045Z</time>
      </trkpt>
      <trkpt lat="47.542537" lon="7.872430">
        <ele>344.469189</ele>
        <time>2021-11-13T08:44:53.146Z</time>
      </trkpt>
      <trkpt lat="47.542714" lon="7.872334">
        <ele>345.360490</ele>
        <time>2021-11-13T08:45:00.241Z</time>
      </trkpt>
      <trkpt lat="47.542814" lon="7.872280">
        <ele>345.863790</ele>
        <time>2021-11-13T08:45:03.118Z</time>
      </trkpt>
      <trkpt lat="47.542919" lon="7.872226">
        <ele>346.389366</ele>
        <time>2021-11-13T08:45:06.958Z</time>
      </trkpt>
      <trkpt lat="47.543013" lon="7.872182">
        <ele>346.855519</ele>
        <time>2021-11-13T08:45:10.589Z</time>
      </trkpt>
      <trkpt lat="47.543233" lon="7.872082">
        <ele>347.943688</ele>
        <time>2021-11-13T08:45:17.687Z</time>
      </trkpt>
      <trkpt lat="47.543251" lon="7.872152">
        <ele>348.182790</ele>
        <time>2021-11-13T08:45:21.101Z</time>
      </trkpt>
      <trkpt lat="47.543332" lon="7.872237">
        <ele>348.652170</ele>
        <time>2021-11-13T08:45:24.511Z</time>
      </trkpt>
      <trkpt lat="47.544390" lon="7.872423">
        <ele>354.966155</ele>
        <time>2021-11-13T08:46:06.143Z</time>
      </trkpt>
      <trkpt lat="47.544883" lon="7.872555">
        <ele>358.349257</ele>
        <time>2021-11-13T08:46:28.485Z</time>
      </trkpt>
      <trkpt lat="47.545131" lon="7.872664">
        <ele>360.096117</ele>
        <time>2021-11-13T08:46:39.489Z</time>
      </trkpt>
      <trkpt lat="47.545375" lon="7.872836">
        <ele>361.920836</ele>
        <time>2021-11-13T08:46:50.430Z</time>
      </trkpt>
      <trkpt lat="47.545478" lon="7.872968">
        <ele>362.840515</ele>
        <time>2021-11-13T08:46:57.238Z</time>
      </trkpt>
      <trkpt lat="47.545515" lon="7.873015">
        <ele>363.136820</ele>
        <time>2021-11-13T08:46:59.194Z</time>
      </trkpt>
      <trkpt lat="47.545746" lon="7.873302">
        <ele>364.959986</ele>
        <time>2021-11-13T08:47:12.394Z</time>
      </trkpt>
      <trkpt lat="47.545934" lon="7.873549">
        <ele>366.479565</ele>
        <time>2021-11-13T08:47:22.494Z</time>
      </trkpt>
      <trkpt lat="47.546077" lon="7.873763">
        <ele>367.708754</ele>
        <time>2021-11-13T08:47:31.690Z</time>
      </trkpt>
      <trkpt lat="47.546135" lon="7.873859">
        <ele>368.234667</ele>
        <time>2021-11-13T08:47:34.930Z</time>
      </trkpt>
      <trkpt lat="47.546309" lon="7.874154">
        <ele>369.833807</ele>
        <time>2021-11-13T08:47:46.044Z</time>
      </trkpt>
      <trkpt lat="47.547126" lon="7.875801">
        <ele>375.707849</ele>
        <time>2021-11-13T08:48:31.805Z</time>
      </trkpt>
      <trkpt lat="47.547574" lon="7.876801">
        <ele>377.885267</ele>
        <time>2021-11-13T08:48:50.801Z</time>
      </trkpt>
      <trkpt lat="47.547992" lon="7.877974">
        <ele>377.226210</ele>
        <time>2021-11-13T08:49:03.602Z</time>
      </trkpt>
      <trkpt lat="47.548234" lon="7.878638">
        <ele>376.162148</ele>
        <time>2021-11-13T08:49:08.914Z</time>
      </trkpt>
      <trkpt lat="47.548422" lon="7.878959">
        <ele>375.562876</ele>
        <time>2021-11-13T08:49:11.757Z</time>
      </trkpt>
      <trkpt lat="47.548718" lon="7.879258">
        <ele>374.814455</ele>
        <time>2021-11-13T08:49:15.295Z</time>
      </trkpt>
      <trkpt lat="47.549140" lon="7.879391">
        <ele>372.986605</ele>
        <time>2021-11-13T08:49:19.482Z</time>
      </trkpt>
      <trkpt lat="47.549318" lon="7.879398">
        <ele>372.230032</ele>
        <time>2021-11-13T08:49:21.109Z</time>
      </trkpt>
      <trkpt lat="47.549327" lon="7.879547">
        <ele>371.801017</ele>
        <time>2021-11-13T08:49:22.095Z</time>
      </trkpt>
      <trkpt lat="47.549726" lon="7.880786">
        <ele>367.864073</ele>
        <time>2021-11-13T08:49:31.029Z</time>
      </trkpt>
      <trkpt lat="47.549927" lon="7.881490">
        <ele>365.933984</ele>
        <time>2021-11-13T08:49:36.061Z</time>
      </trkpt>
      <trkpt lat="47.550234" lon="7.883221">
        <ele>361.700936</ele>
        <time>2021-11-13T08:49:48.462Z</time>
      </trkpt>
      <trkpt lat="47.550332" lon="7.884727">
        <ele>357.169611</ele>
        <time>2021-11-13T08:49:58.307Z</time>
      </trkpt>
      <trkpt lat="47.550391" lon="7.885109">
        <ele>355.920643</ele>
        <time>2021-11-13T08:50:00.839Z</time>
      </trkpt>
      <trkpt lat="47.550548" lon="7.885799">
        <ele>353.599898</ele>
        <time>2021-11-13T08:50:05.444Z</time>
      </trkpt>
      <trkpt lat="47.550677" lon="7.886476">
        <ele>351.102130</ele>
        <time>2021-11-13T08:50:09.874Z</time>
      </trkpt>
      <trkpt lat="47.550758" lon="7.887295">
        <ele>347.797945</ele>
        <time>2021-11-13T08:50:15.016Z</time>
      </trkpt>
      <trkpt lat="47.550789" lon="7.887816">
        <ele>345.710161</ele>
        <time>2021-11-13T08:50:18.248Z</time>
      </trkpt>
      <trkpt lat="47.550831" lon="7.888611">
        <ele>342.526990</ele>
        <time>2021-11-13T08:50:23.204Z</time>
      </trkpt>
      <trkpt lat="47.550833" lon="7.889069">
        <ele>340.669987</ele>
        <time>2021-11-13T08:50:26.014Z</time>
      </trkpt>
      <trkpt lat="47.550915" lon="7.890600">
        <ele>334.369075</ele>
        <time>2021-11-13T08:50:35.407Z</time>
      </trkpt>
      <trkpt lat="47.550904" lon="7.891725">
        <ele>330.254453</ele>
        <time>2021-11-13T08:50:42.410Z</time>
      </trkpt>
      <trkpt lat="47.550892" lon="7.893176">
        <ele>327.152512</ele>
        <time>2021-11-13T08:50:52.023Z</time>
      </trkpt>
      <trkpt lat="47.550908" lon="7.894308">
        <ele>324.956406</ele>
        <time>2021-11-13T08:51:01.228Z</time>
      </trkpt>
      <trkpt lat="47.550878" lon="7.895158">
        <ele>324.236451</ele>
        <time>2021-11-13T08:51:08.413Z</time>
      </trkpt>
      <trkpt lat="47.550838" lon="7.895509">
        <ele>323.935355</ele>
        <time>2021-11-13T08:51:11.577Z</time>
      </trkpt>
      <trkpt lat="47.550660" lon="7.896255">
        <ele>323.266078</ele>
        <time>2021-11-13T08:51:18.065Z</time>
      </trkpt>
      <trkpt lat="47.550639" lon="7.896345">
        <ele>323.185530</ele>
        <time>2021-11-13T08:51:19.252Z</time>
      </trkpt>
      <trkpt lat="47.550648" lon="7.896481">
        <ele>323.069942</ele>
        <time>2021-11-13T08:51:20.208Z</time>
      </trkpt>
      <trkpt lat="47.550819" lon="7.898109">
        <ele>319.737966</ele>
        <time>2021-11-13T08:51:31.955Z</time>
      </trkpt>
      <trkpt lat="47.550801" lon="7.900244">
        <ele>314.462022</ele>
        <time>2021-11-13T08:51:45.793Z</time>
      </trkpt>
      <trkpt lat="47.550769" lon="7.901362">
        <ele>311.317761</ele>
        <time>2021-11-13T08:51:53.064Z</time>
      </trkpt>
      <trkpt lat="47.550757" lon="7.901591">
        <ele>310.672363</ele>
        <time>2021-11-13T08:51:55.201Z</time>
      </trkpt>
      <trkpt lat="47.550688" lon="7.902451">
        <ele>308.364319</ele>
        <time>2021-11-13T08:52:03.635Z</time>
      </trkpt>
      <trkpt lat="47.550498" lon="7.903445">
        <ele>305.780208</ele>
        <time>2021-11-13T08:52:13.885Z</time>
      </trkpt>
      <trkpt lat="47.550302" lon="7.904164">
        <ele>303.840594</ele>
        <time>2021-11-13T08:52:21.144Z</time>
      </trkpt>
      <trkpt lat="47.550025" lon="7.904774">
        <ele>302.065138</ele>
        <time>2021-11-13T08:52:28.069Z</time>
      </trkpt>
      <trkpt lat="47.549868" lon="7.905010">
        <ele>301.310053</ele>
        <time>2021-11-13T08:52:31.201Z</time>
      </trkpt>
      <trkpt lat="47.549867" lon="7.905155">
        <ele>300.979623</ele>
        <time>2021-11-13T08:52:32.598Z</time>
      </trkpt>
      <trkpt lat="47.550067" lon="7.905245">
        <ele>300.273942</ele>
        <time>2021-11-13T08:52:35.523Z</time>
      </trkpt>
      <trkpt lat="47.550283" lon="7.905413">
        <ele>299.450325</ele>
        <time>2021-11-13T08:52:38.973Z</time>
      </trkpt>
      <trkpt lat="47.550497" lon="7.905558">
        <ele>298.655869</ele>
        <time>2021-11-13T08:52:42.332Z</time>
      </trkpt>
      <trkpt lat="47.549539" lon="7.908625">
        <ele>293.053399</ele>
        <time>2021-11-13T08:53:06.788Z</time>
      </trkpt>
      <trkpt lat="47.549520" lon="7.908678">
        <ele>292.967097</ele>
        <time>2021-11-13T08:53:07.285Z</time>
      </trkpt>
      <trkpt lat="47.549255" lon="7.909556">
        <ele>292.089820</ele>
        <time>2021-11-13T08:53:15.143Z</time>
      </trkpt>
      <trkpt lat="47.549195" lon="7.909756">
        <ele>291.904838</ele>
        <time>2021-11-13T08:53:16.917Z</time>
      </trkpt>
      <trkpt lat="47.549102" lon="7.910058">
        <ele>291.624281</ele>
        <time>2021-11-13T08:53:19.631Z</time>
      </trkpt>
      <trkpt lat="47.549012" lon="7.910340">
        <ele>291.360637</ele>
        <time>2021-11-13T08:53:22.136Z</time>
      </trkpt>
      <trkpt lat="47.548412" lon="7.912168">
        <ele>289.859178</ele>
        <time>2021-11-13T08:53:38.450Z</time>
      </trkpt>
      <trkpt lat="47.548027" lon="7.913334">
        <ele>289.021432</ele>
        <time>2021-11-13T08:53:49.211Z</time>
      </trkpt>
      <trkpt lat="47.547994" lon="7.913433">
        <ele>288.950171</ele>
        <time>2021-11-13T08:53:50.132Z</time>
      </trkpt>
      <trkpt lat="47.547423" lon="7.915080">
        <ele>288.769584</ele>
        <time>2021-11-13T08:54:07.620Z</time>
      </trkpt>
      <trkpt lat="47.547113" lon="7.915971">
        <ele>288.735366</ele>
        <time>2021-11-13T08:54:18.258Z</time>
      </trkpt>
      <trkpt lat="47.547091" lon="7.916039">
        <ele>288.764431</ele>
        <time>2021-11-13T08:54:19.308Z</time>
      </trkpt>
      <trkpt lat="47.547032" lon="7.916218">
        <ele>288.841212</ele>
        <time>2021-11-13T08:54:21.579Z</time>
      </trkpt>
      <trkpt lat="47.546821" lon="7.916867">
        <ele>289.118870</ele>
        <time>2021-11-13T08:54:29.994Z</time>
      </trkpt>
      <trkpt lat="47.546262" lon="7.919081">
        <ele>289.902594</ele>
        <time>2021-11-13T08:54:57.655Z</time>
      </trkpt>
      <trkpt lat="47.546128" lon="7.919617">
        <ele>290.020457</ele>
        <time>2021-11-13T08:55:03.083Z</time>
      </trkpt>
      <trkpt lat="47.545973" lon="7.920313">
        <ele>290.171586</ele>
        <time>2021-11-13T08:55:10.503Z</time>
      </trkpt>
      <trkpt lat="47.545913" lon="7.920765">
        <ele>290.266576</ele>
        <time>2021-11-13T08:55:15.260Z</time>
      </trkpt>
      <trkpt lat="47.545881" lon="7.921096">
        <ele>290.476238</ele>
        <time>2021-11-13T08:55:19.227Z</time>
      </trkpt>
      <trkpt lat="47.545810" lon="7.921755">
        <ele>291.258726</ele>
        <time>2021-11-13T08:55:27.837Z</time>
      </trkpt>
      <trkpt lat="47.545778" lon="7.921947">
        <ele>291.490616</ele>
        <time>2021-11-13T08:55:30.791Z</time>
      </trkpt>
      <trkpt lat="47.545714" lon="7.922249">
        <ele>291.861768</ele>
        <time>2021-11-13T08:55:34.644Z</time>
      </trkpt>
      <trkpt lat="47.545699" lon="7.922325">
        <ele>291.954612</ele>
        <time>2021-11-13T08:55:35.842Z</time>
      </trkpt>
      <trkpt lat="47.545690" lon="7.922369">
        <ele>292.008521</ele>
        <time>2021-11-13T08:55:36.913Z</time>
      </trkpt>
      <trkpt lat="47.545641" lon="7.922610">
        <ele>292.303647</ele>
        <time>2021-11-13T08:55:40.269Z</time>
      </trkpt>
      <trkpt lat="47.545587" lon="7.922895">
        <ele>292.650740</ele>
        <time>2021-11-13T08:55:45.101Z</time>
      </trkpt>
      <trkpt lat="47.545553" lon="7.923142">
        <ele>292.946321</ele>
        <time>2021-11-13T08:55:48.711Z</time>
      </trkpt>
      <trkpt lat="47.545536" lon="7.923407">
        <ele>293.258447</ele>
        <time>2021-11-13T08:55:53.587Z</time>
      </trkpt>
      <trkpt lat="47.545521" lon="7.923709">
        <ele>293.832491</ele>
        <time>2021-11-13T08:55:58.754Z</time>
      </trkpt>
      <trkpt lat="47.545481" lon="7.924396">
        <ele>295.605428</ele>
        <time>2021-11-13T08:56:13.357Z</time>
      </trkpt>
      <trkpt lat="47.545466" lon="7.924880">
        <ele>296.851175</ele>
        <time>2021-11-13T08:56:24.664Z</time>
      </trkpt>
      <trkpt lat="47.545446" lon="7.925350">
        <ele>298.062014</ele>
        <time>2021-11-13T08:56:35.039Z</time>
      </trkpt>
      <trkpt lat="47.545417" lon="7.925848">
        <ele>299.347203</ele>
        <time>2021-11-13T08:56:45.518Z</time>
      </trkpt>
      <trkpt lat="47.545409" lon="7.926773">
        <ele>300.803655</ele>
        <time>2021-11-13T08:57:02.719Z</time>
      </trkpt>
      <trkpt lat="47.545407" lon="7.927001">
        <ele>301.015723</ele>
        <time>2021-11-13T08:57:06.528Z</time>
      </trkpt>
      <trkpt lat="47.545406" lon="7.927306">
        <ele>301.299389</ele>
        <time>2021-11-13T08:57:11.132Z</time>
      </trkpt>
      <trkpt lat="47.545421" lon="7.927686">
        <ele>301.653409</ele>
        <time>2021-11-13T08:57:16.668Z</time>
      </trkpt>
      <trkpt lat="47.545475" lon="7.928419">
        <ele>302.339178</ele>
        <time>2021-11-13T08:57:25.985Z</time>
      </trkpt>
      <trkpt lat="47.545563" lon="7.929641">
        <ele>301.793481</ele>
        <time>2021-11-13T08:57:35.864Z</time>
      </trkpt>
      <trkpt lat="47.545661" lon="7.930955">
        <ele>300.150540</ele>
        <time>2021-11-13T08:57:45.260Z</time>
      </trkpt>
      <trkpt lat="47.545696" lon="7.931497">
        <ele>299.473883</ele>
        <time>2021-11-13T08:57:49.229Z</time>
      </trkpt>
      <trkpt lat="47.545721" lon="7.931992">
        <ele>299.225447</ele>
        <time>2021-11-13T08:57:53.022Z</time>
      </trkpt>
      <trkpt lat="47.545724" lon="7.932758">
        <ele>298.867180</ele>
        <time>2021-11-13T08:57:59.231Z</time>
      </trkpt>
      <trkpt lat="47.545702" lon="7.933290">
        <ele>298.617896</ele>
        <time>2021-11-13T08:58:03.874Z</time>
      </trkpt>
      <trkpt lat="47.545674" lon="7.933625">
        <ele>298.460018</ele>
        <time>2021-11-13T08:58:07.074Z</time>
      </trkpt>
      <trkpt lat="47.545457" lon="7.935110">
        <ele>299.029965</ele>
        <time>2021-11-13T08:58:25.209Z</time>
      </trkpt>
      <trkpt lat="47.545074" lon="7.936484">
        <ele>300.303909</ele>
        <time>2021-11-13T08:58:46.736Z</time>
      </trkpt>
      <trkpt lat="47.544903" lon="7.936917">
        <ele>300.835287</ele>
        <time>2021-11-13T08:58:54.053Z</time>
      </trkpt>
      <trkpt lat="47.544705" lon="7.937395">
        <ele>301.511931</ele>
        <time>2021-11-13T08:59:02.237Z</time>
      </trkpt>
      <trkpt lat="47.544472" lon="7.937932">
        <ele>302.282137</ele>
        <time>2021-11-13T08:59:11.644Z</time>
      </trkpt>
      <trkpt lat="47.543826" lon="7.939433">
        <ele>304.337272</ele>
        <time>2021-11-13T08:59:38.526Z</time>
      </trkpt>
      <trkpt lat="47.543435" lon="7.940670">
        <ele>305.776131</ele>
        <time>2021-11-13T08:59:58.486Z</time>
      </trkpt>
      <trkpt lat="47.543161" lon="7.942213">
        <ele>306.525680</ele>
        <time>2021-11-13T09:00:19.336Z</time>
      </trkpt>
      <trkpt lat="47.543007" lon="7.943867">
        <ele>306.560614</ele>
        <time>2021-11-13T09:00:34.880Z</time>
      </trkpt>
      <trkpt lat="47.542913" lon="7.945267">
        <ele>304.585743</ele>
        <time>2021-11-13T09:00:45.639Z</time>
      </trkpt>
      <trkpt lat="47.542872" lon="7.945781">
        <ele>303.807038</ele>
        <time>2021-11-13T09:00:49.236Z</time>
      </trkpt>
      <trkpt lat="47.542875" lon="7.946089">
        <ele>303.343597</ele>
        <time>2021-11-13T09:00:51.327Z</time>
      </trkpt>
      <trkpt lat="47.542902" lon="7.946514">
        <ele>302.701349</ele>
        <time>2021-11-13T09:00:54.206Z</time>
      </trkpt>
      <trkpt lat="47.542943" lon="7.946806">
        <ele>302.293888</ele>
        <time>2021-11-13T09:00:56.253Z</time>
      </trkpt>
      <trkpt lat="47.542974" lon="7.946965">
        <ele>302.079011</ele>
        <time>2021-11-13T09:00:57.463Z</time>
      </trkpt>
      <trkpt lat="47.542979" lon="7.946989">
        <ele>302.046400</ele>
        <time>2021-11-13T09:00:57.618Z</time>
      </trkpt>
      <trkpt lat="47.543007" lon="7.947104">
        <ele>301.887673</ele>
        <time>2021-11-13T09:00:58.467Z</time>
      </trkpt>
      <trkpt lat="47.543087" lon="7.947317">
        <ele>301.571198</ele>
        <time>2021-11-13T09:01:00.210Z</time>
      </trkpt>
      <trkpt lat="47.543191" lon="7.947615">
        <ele>301.135638</ele>
        <time>2021-11-13T09:01:02.651Z</time>
      </trkpt>
      <trkpt lat="47.543242" lon="7.947745">
        <ele>300.940418</ele>
        <time>2021-11-13T09:01:03.781Z</time>
      </trkpt>
      <trkpt lat="47.543273" lon="7.947816">
        <ele>300.830632</ele>
        <time>2021-11-13T09:01:04.408Z</time>
      </trkpt>
      <trkpt lat="47.543273" lon="7.947816">
        <ele>300.830632</ele>
        <time>2021-11-13T09:01:04.521Z</time>
      </trkpt>
      <trkpt lat="47.543273" lon="7.947816">
        <ele>300.830632</ele>
        <time>2021-11-13T09:01:04.541Z</time>
      </trkpt>
      <trkpt lat="47.543358" lon="7.947967">
        <ele>300.575359</ele>
        <time>2021-11-13T09:01:05.982Z</time>
      </trkpt>
      <trkpt lat="47.543455" lon="7.948127">
        <ele>300.296142</ele>
        <time>2021-11-13T09:01:07.650Z</time>
      </trkpt>
      <trkpt lat="47.543532" lon="7.948214">
        <ele>300.109881</ele>
        <time>2021-11-13T09:01:08.731Z</time>
      </trkpt>
      <trkpt lat="47.543579" lon="7.948287">
        <ele>299.978903</ele>
        <time>2021-11-13T09:01:09.490Z</time>
      </trkpt>
      <trkpt lat="47.543760" lon="7.948548">
        <ele>299.493076</ele>
        <time>2021-11-13T09:01:12.384Z</time>
      </trkpt>
      <trkpt lat="47.543864" lon="7.948694">
        <ele>299.217495</ele>
        <time>2021-11-13T09:01:14.055Z</time>
      </trkpt>
      <trkpt lat="47.544239" lon="7.949202">
        <ele>299.225859</ele>
        <time>2021-11-13T09:01:21.422Z</time>
      </trkpt>
      <trkpt lat="47.544521" lon="7.949558">
        <ele>299.335657</ele>
        <time>2021-11-13T09:01:27.597Z</time>
      </trkpt>
      <trkpt lat="47.544901" lon="7.950044">
        <ele>299.484429</ele>
        <time>2021-11-13T09:01:36.755Z</time>
      </trkpt>
      <trkpt lat="47.545166" lon="7.950366">
        <ele>299.585999</ele>
        <time>2021-11-13T09:01:43.084Z</time>
      </trkpt>
      <trkpt lat="47.545434" lon="7.950668">
        <ele>299.619608</ele>
        <time>2021-11-13T09:01:48.870Z</time>
      </trkpt>
      <trkpt lat="47.545542" lon="7.950842">
        <ele>299.613403</ele>
        <time>2021-11-13T09:01:51.353Z</time>
      </trkpt>
      <trkpt lat="47.545667" lon="7.950979">
        <ele>299.607356</ele>
        <time>2021-11-13T09:01:53.890Z</time>
      </trkpt>
      <trkpt lat="47.545737" lon="7.951055">
        <ele>299.603980</ele>
        <time>2021-11-13T09:01:55.162Z</time>
      </trkpt>
      <trkpt lat="47.545876" lon="7.951233">
        <ele>299.596835</ele>
        <time>2021-11-13T09:01:57.906Z</time>
      </trkpt>
      <trkpt lat="47.546112" lon="7.951485">
        <ele>299.585521</ele>
        <time>2021-11-13T09:02:02.039Z</time>
      </trkpt>
      <trkpt lat="47.546164" lon="7.951520">
        <ele>299.583300</ele>
        <time>2021-11-13T09:02:02.878Z</time>
      </trkpt>
      <trkpt lat="47.546212" lon="7.951535">
        <ele>299.581392</ele>
        <time>2021-11-13T09:02:03.592Z</time>
      </trkpt>
      <trkpt lat="47.546231" lon="7.951558">
        <ele>299.580438</ele>
        <time>2021-11-13T09:02:03.909Z</time>
      </trkpt>
      <trkpt lat="47.546421" lon="7.951793">
        <ele>299.570812</ele>
        <time>2021-11-13T09:02:07.213Z</time>
      </trkpt>
      <trkpt lat="47.546634" lon="7.952024">
        <ele>299.560546</ele>
        <time>2021-11-13T09:02:10.642Z</time>
      </trkpt>
      <trkpt lat="47.546695" lon="7.952091">
        <ele>299.557593</ele>
        <time>2021-11-13T09:02:11.606Z</time>
      </trkpt>
      <trkpt lat="47.546776" lon="7.952185">
        <ele>299.516830</ele>
        <time>2021-11-13T09:02:12.956Z</time>
      </trkpt>
      <trkpt lat="47.546935" lon="7.952372">
        <ele>299.431400</ele>
        <time>2021-11-13T09:02:15.604Z</time>
      </trkpt>
      <trkpt lat="47.547090" lon="7.952543">
        <ele>299.350075</ele>
        <time>2021-11-13T09:02:18.215Z</time>
      </trkpt>
      <trkpt lat="47.547400" lon="7.952910">
        <ele>299.183087</ele>
        <time>2021-11-13T09:02:23.622Z</time>
      </trkpt>
      <trkpt lat="47.547458" lon="7.952975">
        <ele>299.152483</ele>
        <time>2021-11-13T09:02:24.611Z</time>
      </trkpt>
      <trkpt lat="47.547550" lon="7.953078">
        <ele>299.103957</ele>
        <time>2021-11-13T09:02:26.223Z</time>
      </trkpt>
      <trkpt lat="47.547624" lon="7.953160">
        <ele>299.065069</ele>
        <time>2021-11-13T09:02:27.481Z</time>
      </trkpt>
      <trkpt lat="47.547797" lon="7.953355">
        <ele>298.973593</ele>
        <time>2021-11-13T09:02:30.494Z</time>
      </trkpt>
      <trkpt lat="47.547871" lon="7.953437">
        <ele>298.934706</ele>
        <time>2021-11-13T09:02:31.794Z</time>
      </trkpt>
      <trkpt lat="47.547994" lon="7.953584">
        <ele>298.868204</ele>
        <time>2021-11-13T09:02:33.967Z</time>
      </trkpt>
      <trkpt lat="47.548115" lon="7.953729">
        <ele>298.802713</ele>
        <time>2021-11-13T09:02:36.122Z</time>
      </trkpt>
      <trkpt lat="47.548251" lon="7.953895">
        <ele>298.639876</ele>
        <time>2021-11-13T09:02:38.519Z</time>
      </trkpt>
      <trkpt lat="47.548335" lon="7.953779">
        <ele>298.531927</ele>
        <time>2021-11-13T09:02:40.425Z</time>
      </trkpt>
      <trkpt lat="47.549128" lon="7.953358">
        <ele>297.740041</ele>
        <time>2021-11-13T09:02:55.627Z</time>
      </trkpt>
      <trkpt lat="47.549296" lon="7.953268">
        <ele>297.572103</ele>
        <time>2021-11-13T09:02:58.745Z</time>
      </trkpt>
      <trkpt lat="47.549442" lon="7.953195">
        <ele>297.427248</ele>
        <time>2021-11-13T09:03:01.300Z</time>
      </trkpt>
      <trkpt lat="47.549640" lon="7.953086">
        <ele>297.228682</ele>
        <time>2021-11-13T09:03:05.009Z</time>
      </trkpt>
      <trkpt lat="47.549673" lon="7.953076">
        <ele>297.197018</ele>
        <time>2021-11-13T09:03:05.568Z</time>
      </trkpt>
      <trkpt lat="47.549687" lon="7.953071">
        <ele>297.183480</ele>
        <time>2021-11-13T09:03:05.760Z</time>
      </trkpt>
      <trkpt lat="47.550567" lon="7.953069">
        <ele>295.444459</ele>
        <time>2021-11-13T09:03:19.933Z</time>
      </trkpt>
      <trkpt lat="47.550656" lon="7.953072">
        <ele>295.259489</ele>
        <time>2021-11-13T09:03:21.248Z</time>
      </trkpt>
      <trkpt lat="47.550967" lon="7.953063">
        <ele>294.613179</ele>
        <time>2021-11-13T09:03:26.010Z</time>
      </trkpt>
      <trkpt lat="47.551254" lon="7.952986">
        <ele>294.007161</ele>
        <time>2021-11-13T09:03:30.399Z</time>
      </trkpt>
      <trkpt lat="47.551295" lon="7.952900">
        <ele>293.859506</ele>
        <time>2021-11-13T09:03:31.462Z</time>
      </trkpt>
      <trkpt lat="47.551334" lon="7.952777">
        <ele>293.668931</ele>
        <time>2021-11-13T09:03:34.137Z</time>
      </trkpt>
      <trkpt lat="47.551339" lon="7.952761">
        <ele>293.644205</ele>
        <time>2021-11-13T09:03:34.508Z</time>
      </trkpt>
      <trkpt lat="47.551381" lon="7.952341">
        <ele>293.137667</ele>
        <time>2021-11-13T09:03:43.289Z</time>
      </trkpt>
      <trkpt lat="47.551506" lon="7.950255">
        <ele>291.007377</ele>
        <time>2021-11-13T09:04:28.826Z</time>
      </trkpt>
      <trkpt lat="47.551525" lon="7.950027">
        <ele>290.773687</ele>
        <time>2021-11-13T09:04:34.287Z</time>
      </trkpt>
      <trkpt lat="47.551581" lon="7.949830">
        <ele>290.685297</ele>
        <time>2021-11-13T09:04:39.439Z</time>
      </trkpt>
      <trkpt lat="47.551673" lon="7.949634">
        <ele>290.740018</ele>
        <time>2021-11-13T09:04:45.525Z</time>
      </trkpt>
      <trkpt lat="47.551794" lon="7.949387">
        <ele>290.809973</ele>
        <time>2021-11-13T09:04:53.086Z</time>
      </trkpt>
      <trkpt lat="47.552010" lon="7.949039">
        <ele>290.918339</ele>
        <time>2021-11-13T09:05:05.258Z</time>
      </trkpt>
      <trkpt lat="47.552049" lon="7.948982">
        <ele>290.936943</ele>
        <time>2021-11-13T09:05:07.399Z</time>
      </trkpt>
      <trkpt lat="47.552094" lon="7.948926">
        <ele>290.956900</ele>
        <time>2021-11-13T09:05:09.783Z</time>
      </trkpt>
      <trkpt lat="47.552202" lon="7.949003">
        <ele>290.997602</ele>
        <time>2021-11-13T09:05:14.495Z</time>
      </trkpt>
      <trkpt lat="47.552268" lon="7.949045">
        <ele>291.021996</ele>
        <time>2021-11-13T09:05:17.303Z</time>
      </trkpt>
      <trkpt lat="47.552351" lon="7.949099">
        <ele>291.052781</ele>
        <time>2021-11-13T09:05:20.888Z</time>
      </trkpt>
      <trkpt lat="47.552382" lon="7.949119">
        <ele>291.064263</ele>
        <time>2021-11-13T09:05:22.331Z</time>
      </trkpt>
      <trkpt lat="47.552518" lon="7.949236">
        <ele>291.117670</ele>
        <time>2021-11-13T09:05:28.796Z</time>
      </trkpt>
      <trkpt lat="47.552953" lon="7.948775">
        <ele>291.321975</ele>
        <time>2021-11-13T09:05:50.665Z</time>
      </trkpt>
      <trkpt lat="47.553197" lon="7.948543">
        <ele>291.503424</ele>
        <time>2021-11-13T09:06:02.217Z</time>
      </trkpt>
      <trkpt lat="47.553288" lon="7.948467">
        <ele>291.568802</ele>
        <time>2021-11-13T09:06:09.462Z</time>
      </trkpt>
      <trkpt lat="47.553288" lon="7.948467">
        <ele>291.568802</ele>
        <time>2021-11-13T09:06:09.464Z</time>
      </trkpt>
      <trkpt lat="47.553882" lon="7.947998">
        <ele>291.990054</ele>
        <time>2021-11-13T09:06:21.937Z</time>
      </trkpt>
      <trkpt lat="47.554475" lon="7.947529">
        <ele>292.428818</ele>
        <time>2021-11-13T09:06:34.397Z</time>
      </trkpt>
      <trkpt lat="47.554475" lon="7.947529">
        <ele>292.428818</ele>
        <time>2021-11-13T09:06:34.419Z</time>
      </trkpt>
      <trkpt lat="47.554517" lon="7.947576">
        <ele>292.508781</ele>
        <time>2021-11-13T09:06:35.310Z</time>
      </trkpt>
      <trkpt lat="47.554563" lon="7.947632">
        <ele>292.599230</ele>
        <time>2021-11-13T09:06:36.440Z</time>
      </trkpt>
      <trkpt lat="47.554614" lon="7.947707">
        <ele>292.708397</ele>
        <time>2021-11-13T09:06:37.715Z</time>
      </trkpt>
      <trkpt lat="47.554731" lon="7.947945">
        <ele>293.010304</ele>
        <time>2021-11-13T09:06:41.239Z</time>
      </trkpt>
      <trkpt lat="47.554749" lon="7.947993">
        <ele>293.066608</ele>
        <time>2021-11-13T09:06:41.985Z</time>
      </trkpt>
      <trkpt lat="47.554810" lon="7.947963">
        <ele>293.164255</ele>
        <time>2021-11-13T09:06:43.508Z</time>
      </trkpt>
      <trkpt lat="47.554903" lon="7.947916">
        <ele>293.313540</ele>
        <time>2021-11-13T09:06:45.508Z</time>
      </trkpt>
      <trkpt lat="47.555286" lon="7.947750">
        <ele>293.919805</ele>
        <time>2021-11-13T09:06:53.823Z</time>
      </trkpt>
      <trkpt lat="47.555306" lon="7.947738">
        <ele>293.952588</ele>
        <time>2021-11-13T09:06:54.250Z</time>
      </trkpt>
      <trkpt lat="47.555379" lon="7.947702">
        <ele>294.069476</ele>
        <time>2021-11-13T09:06:55.784Z</time>
      </trkpt>
      <trkpt lat="47.555417" lon="7.947683">
        <ele>294.130407</ele>
        <time>2021-11-13T09:06:56.638Z</time>
      </trkpt>
      <trkpt lat="47.555582" lon="7.947589">
        <ele>294.398977</ele>
        <time>2021-11-13T09:07:00.914Z</time>
      </trkpt>
      <trkpt lat="47.555636" lon="7.947544">
        <ele>294.493102</ele>
        <time>2021-11-13T09:07:02.280Z</time>
      </trkpt>
      <trkpt lat="47.555751" lon="7.947427">
        <ele>294.705039</ele>
        <time>2021-11-13T09:07:05.382Z</time>
      </trkpt>
      <trkpt lat="47.555846" lon="7.947320">
        <ele>294.886333</ele>
        <time>2021-11-13T09:07:08.545Z</time>
      </trkpt>
      <trkpt lat="47.555912" lon="7.947254">
        <ele>295.007303</ele>
        <time>2021-11-13T09:07:10.333Z</time>
      </trkpt>
      <trkpt lat="47.556009" lon="7.947161">
        <ele>295.212116</ele>
        <time>2021-11-13T09:07:12.826Z</time>
      </trkpt>
      <trkpt lat="47.556050" lon="7.947125">
        <ele>295.325220</ele>
        <time>2021-11-13T09:07:13.924Z</time>
      </trkpt>
      <trkpt lat="47.556160" lon="7.947027">
        <ele>295.629833</ele>
        <time>2021-11-13T09:07:17.343Z</time>
      </trkpt>
      <trkpt lat="47.556716" lon="7.946585">
        <ele>297.127275</ele>
        <time>2021-11-13T09:07:32.172Z</time>
      </trkpt>
      <trkpt lat="47.556890" lon="7.946422">
        <ele>297.615826</ele>
        <time>2021-11-13T09:07:37.336Z</time>
      </trkpt>
      <trkpt lat="47.557026" lon="7.946287">
        <ele>298.004319</ele>
        <time>2021-11-13T09:07:41.228Z</time>
      </trkpt>
      <trkpt lat="47.557115" lon="7.946255">
        <ele>298.221669</ele>
        <time>2021-11-13T09:07:43.614Z</time>
      </trkpt>
      <trkpt lat="47.557303" lon="7.946078">
        <ele>298.750286</ele>
        <time>2021-11-13T09:07:48.824Z</time>
      </trkpt>
      <trkpt lat="47.557371" lon="7.946013">
        <ele>298.942333</ele>
        <time>2021-11-13T09:07:50.957Z</time>
      </trkpt>
      <trkpt lat="47.557460" lon="7.945924">
        <ele>299.197152</ele>
        <time>2021-11-13T09:07:53.654Z</time>
      </trkpt>
      <trkpt lat="47.557555" lon="7.945842">
        <ele>299.505343</ele>
        <time>2021-11-13T09:07:56.266Z</time>
      </trkpt>
      <trkpt lat="47.557631" lon="7.945782">
        <ele>299.874361</ele>
        <time>2021-11-13T09:07:58.296Z</time>
      </trkpt>
      <trkpt lat="47.557744" lon="7.945674">
        <ele>300.450580</ele>
        <time>2021-11-13T09:08:01.697Z</time>
      </trkpt>
      <trkpt lat="47.557910" lon="7.945625">
        <ele>301.175908</ele>
        <time>2021-11-13T09:08:06.085Z</time>
      </trkpt>
      <trkpt lat="47.558009" lon="7.945617">
        <ele>301.600778</ele>
        <time>2021-11-13T09:08:08.775Z</time>
      </trkpt>
      <trkpt lat="47.558102" lon="7.945615">
        <ele>301.999349</ele>
        <time>2021-11-13T09:08:11.361Z</time>
      </trkpt>
      <trkpt lat="47.558161" lon="7.945614">
        <ele>302.252195</ele>
        <time>2021-11-13T09:08:13.153Z</time>
      </trkpt>
      <trkpt lat="47.558415" lon="7.945666">
        <ele>303.350988</ele>
        <time>2021-11-13T09:08:20.967Z</time>
      </trkpt>
      <trkpt lat="47.558540" lon="7.945722">
        <ele>303.910589</ele>
        <time>2021-11-13T09:08:24.656Z</time>
      </trkpt>
      <trkpt lat="47.558608" lon="7.945765">
        <ele>304.227409</ele>
        <time>2021-11-13T09:08:27.573Z</time>
      </trkpt>
      <trkpt lat="47.558700" lon="7.945825">
        <ele>304.658145</ele>
        <time>2021-11-13T09:08:30.822Z</time>
      </trkpt>
      <trkpt lat="47.558739" lon="7.945644">
        <ele>305.207601</ele>
        <time>2021-11-13T09:08:35.053Z</time>
      </trkpt>
      <trkpt lat="47.558781" lon="7.945419">
        <ele>305.882697</ele>
        <time>2021-11-13T09:08:40.955Z</time>
      </trkpt>
      <trkpt lat="47.558967" lon="7.945068">
        <ele>307.230652</ele>
        <time>2021-11-13T09:08:52.191Z</time>
      </trkpt>
      <trkpt lat="47.559249" lon="7.944727">
        <ele>310.141599</ele>
        <time>2021-11-13T09:09:07.587Z</time>
      </trkpt>
      <trkpt lat="47.559263" lon="7.944710">
        <ele>310.286356</ele>
        <time>2021-11-13T09:09:09.161Z</time>
      </trkpt>
      <trkpt lat="47.559609" lon="7.944534">
        <ele>313.212036</ele>
        <time>2021-11-13T09:09:26.956Z</time>
      </trkpt>
      <trkpt lat="47.559774" lon="7.944500">
        <ele>314.544347</ele>
        <time>2021-11-13T09:09:34.428Z</time>
      </trkpt>
      <trkpt lat="47.559855" lon="7.944533">
        <ele>315.216193</ele>
        <time>2021-11-13T09:09:38.916Z</time>
      </trkpt>
      <trkpt lat="47.560106" lon="7.944624">
        <ele>317.282811</ele>
        <time>2021-11-13T09:09:51.645Z</time>
      </trkpt>
      <trkpt lat="47.560144" lon="7.944665">
        <ele>317.658742</ele>
        <time>2021-11-13T09:09:54.640Z</time>
      </trkpt>
      <trkpt lat="47.560288" lon="7.944850">
        <ele>319.182946</ele>
        <time>2021-11-13T09:10:04.703Z</time>
      </trkpt>
      <trkpt lat="47.560464" lon="7.945085">
        <ele>321.077630</ele>
        <time>2021-11-13T09:10:16.496Z</time>
      </trkpt>
      <trkpt lat="47.560632" lon="7.945223">
        <ele>322.462219</ele>
        <time>2021-11-13T09:10:25.244Z</time>
      </trkpt>
      <trkpt lat="47.560748" lon="7.945268">
        <ele>323.291594</ele>
        <time>2021-11-13T09:10:31.247Z</time>
      </trkpt>
      <trkpt lat="47.560884" lon="7.945275">
        <ele>324.232834</ele>
        <time>2021-11-13T09:10:37.287Z</time>
      </trkpt>
      <trkpt lat="47.561051" lon="7.945242">
        <ele>325.398150</ele>
        <time>2021-11-13T09:10:44.584Z</time>
      </trkpt>
      <trkpt lat="47.561253" lon="7.945105">
        <ele>326.934699</ele>
        <time>2021-11-13T09:10:54.618Z</time>
      </trkpt>
      <trkpt lat="47.561549" lon="7.944844">
        <ele>329.317055</ele>
        <time>2021-11-13T09:11:08.723Z</time>
      </trkpt>
      <trkpt lat="47.561590" lon="7.944808">
        <ele>329.646682</ele>
        <time>2021-11-13T09:11:10.196Z</time>
      </trkpt>
      <trkpt lat="47.561884" lon="7.944575">
        <ele>331.952724</ele>
        <time>2021-11-13T09:11:24.446Z</time>
      </trkpt>
      <trkpt lat="47.562104" lon="7.944442">
        <ele>333.596148</ele>
        <time>2021-11-13T09:11:33.481Z</time>
      </trkpt>
      <trkpt lat="47.562431" lon="7.944285">
        <ele>334.872682</ele>
        <time>2021-11-13T09:11:46.791Z</time>
      </trkpt>
      <trkpt lat="47.562993" lon="7.944148">
        <ele>336.687051</ele>
        <time>2021-11-13T09:12:04.015Z</time>
      </trkpt>
      <trkpt lat="47.563121" lon="7.944175">
        <ele>337.098918</ele>
        <time>2021-11-13T09:12:06.634Z</time>
      </trkpt>
      <trkpt lat="47.563250" lon="7.944210">
        <ele>337.516691</ele>
        <time>2021-11-13T09:12:10.616Z</time>
      </trkpt>
      <trkpt lat="47.563376" lon="7.944323">
        <ele>337.985852</ele>
        <time>2021-11-13T09:12:12.591Z</time>
      </trkpt>
      <trkpt lat="47.563617" lon="7.944825">
        <ele>339.310171</ele>
        <time>2021-11-13T09:12:20.409Z</time>
      </trkpt>
      <trkpt lat="47.563643" lon="7.944887">
        <ele>339.467083</ele>
        <time>2021-11-13T09:12:23.054Z</time>
      </trkpt>
      <trkpt lat="47.563685" lon="7.944852">
        <ele>339.620580</ele>
        <time>2021-11-13T09:12:23.954Z</time>
      </trkpt>
      <trkpt lat="47.563821" lon="7.944614">
        <ele>340.187334</ele>
        <time>2021-11-13T09:12:27.187Z</time>
      </trkpt>
      <trkpt lat="47.563801" lon="7.944401">
        <ele>340.573375</ele>
        <time>2021-11-13T09:12:31.323Z</time>
      </trkpt>
      <trkpt lat="47.563689" lon="7.944279">
        <ele>340.943160</ele>
        <time>2021-11-13T09:12:35.197Z</time>
      </trkpt>
      <trkpt lat="47.563649" lon="7.944253">
        <ele>341.059358</ele>
        <time>2021-11-13T09:12:35.706Z</time>
      </trkpt>
      <trkpt lat="47.563594" lon="7.944220">
        <ele>341.217213</ele>
        <time>2021-11-13T09:12:36.392Z</time>
      </trkpt>
      <trkpt lat="47.563429" lon="7.944021">
        <ele>341.783157</ele>
        <time>2021-11-13T09:12:42.677Z</time>
      </trkpt>
      <trkpt lat="47.563413" lon="7.943822">
        <ele>342.142913</ele>
        <time>2021-11-13T09:12:44.996Z</time>
      </trkpt>
      <trkpt lat="47.563464" lon="7.943662">
        <ele>342.460565</ele>
        <time>2021-11-13T09:12:48.347Z</time>
      </trkpt>
      <trkpt lat="47.563511" lon="7.943574">
        <ele>342.662030</ele>
        <time>2021-11-13T09:12:49.187Z</time>
      </trkpt>
      <trkpt lat="47.563601" lon="7.943496">
        <ele>342.939396</ele>
        <time>2021-11-13T09:12:51.934Z</time>
      </trkpt>
      <trkpt lat="47.563719" lon="7.943365">
        <ele>343.331627</ele>
        <time>2021-11-13T09:12:55.721Z</time>
      </trkpt>
      <trkpt lat="47.563845" lon="7.943225">
        <ele>343.750577</ele>
        <time>2021-11-13T09:12:59.454Z</time>
      </trkpt>
      <trkpt lat="47.564097" lon="7.942881">
        <ele>345.022535</ele>
        <time>2021-11-13T09:13:10.271Z</time>
      </trkpt>
      <trkpt lat="47.564121" lon="7.942841">
        <ele>345.280015</ele>
        <time>2021-11-13T09:13:12.313Z</time>
      </trkpt>
      <trkpt lat="47.564135" lon="7.942819">
        <ele>345.425482</ele>
        <time>2021-11-13T09:13:12.653Z</time>
      </trkpt>
      <trkpt lat="47.564264" lon="7.942637">
        <ele>346.695201</ele>
        <time>2021-11-13T09:13:19.604Z</time>
      </trkpt>
      <trkpt lat="47.564507" lon="7.942214">
        <ele>349.367509</ele>
        <time>2021-11-13T09:13:35.339Z</time>
      </trkpt>
      <trkpt lat="47.564693" lon="7.942033">
        <ele>350.953786</ele>
        <time>2021-11-13T09:13:44.198Z</time>
      </trkpt>
      <trkpt lat="47.564814" lon="7.941979">
        <ele>351.854647</ele>
        <time>2021-11-13T09:13:51.531Z</time>
      </trkpt>
      <trkpt lat="47.564898" lon="7.941972">
        <ele>352.454423</ele>
        <time>2021-11-13T09:13:55.379Z</time>
      </trkpt>
      <trkpt lat="47.565002" lon="7.941980">
        <ele>353.196828</ele>
        <time>2021-11-13T09:14:00.525Z</time>
      </trkpt>
      <trkpt lat="47.565144" lon="7.942041">
        <ele>354.250803</ele>
        <time>2021-11-13T09:14:08.869Z</time>
      </trkpt>
      <trkpt lat="47.565154" lon="7.942045">
        <ele>354.324643</ele>
        <time>2021-11-13T09:14:09.859Z</time>
      </trkpt>
      <trkpt lat="47.565593" lon="7.942200">
        <ele>357.477637</ele>
        <time>2021-11-13T09:14:31.151Z</time>
      </trkpt>
      <trkpt lat="47.566242" lon="7.941972">
        <ele>361.110495</ele>
        <time>2021-11-13T09:15:02.452Z</time>
      </trkpt>
      <trkpt lat="47.566527" lon="7.941959">
        <ele>362.663537</ele>
        <time>2021-11-13T09:15:14.258Z</time>
      </trkpt>
      <trkpt lat="47.567279" lon="7.942328">
        <ele>366.978101</ele>
        <time>2021-11-13T09:15:33.914Z</time>
      </trkpt>
      <trkpt lat="47.567412" lon="7.942343">
        <ele>367.311775</ele>
        <time>2021-11-13T09:15:38.263Z</time>
      </trkpt>
      <trkpt lat="47.567471" lon="7.942315">
        <ele>367.441488</ele>
        <time>2021-11-13T09:15:39.678Z</time>
      </trkpt>
      <trkpt lat="47.567523" lon="7.942285">
        <ele>367.558324</ele>
        <time>2021-11-13T09:15:40.760Z</time>
      </trkpt>
      <trkpt lat="47.567949" lon="7.942100">
        <ele>368.487789</ele>
        <time>2021-11-13T09:15:52.165Z</time>
      </trkpt>
      <trkpt lat="47.568118" lon="7.941960">
        <ele>368.893165</ele>
        <time>2021-11-13T09:15:56.795Z</time>
      </trkpt>
      <trkpt lat="47.568200" lon="7.941896">
        <ele>369.087209</ele>
        <time>2021-11-13T09:15:58.517Z</time>
      </trkpt>
      <trkpt lat="47.568271" lon="7.941748">
        <ele>369.343754</ele>
        <time>2021-11-13T09:16:01.370Z</time>
      </trkpt>
      <trkpt lat="47.568317" lon="7.941562">
        <ele>369.623615</ele>
        <time>2021-11-13T09:16:04.560Z</time>
      </trkpt>
      <trkpt lat="47.568379" lon="7.941267">
        <ele>370.060116</ele>
        <time>2021-11-13T09:16:08.451Z</time>
      </trkpt>
      <trkpt lat="47.568448" lon="7.941044">
        <ele>370.406699</ele>
        <time>2021-11-13T09:16:12.265Z</time>
      </trkpt>
      <trkpt lat="47.568494" lon="7.940909">
        <ele>370.620356</ele>
        <time>2021-11-13T09:16:14.053Z</time>
      </trkpt>
      <trkpt lat="47.568520" lon="7.940846">
        <ele>370.724686</ele>
        <time>2021-11-13T09:16:15.168Z</time>
      </trkpt>
      <trkpt lat="47.568598" lon="7.940707">
        <ele>371.153153</ele>
        <time>2021-11-13T09:16:17.312Z</time>
      </trkpt>
      <trkpt lat="47.569027" lon="7.940428">
        <ele>373.284065</ele>
        <time>2021-11-13T09:16:27.289Z</time>
      </trkpt>
      <trkpt lat="47.569418" lon="7.940363">
        <ele>375.073695</ele>
        <time>2021-11-13T09:16:38.339Z</time>
      </trkpt>
      <trkpt lat="47.570390" lon="7.940352">
        <ele>379.762116</ele>
        <time>2021-11-13T09:17:19.743Z</time>
      </trkpt>
      <trkpt lat="47.570745" lon="7.940187">
        <ele>382.393496</ele>
        <time>2021-11-13T09:17:36.154Z</time>
      </trkpt>
      <trkpt lat="47.570849" lon="7.940098">
        <ele>383.242860</ele>
        <time>2021-11-13T09:17:42.172Z</time>
      </trkpt>
      <trkpt lat="47.570920" lon="7.939991">
        <ele>383.959007</ele>
        <time>2021-11-13T09:17:48.125Z</time>
      </trkpt>
      <trkpt lat="47.570986" lon="7.939853">
        <ele>384.766186</ele>
        <time>2021-11-13T09:17:52.316Z</time>
      </trkpt>
      <trkpt lat="47.571121" lon="7.939531">
        <ele>386.575213</ele>
        <time>2021-11-13T09:18:03.258Z</time>
      </trkpt>
      <trkpt lat="47.571321" lon="7.939067">
        <ele>389.202612</ele>
        <time>2021-11-13T09:18:18.789Z</time>
      </trkpt>
      <trkpt lat="47.571744" lon="7.938297">
        <ele>392.897689</ele>
        <time>2021-11-13T09:18:47.199Z</time>
      </trkpt>
      <trkpt lat="47.571792" lon="7.938168">
        <ele>393.268218</ele>
        <time>2021-11-13T09:18:51.802Z</time>
      </trkpt>
      <trkpt lat="47.571814" lon="7.938108">
        <ele>393.439974</ele>
        <time>2021-11-13T09:18:53.394Z</time>
      </trkpt>
      <trkpt lat="47.571837" lon="7.938094">
        <ele>393.532667</ele>
        <time>2021-11-13T09:18:53.637Z</time>
      </trkpt>
      <trkpt lat="47.571892" lon="7.938121">
        <ele>393.748660</ele>
        <time>2021-11-13T09:18:55.858Z</time>
      </trkpt>
      <trkpt lat="47.572087" lon="7.938259">
        <ele>394.554228</ele>
        <time>2021-11-13T09:19:03.715Z</time>
      </trkpt>
      <trkpt lat="47.572457" lon="7.938598">
        <ele>396.175834</ele>
        <time>2021-11-13T09:19:16.170Z</time>
      </trkpt>
      <trkpt lat="47.572709" lon="7.938608">
        <ele>397.115625</ele>
        <time>2021-11-13T09:19:21.056Z</time>
      </trkpt>
      <trkpt lat="47.572910" lon="7.938451">
        <ele>397.962628</ele>
        <time>2021-11-13T09:19:25.308Z</time>
      </trkpt>
      <trkpt lat="47.573038" lon="7.938150">
        <ele>398.757065</ele>
        <time>2021-11-13T09:19:29.448Z</time>
      </trkpt>
      <trkpt lat="47.573078" lon="7.937709">
        <ele>399.606732</ele>
        <time>2021-11-13T09:19:34.210Z</time>
      </trkpt>
      <trkpt lat="47.573036" lon="7.937429">
        <ele>400.154448</ele>
        <time>2021-11-13T09:19:39.012Z</time>
      </trkpt>
      <trkpt lat="47.573024" lon="7.937357">
        <ele>400.296066</ele>
        <time>2021-11-13T09:19:39.940Z</time>
      </trkpt>
      <trkpt lat="47.573010" lon="7.937121">
        <ele>400.748447</ele>
        <time>2021-11-13T09:19:44.121Z</time>
      </trkpt>
      <trkpt lat="47.573010" lon="7.936978">
        <ele>401.021506</ele>
        <time>2021-11-13T09:19:46.404Z</time>
      </trkpt>
      <trkpt lat="47.573124" lon="7.936542">
        <ele>401.914388</ele>
        <time>2021-11-13T09:19:55.093Z</time>
      </trkpt>
      <trkpt lat="47.573179" lon="7.936342">
        <ele>402.326796</ele>
        <time>2021-11-13T09:19:59.552Z</time>
      </trkpt>
      <trkpt lat="47.573277" lon="7.936016">
        <ele>403.008293</ele>
        <time>2021-11-13T09:20:07.262Z</time>
      </trkpt>
      <trkpt lat="47.573388" lon="7.935781">
        <ele>403.596765</ele>
        <time>2021-11-13T09:20:13.202Z</time>
      </trkpt>
      <trkpt lat="47.573432" lon="7.935767">
        <ele>403.932122</ele>
        <time>2021-11-13T09:20:15.316Z</time>
      </trkpt>
      <trkpt lat="47.573597" lon="7.935752">
        <ele>405.164011</ele>
        <time>2021-11-13T09:20:21.144Z</time>
      </trkpt>
      <trkpt lat="47.573935" lon="7.935634">
        <ele>407.751703</ele>
        <time>2021-11-13T09:20:33.276Z</time>
      </trkpt>
      <trkpt lat="47.574115" lon="7.935550">
        <ele>409.157967</ele>
        <time>2021-11-13T09:20:40.861Z</time>
      </trkpt>
      <trkpt lat="47.574365" lon="7.935391">
        <ele>411.185213</ele>
        <time>2021-11-13T09:20:52.797Z</time>
      </trkpt>
      <trkpt lat="47.574919" lon="7.934783">
        <ele>416.322004</ele>
        <time>2021-11-13T09:21:29.133Z</time>
      </trkpt>
      <trkpt lat="47.575144" lon="7.934641">
        <ele>418.618288</ele>
        <time>2021-11-13T09:21:42.846Z</time>
      </trkpt>
      <trkpt lat="47.576460" lon="7.934694">
        <ele>432.272226</ele>
        <time>2021-11-13T09:22:58.344Z</time>
      </trkpt>
      <trkpt lat="47.577613" lon="7.934227">
        <ele>441.977409</ele>
        <time>2021-11-13T09:24:04.595Z</time>
      </trkpt>
      <trkpt lat="47.578335" lon="7.934175">
        <ele>447.252093</ele>
        <time>2021-11-13T09:24:32.488Z</time>
      </trkpt>
      <trkpt lat="47.578634" lon="7.934108">
        <ele>448.843955</ele>
        <time>2021-11-13T09:24:41.459Z</time>
      </trkpt>
      <trkpt lat="47.578958" lon="7.933883">
        <ele>449.299419</ele>
        <time>2021-11-13T09:24:48.943Z</time>
      </trkpt>
      <trkpt lat="47.579132" lon="7.933628">
        <ele>449.610888</ele>
        <time>2021-11-13T09:24:52.214Z</time>
      </trkpt>
      <trkpt lat="47.579242" lon="7.933285">
        <ele>449.937023</ele>
        <time>2021-11-13T09:24:55.272Z</time>
      </trkpt>
      <trkpt lat="47.579658" lon="7.932985">
        <ele>450.525925</ele>
        <time>2021-11-13T09:25:02.361Z</time>
      </trkpt>
      <trkpt lat="47.579800" lon="7.932767">
        <ele>450.786156</ele>
        <time>2021-11-13T09:25:05.240Z</time>
      </trkpt>
      <trkpt lat="47.579974" lon="7.931980">
        <ele>454.165101</ele>
        <time>2021-11-13T09:25:18.672Z</time>
      </trkpt>
      <trkpt lat="47.580010" lon="7.931498">
        <ele>456.832096</ele>
        <time>2021-11-13T09:25:31.275Z</time>
      </trkpt>
      <trkpt lat="47.580072" lon="7.931374">
        <ele>457.680952</ele>
        <time>2021-11-13T09:25:34.092Z</time>
      </trkpt>
      <trkpt lat="47.580163" lon="7.931340">
        <ele>458.446060</ele>
        <time>2021-11-13T09:25:39.446Z</time>
      </trkpt>
      <trkpt lat="47.580252" lon="7.931274">
        <ele>459.257383</ele>
        <time>2021-11-13T09:25:46.333Z</time>
      </trkpt>
      <trkpt lat="47.580503" lon="7.931087">
        <ele>461.547629</ele>
        <time>2021-11-13T09:26:01.808Z</time>
      </trkpt>
      <trkpt lat="47.580843" lon="7.931025">
        <ele>464.340484</ele>
        <time>2021-11-13T09:26:24.198Z</time>
      </trkpt>
      <trkpt lat="47.581453" lon="7.931036">
        <ele>472.823872</ele>
        <time>2021-11-13T09:27:17.404Z</time>
      </trkpt>
      <trkpt lat="47.581836" lon="7.931205">
        <ele>479.217707</ele>
        <time>2021-11-13T09:27:55.475Z</time>
      </trkpt>
      <trkpt lat="47.582198" lon="7.931692">
        <ele>487.039176</ele>
        <time>2021-11-13T09:28:34.885Z</time>
      </trkpt>
      <trkpt lat="47.582368" lon="7.932080">
        <ele>492.032634</ele>
        <time>2021-11-13T09:29:01.090Z</time>
      </trkpt>
      <trkpt lat="47.582393" lon="7.932214">
        <ele>493.533159</ele>
        <time>2021-11-13T09:29:09.502Z</time>
      </trkpt>
      <trkpt lat="47.582982" lon="7.933185">
        <ele>506.441766</ele>
        <time>2021-11-13T09:30:23.589Z</time>
      </trkpt>
      <trkpt lat="47.583083" lon="7.933623">
        <ele>510.988240</ele>
        <time>2021-11-13T09:30:49.321Z</time>
      </trkpt>
      <trkpt lat="47.583284" lon="7.934090">
        <ele>516.429348</ele>
        <time>2021-11-13T09:31:17.331Z</time>
      </trkpt>
      <trkpt lat="47.584068" lon="7.934949">
        <ele>526.927712</ele>
        <time>2021-11-13T09:32:22.607Z</time>
      </trkpt>
      <trkpt lat="47.584391" lon="7.935133">
        <ele>530.101113</ele>
        <time>2021-11-13T09:32:44.498Z</time>
      </trkpt>
      <trkpt lat="47.584599" lon="7.935175">
        <ele>532.026306</ele>
        <time>2021-11-13T09:32:55.943Z</time>
      </trkpt>
      <trkpt lat="47.584715" lon="7.935306">
        <ele>533.363629</ele>
        <time>2021-11-13T09:33:03.024Z</time>
      </trkpt>
      <trkpt lat="47.584853" lon="7.935700">
        <ele>536.109874</ele>
        <time>2021-11-13T09:33:16.195Z</time>
      </trkpt>
      <trkpt lat="47.584994" lon="7.935843">
        <ele>537.458309</ele>
        <time>2021-11-13T09:33:22.818Z</time>
      </trkpt>
      <trkpt lat="47.585129" lon="7.935884">
        <ele>538.214615</ele>
        <time>2021-11-13T09:33:27.908Z</time>
      </trkpt>
      <trkpt lat="47.585483" lon="7.935678">
        <ele>540.301767</ele>
        <time>2021-11-13T09:33:39.910Z</time>
      </trkpt>
      <trkpt lat="47.586122" lon="7.934993">
        <ele>544.629473</ele>
        <time>2021-11-13T09:34:11.072Z</time>
      </trkpt>
      <trkpt lat="47.586550" lon="7.934053">
        <ele>550.449639</ele>
        <time>2021-11-13T09:34:51.156Z</time>
      </trkpt>
      <trkpt lat="47.586674" lon="7.933810">
        <ele>552.580951</ele>
        <time>2021-11-13T09:34:58.320Z</time>
      </trkpt>
      <trkpt lat="47.586716" lon="7.933738">
        <ele>553.246780</ele>
        <time>2021-11-13T09:35:04.185Z</time>
      </trkpt>
      <trkpt lat="47.586935" lon="7.933669">
        <ele>555.568601</ele>
        <time>2021-11-13T09:35:16.775Z</time>
      </trkpt>
      <trkpt lat="47.587044" lon="7.933775">
        <ele>556.920427</ele>
        <time>2021-11-13T09:35:24.933Z</time>
      </trkpt>
      <trkpt lat="47.587093" lon="7.933888">
        <ele>557.860059</ele>
        <time>2021-11-13T09:35:32.937Z</time>
      </trkpt>
      <trkpt lat="47.587110" lon="7.933977">
        <ele>558.507050</ele>
        <time>2021-11-13T09:35:35.945Z</time>
      </trkpt>
      <trkpt lat="47.587104" lon="7.934093">
        <ele>559.320792</ele>
        <time>2021-11-13T09:35:39.444Z</time>
      </trkpt>
      <trkpt lat="47.587052" lon="7.934268">
        <ele>560.658350</ele>
        <time>2021-11-13T09:35:48.240Z</time>
      </trkpt>
      <trkpt lat="47.587038" lon="7.934350">
        <ele>561.249988</ele>
        <time>2021-11-13T09:35:53.906Z</time>
      </trkpt>
      <trkpt lat="47.586899" lon="7.935287">
        <ele>568.708422</ele>
        <time>2021-11-13T09:36:40.709Z</time>
      </trkpt>
      <trkpt lat="47.586573" lon="7.936642">
        <ele>582.038288</ele>
        <time>2021-11-13T09:37:54.517Z</time>
      </trkpt>
      <trkpt lat="47.586550" lon="7.936908">
        <ele>584.523142</ele>
        <time>2021-11-13T09:38:07.512Z</time>
      </trkpt>
      <trkpt lat="47.586591" lon="7.937103">
        <ele>586.415714</ele>
        <time>2021-11-13T09:38:17.791Z</time>
      </trkpt>
      <trkpt lat="47.586810" lon="7.937295">
        <ele>589.910893</ele>
        <time>2021-11-13T09:38:37.111Z</time>
      </trkpt>
      <trkpt lat="47.587160" lon="7.937234">
        <ele>595.037276</ele>
        <time>2021-11-13T09:39:04.922Z</time>
      </trkpt>
      <trkpt lat="47.588012" lon="7.937304">
        <ele>607.521702</ele>
        <time>2021-11-13T09:40:13.843Z</time>
      </trkpt>
      <trkpt lat="47.588878" lon="7.937560">
        <ele>619.682810</ele>
        <time>2021-11-13T09:41:23.365Z</time>
      </trkpt>
      <trkpt lat="47.589264" lon="7.937749">
        <ele>624.430512</ele>
        <time>2021-11-13T09:41:54.085Z</time>
      </trkpt>
      <trkpt lat="47.589445" lon="7.937932">
        <ele>626.989180</ele>
        <time>2021-11-13T09:42:09.496Z</time>
      </trkpt>
      <trkpt lat="47.589795" lon="7.938509">
        <ele>633.102057</ele>
        <time>2021-11-13T09:42:42.883Z</time>
      </trkpt>
      <trkpt lat="47.590080" lon="7.938870">
        <ele>637.479920</ele>
        <time>2021-11-13T09:43:04.086Z</time>
      </trkpt>
      <trkpt lat="47.590616" lon="7.939392">
        <ele>642.312911</ele>
        <time>2021-11-13T09:43:36.794Z</time>
      </trkpt>
      <trkpt lat="47.590859" lon="7.939631">
        <ele>644.475936</ele>
        <time>2021-11-13T09:43:51.243Z</time>
      </trkpt>
      <trkpt lat="47.591048" lon="7.939686">
        <ele>645.904644</ele>
        <time>2021-11-13T09:44:00.715Z</time>
      </trkpt>
      <trkpt lat="47.591394" lon="7.939595">
        <ele>648.511263</ele>
        <time>2021-11-13T09:44:17.917Z</time>
      </trkpt>
      <trkpt lat="47.591754" lon="7.939418">
        <ele>651.390044</ele>
        <time>2021-11-13T09:44:34.534Z</time>
      </trkpt>
      <trkpt lat="47.591998" lon="7.939157">
        <ele>654.118036</ele>
        <time>2021-11-13T09:44:48.395Z</time>
      </trkpt>
      <trkpt lat="47.592135" lon="7.938621">
        <ele>657.623153</ele>
        <time>2021-11-13T09:45:07.034Z</time>
      </trkpt>
      <trkpt lat="47.592280" lon="7.938551">
        <ele>659.005822</ele>
        <time>2021-11-13T09:45:16.711Z</time>
      </trkpt>
      <trkpt lat="47.592460" lon="7.938566">
        <ele>660.640492</ele>
        <time>2021-11-13T09:45:28.475Z</time>
      </trkpt>
      <trkpt lat="47.592599" lon="7.938640">
        <ele>661.979602</ele>
        <time>2021-11-13T09:45:37.359Z</time>
      </trkpt>
      <trkpt lat="47.592858" lon="7.938921">
        <ele>664.889496</ele>
        <time>2021-11-13T09:45:57.322Z</time>
      </trkpt>
      <trkpt lat="47.592894" lon="7.939049">
        <ele>665.737537</ele>
        <time>2021-11-13T09:46:04.468Z</time>
      </trkpt>
      <trkpt lat="47.592849" lon="7.939589">
        <ele>668.857317</ele>
        <time>2021-11-13T09:46:28.039Z</time>
      </trkpt>
      <trkpt lat="47.592876" lon="7.939976">
        <ele>670.950494</ele>
        <time>2021-11-13T09:46:42.530Z</time>
      </trkpt>
      <trkpt lat="47.592915" lon="7.940174">
        <ele>672.060242</ele>
        <time>2021-11-13T09:46:52.542Z</time>
      </trkpt>
      <trkpt lat="47.592973" lon="7.940372">
        <ele>673.221633</ele>
        <time>2021-11-13T09:46:59.807Z</time>
      </trkpt>
      <trkpt lat="47.593086" lon="7.940601">
        <ele>674.748233</ele>
        <time>2021-11-13T09:47:10.757Z</time>
      </trkpt>
      <trkpt lat="47.593315" lon="7.940887">
        <ele>677.136734</ele>
        <time>2021-11-13T09:47:25.096Z</time>
      </trkpt>
      <trkpt lat="47.593658" lon="7.941210">
        <ele>680.378187</ele>
        <time>2021-11-13T09:47:44.759Z</time>
      </trkpt>
      <trkpt lat="47.593806" lon="7.941297">
        <ele>681.648256</ele>
        <time>2021-11-13T09:47:51.393Z</time>
      </trkpt>
      <trkpt lat="47.594300" lon="7.941613">
        <ele>683.159587</ele>
        <time>2021-11-13T09:48:10.385Z</time>
      </trkpt>
      <trkpt lat="47.594679" lon="7.941483">
        <ele>684.233595</ele>
        <time>2021-11-13T09:48:19.336Z</time>
      </trkpt>
      <trkpt lat="47.595410" lon="7.941004">
        <ele>686.440073</ele>
        <time>2021-11-13T09:48:40.928Z</time>
      </trkpt>
      <trkpt lat="47.595989" lon="7.940668">
        <ele>689.837016</ele>
        <time>2021-11-13T09:49:01.231Z</time>
      </trkpt>
      <trkpt lat="47.596160" lon="7.940569">
        <ele>690.910502</ele>
        <time>2021-11-13T09:49:08.782Z</time>
      </trkpt>
      <trkpt lat="47.596779" lon="7.940190">
        <ele>694.826716</ele>
        <time>2021-11-13T09:49:37.736Z</time>
      </trkpt>
      <trkpt lat="47.597138" lon="7.940083">
        <ele>696.968068</ele>
        <time>2021-11-13T09:49:58.954Z</time>
      </trkpt>
      <trkpt lat="47.597581" lon="7.940295">
        <ele>701.714145</ele>
        <time>2021-11-13T09:50:28.578Z</time>
      </trkpt>
      <trkpt lat="47.598230" lon="7.940913">
        <ele>709.849417</ele>
        <time>2021-11-13T09:51:18.368Z</time>
      </trkpt>
      <trkpt lat="47.598394" lon="7.941103">
        <ele>712.044551</ele>
        <time>2021-11-13T09:51:32.814Z</time>
      </trkpt>
      <trkpt lat="47.598852" lon="7.941514">
        <ele>717.569909</ele>
        <time>2021-11-13T09:52:04.960Z</time>
      </trkpt>
      <trkpt lat="47.599954" lon="7.942038">
        <ele>728.820815</ele>
        <time>2021-11-13T09:53:15.616Z</time>
      </trkpt>
      <trkpt lat="47.600676" lon="7.942211">
        <ele>735.709796</ele>
        <time>2021-11-13T09:53:55.132Z</time>
      </trkpt>
      <trkpt lat="47.600753" lon="7.942313">
        <ele>736.616987</ele>
        <time>2021-11-13T09:54:00.216Z</time>
      </trkpt>
      <trkpt lat="47.600769" lon="7.942402">
        <ele>737.162722</ele>
        <time>2021-11-13T09:54:04.526Z</time>
      </trkpt>
      <trkpt lat="47.600760" lon="7.942528">
        <ele>737.913435</ele>
        <time>2021-11-13T09:54:10.008Z</time>
      </trkpt>
      <trkpt lat="47.600606" lon="7.942664">
        <ele>739.488353</ele>
        <time>2021-11-13T09:54:19.066Z</time>
      </trkpt>
      <trkpt lat="47.600059" lon="7.942907">
        <ele>744.505758</ele>
        <time>2021-11-13T09:54:51.864Z</time>
      </trkpt>
      <trkpt lat="47.599913" lon="7.942988">
        <ele>745.875467</ele>
        <time>2021-11-13T09:54:59.980Z</time>
      </trkpt>
      <trkpt lat="47.599587" lon="7.943137">
        <ele>748.872929</ele>
        <time>2021-11-13T09:55:19.476Z</time>
      </trkpt>
      <trkpt lat="47.599314" lon="7.943347">
        <ele>750.850592</ele>
        <time>2021-11-13T09:55:37.079Z</time>
      </trkpt>
      <trkpt lat="47.598629" lon="7.944136">
        <ele>755.892045</ele>
        <time>2021-11-13T09:56:17.032Z</time>
      </trkpt>
      <trkpt lat="47.598175" lon="7.944534">
        <ele>758.957529</ele>
        <time>2021-11-13T09:56:36.342Z</time>
      </trkpt>
      <trkpt lat="47.597166" lon="7.944762">
        <ele>761.590941</ele>
        <time>2021-11-13T09:57:07.570Z</time>
      </trkpt>
      <trkpt lat="47.597051" lon="7.944828">
        <ele>761.834853</ele>
        <time>2021-11-13T09:57:10.138Z</time>
      </trkpt>
      <trkpt lat="47.596792" lon="7.945059">
        <ele>762.432676</ele>
        <time>2021-11-13T09:57:18.088Z</time>
      </trkpt>
      <trkpt lat="47.596624" lon="7.945316">
        <ele>762.910107</ele>
        <time>2021-11-13T09:57:24.010Z</time>
      </trkpt>
      <trkpt lat="47.596503" lon="7.945829">
        <ele>763.590891</ele>
        <time>2021-11-13T09:57:33.112Z</time>
      </trkpt>
      <trkpt lat="47.596487" lon="7.945889">
        <ele>763.656768</ele>
        <time>2021-11-13T09:57:34.504Z</time>
      </trkpt>
      <trkpt lat="47.596371" lon="7.946306">
        <ele>764.117337</ele>
        <time>2021-11-13T09:57:41.689Z</time>
      </trkpt>
      <trkpt lat="47.596313" lon="7.946755">
        <ele>764.584112</ele>
        <time>2021-11-13T09:57:49.969Z</time>
      </trkpt>
      <trkpt lat="47.596343" lon="7.946928">
        <ele>764.766496</ele>
        <time>2021-11-13T09:57:53.231Z</time>
      </trkpt>
      <trkpt lat="47.596439" lon="7.947071">
        <ele>764.972518</ele>
        <time>2021-11-13T09:57:57.222Z</time>
      </trkpt>
      <trkpt lat="47.596892" lon="7.947624">
        <ele>765.860905</ele>
        <time>2021-11-13T09:58:12.675Z</time>
      </trkpt>
      <trkpt lat="47.597273" lon="7.948237">
        <ele>767.045036</ele>
        <time>2021-11-13T09:58:26.308Z</time>
      </trkpt>
      <trkpt lat="47.597303" lon="7.948276">
        <ele>767.142553</ele>
        <time>2021-11-13T09:58:28.469Z</time>
      </trkpt>
      <trkpt lat="47.597384" lon="7.948384">
        <ele>767.408803</ele>
        <time>2021-11-13T09:58:31.516Z</time>
      </trkpt>
      <trkpt lat="47.597463" lon="7.948498">
        <ele>767.678240</ele>
        <time>2021-11-13T09:58:34.234Z</time>
      </trkpt>
      <trkpt lat="47.597542" lon="7.948555">
        <ele>767.892984</ele>
        <time>2021-11-13T09:58:36.106Z</time>
      </trkpt>
      <trkpt lat="47.597591" lon="7.948609">
        <ele>768.042207</ele>
        <time>2021-11-13T09:58:38.740Z</time>
      </trkpt>
      <trkpt lat="47.597713" lon="7.948780">
        <ele>768.452536</ele>
        <time>2021-11-13T09:58:42.370Z</time>
      </trkpt>
      <trkpt lat="47.597986" lon="7.949276">
        <ele>769.507839</ele>
        <time>2021-11-13T09:58:52.827Z</time>
      </trkpt>
      <trkpt lat="47.598158" lon="7.949458">
        <ele>770.024313</ele>
        <time>2021-11-13T09:58:59.595Z</time>
      </trkpt>
      <trkpt lat="47.598287" lon="7.949604">
        <ele>770.420968</ele>
        <time>2021-11-13T09:59:02.620Z</time>
      </trkpt>
      <trkpt lat="47.598351" lon="7.949607">
        <ele>770.584091</ele>
        <time>2021-11-13T09:59:04.422Z</time>
      </trkpt>
      <trkpt lat="47.598463" lon="7.949612">
        <ele>771.024222</ele>
        <time>2021-11-13T09:59:08.890Z</time>
      </trkpt>
      <trkpt lat="47.599532" lon="7.949671">
        <ele>775.226118</ele>
        <time>2021-11-13T09:59:39.989Z</time>
      </trkpt>
      <trkpt lat="47.600170" lon="7.949596">
        <ele>777.775124</ele>
        <time>2021-11-13T10:00:01.228Z</time>
      </trkpt>
      <trkpt lat="47.600361" lon="7.949597">
        <ele>778.768284</ele>
        <time>2021-11-13T10:00:07.983Z</time>
      </trkpt>
      <trkpt lat="47.600587" lon="7.949607">
        <ele>779.943952</ele>
        <time>2021-11-13T10:00:15.154Z</time>
      </trkpt>
      <trkpt lat="47.601639" lon="7.950057">
        <ele>785.637090</ele>
        <time>2021-11-13T10:00:54.888Z</time>
      </trkpt>
      <trkpt lat="47.602330" lon="7.950202">
        <ele>789.077064</ele>
        <time>2021-11-13T10:01:20.969Z</time>
      </trkpt>
      <trkpt lat="47.602534" lon="7.950180">
        <ele>790.052595</ele>
        <time>2021-11-13T10:01:28.981Z</time>
      </trkpt>
      <trkpt lat="47.603548" lon="7.950073">
        <ele>794.901011</ele>
        <time>2021-11-13T10:02:02.950Z</time>
      </trkpt>
      <trkpt lat="47.603670" lon="7.950066">
        <ele>795.483315</ele>
        <time>2021-11-13T10:02:07.292Z</time>
      </trkpt>
      <trkpt lat="47.603825" lon="7.950078">
        <ele>795.835431</ele>
        <time>2021-11-13T10:02:11.265Z</time>
      </trkpt>
      <trkpt lat="47.603924" lon="7.950086">
        <ele>796.030624</ele>
        <time>2021-11-13T10:02:14.014Z</time>
      </trkpt>
      <trkpt lat="47.604947" lon="7.950295">
        <ele>798.063650</ele>
        <time>2021-11-13T10:02:37.443Z</time>
      </trkpt>
      <trkpt lat="47.605102" lon="7.950351">
        <ele>798.377726</ele>
        <time>2021-11-13T10:02:41.213Z</time>
      </trkpt>
      <trkpt lat="47.606487" lon="7.951041">
        <ele>799.836206</ele>
        <time>2021-11-13T10:03:04.745Z</time>
      </trkpt>
      <trkpt lat="47.606758" lon="7.951082">
        <ele>800.018898</ele>
        <time>2021-11-13T10:03:09.773Z</time>
      </trkpt>
      <trkpt lat="47.607166" lon="7.950974">
        <ele>800.296851</ele>
        <time>2021-11-13T10:03:17.392Z</time>
      </trkpt>
      <trkpt lat="47.607597" lon="7.950928">
        <ele>800.883337</ele>
        <time>2021-11-13T10:03:25.850Z</time>
      </trkpt>
      <trkpt lat="47.607851" lon="7.950895">
        <ele>801.237652</ele>
        <time>2021-11-13T10:03:31.295Z</time>
      </trkpt>
      <trkpt lat="47.608139" lon="7.950744">
        <ele>801.662131</ele>
        <time>2021-11-13T10:03:37.778Z</time>
      </trkpt>
      <trkpt lat="47.608646" lon="7.950271">
        <ele>802.494447</ele>
        <time>2021-11-13T10:03:50.379Z</time>
      </trkpt>
      <trkpt lat="47.608916" lon="7.950126">
        <ele>802.812555</ele>
        <time>2021-11-13T10:03:56.358Z</time>
      </trkpt>
      <trkpt lat="47.609119" lon="7.950532">
        <ele>802.830677</ele>
        <time>2021-11-13T10:04:03.162Z</time>
      </trkpt>
      <trkpt lat="47.609390" lon="7.951204">
        <ele>802.858751</ele>
        <time>2021-11-13T10:04:12.329Z</time>
      </trkpt>
      <trkpt lat="47.609848" lon="7.952864">
        <ele>802.245492</ele>
        <time>2021-11-13T10:04:27.382Z</time>
      </trkpt>
      <trkpt lat="47.609991" lon="7.953325">
        <ele>801.581575</ele>
        <time>2021-11-13T10:04:31.125Z</time>
      </trkpt>
      <trkpt lat="47.610173" lon="7.953576">
        <ele>801.099304</ele>
        <time>2021-11-13T10:04:33.791Z</time>
      </trkpt>
      <trkpt lat="47.610442" lon="7.953689">
        <ele>800.556743</ele>
        <time>2021-11-13T10:04:36.982Z</time>
      </trkpt>
      <trkpt lat="47.610534" lon="7.953698">
        <ele>800.377818</ele>
        <time>2021-11-13T10:04:37.889Z</time>
      </trkpt>
      <trkpt lat="47.610622" lon="7.953678">
        <ele>800.205049</ele>
        <time>2021-11-13T10:04:38.926Z</time>
      </trkpt>
      <trkpt lat="47.610867" lon="7.953623">
        <ele>799.724180</ele>
        <time>2021-11-13T10:04:41.568Z</time>
      </trkpt>
      <trkpt lat="47.611213" lon="7.953569">
        <ele>799.074461</ele>
        <time>2021-11-13T10:04:45.129Z</time>
      </trkpt>
      <trkpt lat="47.611379" lon="7.953732">
        <ele>798.715027</ele>
        <time>2021-11-13T10:04:47.246Z</time>
      </trkpt>
      <trkpt lat="47.611583" lon="7.954201">
        <ele>798.035652</ele>
        <time>2021-11-13T10:04:51.278Z</time>
      </trkpt>
      <trkpt lat="47.611609" lon="7.954585">
        <ele>797.565898</ele>
        <time>2021-11-13T10:04:54.087Z</time>
      </trkpt>
      <trkpt lat="47.611563" lon="7.954771">
        <ele>797.324747</ele>
        <time>2021-11-13T10:04:55.575Z</time>
      </trkpt>
      <trkpt lat="47.611466" lon="7.955017">
        <ele>796.977860</ele>
        <time>2021-11-13T10:04:57.907Z</time>
      </trkpt>
      <trkpt lat="47.611423" lon="7.955105">
        <ele>796.845570</ele>
        <time>2021-11-13T10:04:58.826Z</time>
      </trkpt>
      <trkpt lat="47.611344" lon="7.955262">
        <ele>796.607107</ele>
        <time>2021-11-13T10:05:00.283Z</time>
      </trkpt>
      <trkpt lat="47.611237" lon="7.955554">
        <ele>796.202574</ele>
        <time>2021-11-13T10:05:03.223Z</time>
      </trkpt>
      <trkpt lat="47.611155" lon="7.956085">
        <ele>796.264559</ele>
        <time>2021-11-13T10:05:07.796Z</time>
      </trkpt>
      <trkpt lat="47.611164" lon="7.956405">
        <ele>796.325166</ele>
        <time>2021-11-13T10:05:10.776Z</time>
      </trkpt>
      <trkpt lat="47.611301" lon="7.956962">
        <ele>796.437363</ele>
        <time>2021-11-13T10:05:17.400Z</time>
      </trkpt>
      <trkpt lat="47.611405" lon="7.957159">
        <ele>796.484712</ele>
        <time>2021-11-13T10:05:19.974Z</time>
      </trkpt>
      <trkpt lat="47.611408" lon="7.957164">
        <ele>796.485978</ele>
        <time>2021-11-13T10:05:20.045Z</time>
      </trkpt>
      <trkpt lat="47.611743" lon="7.957534">
        <ele>796.603214</ele>
        <time>2021-11-13T10:05:27.718Z</time>
      </trkpt>
      <trkpt lat="47.611972" lon="7.957626">
        <ele>796.669808</ele>
        <time>2021-11-13T10:05:32.918Z</time>
      </trkpt>
      <trkpt lat="47.612102" lon="7.957603">
        <ele>796.703453</ele>
        <time>2021-11-13T10:05:35.123Z</time>
      </trkpt>
      <trkpt lat="47.612270" lon="7.957550">
        <ele>796.747350</ele>
        <time>2021-11-13T10:05:39.125Z</time>
      </trkpt>
      <trkpt lat="47.612291" lon="7.957543">
        <ele>796.752851</ele>
        <time>2021-11-13T10:05:39.606Z</time>
      </trkpt>
      <trkpt lat="47.612391" lon="7.957530">
        <ele>796.778506</ele>
        <time>2021-11-13T10:05:41.403Z</time>
      </trkpt>
      <trkpt lat="47.612456" lon="7.957566">
        <ele>796.796238</ele>
        <time>2021-11-13T10:05:42.469Z</time>
      </trkpt>
      <trkpt lat="47.612517" lon="7.957628">
        <ele>796.815137</ele>
        <time>2021-11-13T10:05:44.210Z</time>
      </trkpt>
      <trkpt lat="47.612606" lon="7.957836">
        <ele>796.857583</ele>
        <time>2021-11-13T10:05:47.649Z</time>
      </trkpt>
      <trkpt lat="47.612661" lon="7.957964">
        <ele>796.883735</ele>
        <time>2021-11-13T10:05:49.334Z</time>
      </trkpt>
      <trkpt lat="47.612719" lon="7.958171">
        <ele>796.922358</ele>
        <time>2021-11-13T10:05:52.543Z</time>
      </trkpt>
      <trkpt lat="47.612728" lon="7.958409">
        <ele>796.963428</ele>
        <time>2021-11-13T10:05:55.300Z</time>
      </trkpt>
      <trkpt lat="47.612741" lon="7.958660">
        <ele>797.006801</ele>
        <time>2021-11-13T10:05:58.136Z</time>
      </trkpt>
      <trkpt lat="47.612659" lon="7.959516">
        <ele>796.743159</ele>
        <time>2021-11-13T10:06:05.317Z</time>
      </trkpt>
      <trkpt lat="47.612685" lon="7.959801">
        <ele>795.948123</ele>
        <time>2021-11-13T10:06:07.270Z</time>
      </trkpt>
      <trkpt lat="47.612766" lon="7.960065">
        <ele>795.146291</ele>
        <time>2021-11-13T10:06:09.342Z</time>
      </trkpt>
      <trkpt lat="47.612881" lon="7.960311">
        <ele>794.318742</ele>
        <time>2021-11-13T10:06:11.315Z</time>
      </trkpt>
      <trkpt lat="47.613021" lon="7.960583">
        <ele>793.372723</ele>
        <time>2021-11-13T10:06:13.546Z</time>
      </trkpt>
      <trkpt lat="47.613138" lon="7.960868">
        <ele>792.450287</ele>
        <time>2021-11-13T10:06:15.643Z</time>
      </trkpt>
      <trkpt lat="47.613215" lon="7.961187">
        <ele>791.513627</ele>
        <time>2021-11-13T10:06:17.766Z</time>
      </trkpt>
      <trkpt lat="47.613369" lon="7.961915">
        <ele>789.403254</ele>
        <time>2021-11-13T10:06:22.544Z</time>
      </trkpt>
      <trkpt lat="47.613502" lon="7.962714">
        <ele>787.120697</ele>
        <time>2021-11-13T10:06:27.657Z</time>
      </trkpt>
      <trkpt lat="47.613521" lon="7.962842">
        <ele>786.757189</ele>
        <time>2021-11-13T10:06:28.479Z</time>
      </trkpt>
      <trkpt lat="47.613742" lon="7.963873">
        <ele>783.756679</ele>
        <time>2021-11-13T10:06:35.738Z</time>
      </trkpt>
      <trkpt lat="47.613879" lon="7.964086">
        <ele>782.940182</ele>
        <time>2021-11-13T10:06:37.813Z</time>
      </trkpt>
      <trkpt lat="47.614053" lon="7.964220">
        <ele>782.238248</ele>
        <time>2021-11-13T10:06:39.831Z</time>
      </trkpt>
      <trkpt lat="47.614181" lon="7.964246">
        <ele>781.956735</ele>
        <time>2021-11-13T10:06:41.206Z</time>
      </trkpt>
      <trkpt lat="47.614338" lon="7.964238">
        <ele>781.614433</ele>
        <time>2021-11-13T10:06:43.044Z</time>
      </trkpt>
      <trkpt lat="47.614483" lon="7.964169">
        <ele>781.282621</ele>
        <time>2021-11-13T10:06:44.707Z</time>
      </trkpt>
      <trkpt lat="47.614633" lon="7.964032">
        <ele>780.898790</ele>
        <time>2021-11-13T10:06:47.572Z</time>
      </trkpt>
      <trkpt lat="47.614910" lon="7.963756">
        <ele>780.171696</ele>
        <time>2021-11-13T10:06:51.221Z</time>
      </trkpt>
      <trkpt lat="47.615156" lon="7.963615">
        <ele>779.597045</ele>
        <time>2021-11-13T10:06:53.948Z</time>
      </trkpt>
      <trkpt lat="47.615240" lon="7.963619">
        <ele>779.413916</ele>
        <time>2021-11-13T10:06:55.255Z</time>
      </trkpt>
      <trkpt lat="47.615296" lon="7.963621">
        <ele>779.291857</ele>
        <time>2021-11-13T10:06:55.960Z</time>
      </trkpt>
      <trkpt lat="47.615426" lon="7.963657">
        <ele>779.003696</ele>
        <time>2021-11-13T10:06:57.278Z</time>
      </trkpt>
      <trkpt lat="47.615674" lon="7.963901">
        <ele>778.289971</ele>
        <time>2021-11-13T10:07:00.547Z</time>
      </trkpt>
      <trkpt lat="47.615816" lon="7.964301">
        <ele>777.094688</ele>
        <time>2021-11-13T10:07:03.747Z</time>
      </trkpt>
      <trkpt lat="47.615832" lon="7.964368">
        <ele>776.906754</ele>
        <time>2021-11-13T10:07:04.200Z</time>
      </trkpt>
      <trkpt lat="47.615837" lon="7.964647">
        <ele>776.168825</ele>
        <time>2021-11-13T10:07:06.031Z</time>
      </trkpt>
      <trkpt lat="47.615704" lon="7.965149">
        <ele>774.742716</ele>
        <time>2021-11-13T10:07:09.562Z</time>
      </trkpt>
      <trkpt lat="47.614987" lon="7.966716">
        <ele>769.603095</ele>
        <time>2021-11-13T10:07:21.771Z</time>
      </trkpt>
      <trkpt lat="47.614229" lon="7.967867">
        <ele>765.007114</ele>
        <time>2021-11-13T10:07:32.365Z</time>
      </trkpt>
      <trkpt lat="47.613876" lon="7.968615">
        <ele>762.514567</ele>
        <time>2021-11-13T10:07:38.241Z</time>
      </trkpt>
      <trkpt lat="47.613713" lon="7.969291">
        <ele>760.637742</ele>
        <time>2021-11-13T10:07:42.983Z</time>
      </trkpt>
      <trkpt lat="47.613651" lon="7.969763">
        <ele>759.380644</ele>
        <time>2021-11-13T10:07:46.202Z</time>
      </trkpt>
      <trkpt lat="47.613603" lon="7.970296">
        <ele>757.974907</ele>
        <time>2021-11-13T10:07:49.794Z</time>
      </trkpt>
      <trkpt lat="47.613544" lon="7.970739">
        <ele>756.794439</ele>
        <time>2021-11-13T10:07:52.826Z</time>
      </trkpt>
      <trkpt lat="47.613448" lon="7.971306">
        <ele>755.192288</ele>
        <time>2021-11-13T10:07:56.746Z</time>
      </trkpt>
      <trkpt lat="47.613371" lon="7.971800">
        <ele>753.802394</ele>
        <time>2021-11-13T10:08:00.122Z</time>
      </trkpt>
      <trkpt lat="47.613340" lon="7.973232">
        <ele>749.874924</ele>
        <time>2021-11-13T10:08:09.588Z</time>
      </trkpt>
      <trkpt lat="47.612922" lon="7.974981">
        <ele>743.455114</ele>
        <time>2021-11-13T10:08:21.195Z</time>
      </trkpt>
      <trkpt lat="47.612866" lon="7.975328">
        <ele>742.198687</ele>
        <time>2021-11-13T10:08:23.426Z</time>
      </trkpt>
      <trkpt lat="47.612962" lon="7.975399">
        <ele>741.638364</ele>
        <time>2021-11-13T10:08:24.434Z</time>
      </trkpt>
      <trkpt lat="47.613184" lon="7.975689">
        <ele>740.093208</ele>
        <time>2021-11-13T10:08:27.215Z</time>
      </trkpt>
      <trkpt lat="47.613266" lon="7.975808">
        <ele>739.609486</ele>
        <time>2021-11-13T10:08:28.299Z</time>
      </trkpt>
      <trkpt lat="47.613439" lon="7.976020">
        <ele>738.669449</ele>
        <time>2021-11-13T10:08:30.426Z</time>
      </trkpt>
      <trkpt lat="47.613802" lon="7.976286">
        <ele>736.973354</ele>
        <time>2021-11-13T10:08:34.291Z</time>
      </trkpt>
      <trkpt lat="47.614050" lon="7.976273">
        <ele>735.933790</ele>
        <time>2021-11-13T10:08:36.672Z</time>
      </trkpt>
      <trkpt lat="47.614735" lon="7.975625">
        <ele>732.532892</ele>
        <time>2021-11-13T10:08:44.876Z</time>
      </trkpt>
      <trkpt lat="47.615223" lon="7.975285">
        <ele>730.747055</ele>
        <time>2021-11-13T10:08:50.139Z</time>
      </trkpt>
      <trkpt lat="47.615388" lon="7.975207">
        <ele>730.173436</ele>
        <time>2021-11-13T10:08:51.833Z</time>
      </trkpt>
      <trkpt lat="47.615835" lon="7.975151">
        <ele>728.687540</ele>
        <time>2021-11-13T10:08:56.167Z</time>
      </trkpt>
      <trkpt lat="47.616374" lon="7.975153">
        <ele>726.902172</ele>
        <time>2021-11-13T10:09:01.627Z</time>
      </trkpt>
      <trkpt lat="47.616605" lon="7.975163">
        <ele>726.714864</ele>
        <time>2021-11-13T10:09:04.374Z</time>
      </trkpt>
      <trkpt lat="47.616823" lon="7.975315">
        <ele>726.946786</ele>
        <time>2021-11-13T10:09:08.093Z</time>
      </trkpt>
      <trkpt lat="47.616932" lon="7.975644">
        <ele>727.184709</ele>
        <time>2021-11-13T10:09:10.944Z</time>
      </trkpt>
      <trkpt lat="47.617035" lon="7.976194">
        <ele>727.555189</ele>
        <time>2021-11-13T10:09:17.598Z</time>
      </trkpt>
      <trkpt lat="47.617050" lon="7.976280">
        <ele>727.612842</ele>
        <time>2021-11-13T10:09:20.322Z</time>
      </trkpt>
      <trkpt lat="47.617087" lon="7.976456">
        <ele>727.732495</ele>
        <time>2021-11-13T10:09:21.714Z</time>
      </trkpt>
      <trkpt lat="47.617122" lon="7.976576">
        <ele>727.817355</ele>
        <time>2021-11-13T10:09:23.373Z</time>
      </trkpt>
      <trkpt lat="47.617143" lon="7.976643">
        <ele>727.865310</ele>
        <time>2021-11-13T10:09:24.174Z</time>
      </trkpt>
      <trkpt lat="47.617183" lon="7.976739">
        <ele>727.938558</ele>
        <time>2021-11-13T10:09:28.437Z</time>
      </trkpt>
      <trkpt lat="47.617863" lon="7.977860">
        <ele>730.539412</ele>
        <time>2021-11-13T10:09:56.813Z</time>
      </trkpt>
      <trkpt lat="47.617897" lon="7.977926">
        <ele>730.738853</ele>
        <time>2021-11-13T10:10:00.881Z</time>
      </trkpt>
      <trkpt lat="47.618419" lon="7.978768">
        <ele>733.485460</ele>
        <time>2021-11-13T10:10:22.739Z</time>
      </trkpt>
      <trkpt lat="47.618976" lon="7.979589">
        <ele>736.406469</ele>
        <time>2021-11-13T10:10:44.018Z</time>
      </trkpt>
      <trkpt lat="47.619073" lon="7.979702">
        <ele>736.880781</ele>
        <time>2021-11-13T10:10:47.257Z</time>
      </trkpt>
      <trkpt lat="47.619309" lon="7.979839">
        <ele>737.855406</ele>
        <time>2021-11-13T10:10:54.231Z</time>
      </trkpt>
      <trkpt lat="47.619731" lon="7.979949">
        <ele>739.503206</ele>
        <time>2021-11-13T10:11:07.318Z</time>
      </trkpt>
      <trkpt lat="47.619797" lon="7.980012">
        <ele>739.805031</ele>
        <time>2021-11-13T10:11:10.901Z</time>
      </trkpt>
      <trkpt lat="47.619965" lon="7.980295">
        <ele>740.782594</ele>
        <time>2021-11-13T10:11:18.299Z</time>
      </trkpt>
      <trkpt lat="47.620263" lon="7.981105">
        <ele>743.619671</ele>
        <time>2021-11-13T10:11:39.758Z</time>
      </trkpt>
      <trkpt lat="47.620533" lon="7.981699">
        <ele>746.015382</ele>
        <time>2021-11-13T10:11:57.346Z</time>
      </trkpt>
      <trkpt lat="47.620712" lon="7.982017">
        <ele>747.400766</ele>
        <time>2021-11-13T10:12:08.338Z</time>
      </trkpt>
      <trkpt lat="47.621148" lon="7.982684">
        <ele>750.507689</ele>
        <time>2021-11-13T10:12:29.723Z</time>
      </trkpt>
      <trkpt lat="47.621287" lon="7.982952">
        <ele>751.078204</ele>
        <time>2021-11-13T10:12:36.968Z</time>
      </trkpt>
      <trkpt lat="47.621414" lon="7.983181">
        <ele>751.553132</ele>
        <time>2021-11-13T10:12:42.495Z</time>
      </trkpt>
      <trkpt lat="47.621453" lon="7.983289">
        <ele>751.749352</ele>
        <time>2021-11-13T10:12:45.093Z</time>
      </trkpt>
      <trkpt lat="47.621773" lon="7.984199">
        <ele>753.393125</ele>
        <time>2021-11-13T10:13:01.956Z</time>
      </trkpt>
      <trkpt lat="47.621842" lon="7.984392">
        <ele>753.743000</ele>
        <time>2021-11-13T10:13:05.284Z</time>
      </trkpt>
      <trkpt lat="47.622067" lon="7.985017">
        <ele>754.830152</ele>
        <time>2021-11-13T10:13:14.473Z</time>
      </trkpt>
      <trkpt lat="47.622073" lon="7.985033">
        <ele>754.825343</ele>
        <time>2021-11-13T10:13:14.673Z</time>
      </trkpt>
      <trkpt lat="47.623087" lon="7.987725">
        <ele>753.636046</ele>
        <time>2021-11-13T10:13:41.881Z</time>
      </trkpt>
      <trkpt lat="47.623303" lon="7.988291">
        <ele>752.927925</ele>
        <time>2021-11-13T10:13:46.672Z</time>
      </trkpt>
      <trkpt lat="47.623508" lon="7.988782">
        <ele>752.299126</ele>
        <time>2021-11-13T10:13:50.964Z</time>
      </trkpt>
      <trkpt lat="47.623561" lon="7.988865">
        <ele>752.174650</ele>
        <time>2021-11-13T10:13:51.843Z</time>
      </trkpt>
      <trkpt lat="47.623838" lon="7.989292">
        <ele>751.529440</ele>
        <time>2021-11-13T10:13:56.227Z</time>
      </trkpt>
      <trkpt lat="47.624001" lon="7.989485">
        <ele>751.218396</ele>
        <time>2021-11-13T10:13:58.497Z</time>
      </trkpt>
      <trkpt lat="47.624004" lon="7.989488">
        <ele>751.216519</ele>
        <time>2021-11-13T10:13:58.527Z</time>
      </trkpt>
      <trkpt lat="47.624491" lon="7.989945">
        <ele>750.917450</ele>
        <time>2021-11-13T10:14:05.178Z</time>
      </trkpt>
      <trkpt lat="47.625082" lon="7.990226">
        <ele>750.595351</ele>
        <time>2021-11-13T10:14:12.992Z</time>
      </trkpt>
      <trkpt lat="47.625165" lon="7.990242">
        <ele>750.551911</ele>
        <time>2021-11-13T10:14:14.235Z</time>
      </trkpt>
      <trkpt lat="47.625484" lon="7.990308">
        <ele>750.384746</ele>
        <time>2021-11-13T10:14:19.439Z</time>
      </trkpt>
      <trkpt lat="47.625484" lon="7.990308">
        <ele>750.384746</ele>
        <time>2021-11-13T10:14:19.504Z</time>
      </trkpt>
      <trkpt lat="47.625865" lon="7.990306">
        <ele>750.817138</ele>
        <time>2021-11-13T10:14:27.147Z</time>
      </trkpt>
      <trkpt lat="47.626001" lon="7.990279">
        <ele>751.153499</ele>
        <time>2021-11-13T10:14:30.012Z</time>
      </trkpt>
      <trkpt lat="47.626059" lon="7.990262">
        <ele>751.298428</ele>
        <time>2021-11-13T10:14:31.440Z</time>
      </trkpt>
      <trkpt lat="47.626285" lon="7.990191">
        <ele>751.864726</ele>
        <time>2021-11-13T10:14:36.647Z</time>
      </trkpt>
      <trkpt lat="47.626641" lon="7.990055">
        <ele>752.765886</ele>
        <time>2021-11-13T10:14:45.877Z</time>
      </trkpt>
      <trkpt lat="47.626890" lon="7.989948">
        <ele>753.401368</ele>
        <time>2021-11-13T10:14:52.876Z</time>
      </trkpt>
      <trkpt lat="47.627037" lon="7.989869">
        <ele>753.784632</ele>
        <time>2021-11-13T10:14:57.307Z</time>
      </trkpt>
      <trkpt lat="47.627368" lon="7.989707">
        <ele>754.639047</ele>
        <time>2021-11-13T10:15:07.058Z</time>
      </trkpt>
      <trkpt lat="47.627745" lon="7.989499">
        <ele>755.981608</ele>
        <time>2021-11-13T10:15:18.759Z</time>
      </trkpt>
      <trkpt lat="47.627783" lon="7.989478">
        <ele>756.119590</ele>
        <time>2021-11-13T10:15:19.979Z</time>
      </trkpt>
      <trkpt lat="47.628500" lon="7.989076">
        <ele>758.727745</ele>
        <time>2021-11-13T10:15:42.476Z</time>
      </trkpt>
      <trkpt lat="47.630656" lon="7.987791">
        <ele>766.149926</ele>
        <time>2021-11-13T10:16:46.306Z</time>
      </trkpt>
      <trkpt lat="47.631277" lon="7.987638">
        <ele>768.274996</ele>
        <time>2021-11-13T10:17:02.836Z</time>
      </trkpt>
      <trkpt lat="47.631642" lon="7.987687">
        <ele>769.528300</ele>
        <time>2021-11-13T10:17:13.365Z</time>
      </trkpt>
      <trkpt lat="47.632056" lon="7.987880">
        <ele>771.012295</ele>
        <time>2021-11-13T10:17:26.211Z</time>
      </trkpt>
      <trkpt lat="47.632243" lon="7.988006">
        <ele>771.714623</ele>
        <time>2021-11-13T10:17:32.047Z</time>
      </trkpt>
      <trkpt lat="47.632324" lon="7.988059">
        <ele>772.017355</ele>
        <time>2021-11-13T10:17:34.520Z</time>
      </trkpt>
      <trkpt lat="47.632441" lon="7.987837">
        <ele>772.682170</ele>
        <time>2021-11-13T10:17:40.267Z</time>
      </trkpt>
      <trkpt lat="47.632525" lon="7.987674">
        <ele>773.246994</ele>
        <time>2021-11-13T10:17:44.237Z</time>
      </trkpt>
      <trkpt lat="47.632587" lon="7.987560">
        <ele>773.650230</ele>
        <time>2021-11-13T10:17:47.508Z</time>
      </trkpt>
      <trkpt lat="47.633007" lon="7.986924">
        <ele>776.101303</ele>
        <time>2021-11-13T10:18:05.549Z</time>
      </trkpt>
      <trkpt lat="47.633442" lon="7.986219">
        <ele>778.732409</ele>
        <time>2021-11-13T10:18:26.244Z</time>
      </trkpt>
      <trkpt lat="47.633741" lon="7.985722">
        <ele>780.441040</ele>
        <time>2021-11-13T10:18:41.639Z</time>
      </trkpt>
      <trkpt lat="47.634382" lon="7.984814">
        <ele>783.342939</ele>
        <time>2021-11-13T10:19:08.147Z</time>
      </trkpt>
      <trkpt lat="47.634468" lon="7.984733">
        <ele>783.676500</ele>
        <time>2021-11-13T10:19:11.438Z</time>
      </trkpt>
      <trkpt lat="47.634506" lon="7.984696">
        <ele>783.825334</ele>
        <time>2021-11-13T10:19:12.955Z</time>
      </trkpt>
      <trkpt lat="47.634638" lon="7.984601">
        <ele>784.305749</ele>
        <time>2021-11-13T10:19:15.785Z</time>
      </trkpt>
      <trkpt lat="47.634817" lon="7.984495">
        <ele>784.936871</ele>
        <time>2021-11-13T10:19:21.216Z</time>
      </trkpt>
      <trkpt lat="47.635138" lon="7.984322">
        <ele>785.860917</ele>
        <time>2021-11-13T10:19:28.706Z</time>
      </trkpt>
      <trkpt lat="47.635311" lon="7.984184">
        <ele>785.961701</ele>
        <time>2021-11-13T10:19:32.213Z</time>
      </trkpt>
      <trkpt lat="47.635363" lon="7.984125">
        <ele>785.995289</ele>
        <time>2021-11-13T10:19:33.665Z</time>
      </trkpt>
      <trkpt lat="47.635550" lon="7.983913">
        <ele>786.116040</ele>
        <time>2021-11-13T10:19:38.444Z</time>
      </trkpt>
      <trkpt lat="47.636167" lon="7.983425">
        <ele>786.474799</ele>
        <time>2021-11-13T10:19:49.850Z</time>
      </trkpt>
      <trkpt lat="47.636362" lon="7.983140">
        <ele>786.615238</ele>
        <time>2021-11-13T10:19:53.242Z</time>
      </trkpt>
      <trkpt lat="47.636470" lon="7.982623">
        <ele>786.861801</ele>
        <time>2021-11-13T10:19:57.447Z</time>
      </trkpt>
      <trkpt lat="47.636685" lon="7.980585">
        <ele>788.350572</ele>
        <time>2021-11-13T10:20:22.876Z</time>
      </trkpt>
      <trkpt lat="47.636717" lon="7.980417">
        <ele>788.476571</ele>
        <time>2021-11-13T10:20:25.704Z</time>
      </trkpt>
      <trkpt lat="47.636749" lon="7.980255">
        <ele>788.598408</ele>
        <time>2021-11-13T10:20:29.133Z</time>
      </trkpt>
      <trkpt lat="47.636898" lon="7.979438">
        <ele>790.661895</ele>
        <time>2021-11-13T10:20:44.457Z</time>
      </trkpt>
      <trkpt lat="47.636860" lon="7.978383">
        <ele>793.494507</ele>
        <time>2021-11-13T10:21:07.215Z</time>
      </trkpt>
      <trkpt lat="47.637178" lon="7.977129">
        <ele>797.217425</ele>
        <time>2021-11-13T10:21:38.458Z</time>
      </trkpt>
      <trkpt lat="47.637166" lon="7.976669">
        <ele>798.579997</ele>
        <time>2021-11-13T10:21:48.533Z</time>
      </trkpt>
      <trkpt lat="47.637104" lon="7.976387">
        <ele>799.457997</ele>
        <time>2021-11-13T10:21:54.685Z</time>
      </trkpt>
      <trkpt lat="47.636964" lon="7.975901">
        <ele>801.022452</ele>
        <time>2021-11-13T10:22:05.797Z</time>
      </trkpt>
      <trkpt lat="47.636945" lon="7.975599">
        <ele>801.920232</ele>
        <time>2021-11-13T10:22:12.257Z</time>
      </trkpt>
      <trkpt lat="47.637010" lon="7.975320">
        <ele>802.794014</ele>
        <time>2021-11-13T10:22:18.335Z</time>
      </trkpt>
      <trkpt lat="47.637015" lon="7.975296">
        <ele>802.868370</ele>
        <time>2021-11-13T10:22:18.990Z</time>
      </trkpt>
      <trkpt lat="47.637233" lon="7.974898">
        <ele>804.380328</ele>
        <time>2021-11-13T10:22:30.174Z</time>
      </trkpt>
      <trkpt lat="47.638035" lon="7.974142">
        <ele>808.514352</ele>
        <time>2021-11-13T10:23:02.382Z</time>
      </trkpt>
      <trkpt lat="47.638252" lon="7.973962">
        <ele>809.596019</ele>
        <time>2021-11-13T10:23:09.859Z</time>
      </trkpt>
      <trkpt lat="47.638636" lon="7.973699">
        <ele>811.436190</ele>
        <time>2021-11-13T10:23:22.551Z</time>
      </trkpt>
      <trkpt lat="47.638659" lon="7.973682">
        <ele>811.547990</ele>
        <time>2021-11-13T10:23:23.688Z</time>
      </trkpt>
      <trkpt lat="47.638981" lon="7.973418">
        <ele>812.962901</ele>
        <time>2021-11-13T10:23:34.908Z</time>
      </trkpt>
      <trkpt lat="47.639090" lon="7.973306">
        <ele>813.472400</ele>
        <time>2021-11-13T10:23:38.934Z</time>
      </trkpt>
      <trkpt lat="47.639276" lon="7.972938">
        <ele>814.663631</ele>
        <time>2021-11-13T10:23:48.570Z</time>
      </trkpt>
      <trkpt lat="47.639406" lon="7.972397">
        <ele>816.150953</ele>
        <time>2021-11-13T10:24:00.651Z</time>
      </trkpt>
      <trkpt lat="47.639559" lon="7.972018">
        <ele>817.295022</ele>
        <time>2021-11-13T10:24:09.464Z</time>
      </trkpt>
      <trkpt lat="47.640091" lon="7.971291">
        <ele>820.371013</ele>
        <time>2021-11-13T10:24:29.306Z</time>
      </trkpt>
      <trkpt lat="47.640810" lon="7.969935">
        <ele>825.665869</ele>
        <time>2021-11-13T10:25:08.592Z</time>
      </trkpt>
      <trkpt lat="47.640891" lon="7.969731">
        <ele>826.392454</ele>
        <time>2021-11-13T10:25:15.085Z</time>
      </trkpt>
      <trkpt lat="47.640944" lon="7.969376">
        <ele>827.802359</ele>
        <time>2021-11-13T10:25:23.239Z</time>
      </trkpt>
      <trkpt lat="47.640935" lon="7.969224">
        <ele>828.433269</ele>
        <time>2021-11-13T10:25:28.083Z</time>
      </trkpt>
      <trkpt lat="47.640883" lon="7.969015">
        <ele>829.354476</ele>
        <time>2021-11-13T10:25:33.366Z</time>
      </trkpt>
      <trkpt lat="47.640375" lon="7.968035">
        <ele>834.467030</ele>
        <time>2021-11-13T10:26:06.120Z</time>
      </trkpt>
      <trkpt lat="47.640078" lon="7.967066">
        <ele>838.818592</ele>
        <time>2021-11-13T10:26:36.498Z</time>
      </trkpt>
      <trkpt lat="47.639789" lon="7.965749">
        <ele>844.299992</ele>
        <time>2021-11-13T10:27:15.077Z</time>
      </trkpt>
      <trkpt lat="47.639729" lon="7.964910">
        <ele>847.638950</ele>
        <time>2021-11-13T10:27:36.062Z</time>
      </trkpt>
      <trkpt lat="47.639730" lon="7.964417">
        <ele>848.477550</ele>
        <time>2021-11-13T10:27:46.143Z</time>
      </trkpt>
      <trkpt lat="47.639767" lon="7.964127">
        <ele>848.665897</ele>
        <time>2021-11-13T10:27:51.261Z</time>
      </trkpt>
      <trkpt lat="47.639823" lon="7.963883">
        <ele>848.830386</ele>
        <time>2021-11-13T10:27:55.707Z</time>
      </trkpt>
      <trkpt lat="47.639917" lon="7.963604">
        <ele>849.029442</ele>
        <time>2021-11-13T10:28:00.355Z</time>
      </trkpt>
      <trkpt lat="47.639987" lon="7.963446">
        <ele>849.150109</ele>
        <time>2021-11-13T10:28:03.206Z</time>
      </trkpt>
      <trkpt lat="47.640083" lon="7.963229">
        <ele>849.315763</ele>
        <time>2021-11-13T10:28:05.621Z</time>
      </trkpt>
      <trkpt lat="47.640149" lon="7.963092">
        <ele>849.423234</ele>
        <time>2021-11-13T10:28:07.711Z</time>
      </trkpt>
      <trkpt lat="47.640333" lon="7.962705">
        <ele>849.725483</ele>
        <time>2021-11-13T10:28:11.662Z</time>
      </trkpt>
      <trkpt lat="47.640559" lon="7.962232">
        <ele>849.453829</ele>
        <time>2021-11-13T10:28:15.823Z</time>
      </trkpt>
      <trkpt lat="47.640752" lon="7.961642">
        <ele>847.780182</ele>
        <time>2021-11-13T10:28:20.234Z</time>
      </trkpt>
      <trkpt lat="47.640767" lon="7.961523">
        <ele>847.471246</ele>
        <time>2021-11-13T10:28:21.012Z</time>
      </trkpt>
      <trkpt lat="47.640787" lon="7.961359">
        <ele>847.045945</ele>
        <time>2021-11-13T10:28:22.034Z</time>
      </trkpt>
      <trkpt lat="47.640808" lon="7.961104">
        <ele>846.390385</ele>
        <time>2021-11-13T10:28:23.805Z</time>
      </trkpt>
      <trkpt lat="47.640798" lon="7.960852">
        <ele>845.746208</ele>
        <time>2021-11-13T10:28:25.364Z</time>
      </trkpt>
      <trkpt lat="47.640720" lon="7.960375">
        <ele>844.493648</ele>
        <time>2021-11-13T10:28:28.620Z</time>
      </trkpt>
      <trkpt lat="47.640711" lon="7.960295">
        <ele>844.286675</ele>
        <time>2021-11-13T10:28:29.096Z</time>
      </trkpt>
      <trkpt lat="47.640685" lon="7.960045">
        <ele>843.641160</ele>
        <time>2021-11-13T10:28:30.971Z</time>
      </trkpt>
      <trkpt lat="47.640685" lon="7.959821">
        <ele>843.070668</ele>
        <time>2021-11-13T10:28:32.382Z</time>
      </trkpt>
      <trkpt lat="47.640685" lon="7.959768">
        <ele>842.937192</ele>
        <time>2021-11-13T10:28:32.694Z</time>
      </trkpt>
      <trkpt lat="47.640717" lon="7.959400">
        <ele>842.002729</ele>
        <time>2021-11-13T10:28:35.281Z</time>
      </trkpt>
      <trkpt lat="47.640762" lon="7.959173">
        <ele>841.406820</ele>
        <time>2021-11-13T10:28:36.772Z</time>
      </trkpt>
      <trkpt lat="47.640856" lon="7.958970">
        <ele>840.786490</ele>
        <time>2021-11-13T10:28:38.537Z</time>
      </trkpt>
      <trkpt lat="47.640871" lon="7.958934">
        <ele>840.679892</ele>
        <time>2021-11-13T10:28:38.798Z</time>
      </trkpt>
      <trkpt lat="47.640964" lon="7.958802">
        <ele>840.198912</ele>
        <time>2021-11-13T10:28:39.949Z</time>
      </trkpt>
      <trkpt lat="47.641188" lon="7.958634">
        <ele>839.260827</ele>
        <time>2021-11-13T10:28:42.564Z</time>
      </trkpt>
      <trkpt lat="47.641294" lon="7.958578">
        <ele>838.840273</ele>
        <time>2021-11-13T10:28:43.584Z</time>
      </trkpt>
      <trkpt lat="47.641418" lon="7.958516">
        <ele>838.351198</ele>
        <time>2021-11-13T10:28:45.114Z</time>
      </trkpt>
      <trkpt lat="47.641574" lon="7.958423">
        <ele>837.722830</ele>
        <time>2021-11-13T10:28:46.749Z</time>
      </trkpt>
      <trkpt lat="47.641842" lon="7.958150">
        <ele>836.507876</ele>
        <time>2021-11-13T10:28:50.075Z</time>
      </trkpt>
      <trkpt lat="47.641947" lon="7.957833">
        <ele>836.025348</ele>
        <time>2021-11-13T10:28:52.577Z</time>
      </trkpt>
      <trkpt lat="47.641955" lon="7.957683">
        <ele>835.835936</ele>
        <time>2021-11-13T10:28:53.582Z</time>
      </trkpt>
      <trkpt lat="47.641947" lon="7.957536">
        <ele>835.650289</ele>
        <time>2021-11-13T10:28:54.523Z</time>
      </trkpt>
      <trkpt lat="47.641798" lon="7.957096">
        <ele>835.030392</ele>
        <time>2021-11-13T10:28:58.066Z</time>
      </trkpt>
      <trkpt lat="47.641550" lon="7.956851">
        <ele>834.473791</ele>
        <time>2021-11-13T10:29:01.371Z</time>
      </trkpt>
      <trkpt lat="47.641084" lon="7.956545">
        <ele>833.521746</ele>
        <time>2021-11-13T10:29:07.035Z</time>
      </trkpt>
      <trkpt lat="47.640991" lon="7.956380">
        <ele>833.250946</ele>
        <time>2021-11-13T10:29:09.136Z</time>
      </trkpt>
      <trkpt lat="47.640998" lon="7.956247">
        <ele>833.083012</ele>
        <time>2021-11-13T10:29:10.203Z</time>
      </trkpt>
      <trkpt lat="47.641056" lon="7.956097">
        <ele>833.270720</ele>
        <time>2021-11-13T10:29:11.541Z</time>
      </trkpt>
      <trkpt lat="47.640501" lon="7.955695">
        <ele>834.383256</ele>
        <time>2021-11-13T10:29:25.137Z</time>
      </trkpt>
      <trkpt lat="47.640167" lon="7.955381">
        <ele>835.095507</ele>
        <time>2021-11-13T10:29:34.319Z</time>
      </trkpt>
      <trkpt lat="47.639795" lon="7.954985">
        <ele>835.920217</ele>
        <time>2021-11-13T10:29:45.591Z</time>
      </trkpt>
      <trkpt lat="47.639696" lon="7.954882">
        <ele>836.138020</ele>
        <time>2021-11-13T10:29:49.191Z</time>
      </trkpt>
      <trkpt lat="47.639497" lon="7.954714">
        <ele>836.774137</ele>
        <time>2021-11-13T10:29:55.451Z</time>
      </trkpt>
      <trkpt lat="47.639207" lon="7.954547">
        <ele>837.860013</ele>
        <time>2021-11-13T10:30:04.384Z</time>
      </trkpt>
      <trkpt lat="47.638760" lon="7.954525">
        <ele>839.421271</ele>
        <time>2021-11-13T10:30:17.357Z</time>
      </trkpt>
      <trkpt lat="47.637932" lon="7.954791">
        <ele>842.378619</ele>
        <time>2021-11-13T10:30:42.438Z</time>
      </trkpt>
      <trkpt lat="47.637714" lon="7.954725">
        <ele>843.365299</ele>
        <time>2021-11-13T10:30:48.718Z</time>
      </trkpt>
      <trkpt lat="47.637492" lon="7.954483">
        <ele>844.684505</ele>
        <time>2021-11-13T10:30:56.576Z</time>
      </trkpt>
      <trkpt lat="47.637400" lon="7.954079">
        <ele>846.060687</ele>
        <time>2021-11-13T10:31:05.327Z</time>
      </trkpt>
      <trkpt lat="47.637300" lon="7.951504">
        <ele>854.418262</ele>
        <time>2021-11-13T10:32:09.720Z</time>
      </trkpt>
      <trkpt lat="47.637306" lon="7.951326">
        <ele>854.999559</ele>
        <time>2021-11-13T10:32:15.002Z</time>
      </trkpt>
      <trkpt lat="47.637337" lon="7.951149">
        <ele>855.596051</ele>
        <time>2021-11-13T10:32:19.142Z</time>
      </trkpt>
      <trkpt lat="47.637383" lon="7.950993">
        <ele>856.151452</ele>
        <time>2021-11-13T10:32:22.424Z</time>
      </trkpt>
      <trkpt lat="47.637451" lon="7.950859">
        <ele>856.698593</ele>
        <time>2021-11-13T10:32:27.113Z</time>
      </trkpt>
      <trkpt lat="47.637598" lon="7.950642">
        <ele>857.702211</ele>
        <time>2021-11-13T10:32:33.398Z</time>
      </trkpt>
      <trkpt lat="47.637813" lon="7.950431">
        <ele>858.949886</ele>
        <time>2021-11-13T10:32:42.071Z</time>
      </trkpt>
      <trkpt lat="47.638433" lon="7.949786">
        <ele>860.668929</ele>
        <time>2021-11-13T10:33:03.408Z</time>
      </trkpt>
      <trkpt lat="47.638845" lon="7.949151">
        <ele>861.474752</ele>
        <time>2021-11-13T10:33:15.095Z</time>
      </trkpt>
      <trkpt lat="47.639038" lon="7.948758">
        <ele>861.919290</ele>
        <time>2021-11-13T10:33:19.989Z</time>
      </trkpt>
      <trkpt lat="47.639170" lon="7.948455">
        <ele>862.249114</ele>
        <time>2021-11-13T10:33:23.253Z</time>
      </trkpt>
      <trkpt lat="47.639254" lon="7.948202">
        <ele>862.195589</ele>
        <time>2021-11-13T10:33:25.802Z</time>
      </trkpt>
      <trkpt lat="47.639305" lon="7.947792">
        <ele>861.814407</ele>
        <time>2021-11-13T10:33:29.125Z</time>
      </trkpt>
      <trkpt lat="47.639245" lon="7.947417">
        <ele>861.462024</ele>
        <time>2021-11-13T10:33:32.079Z</time>
      </trkpt>
      <trkpt lat="47.639171" lon="7.947230">
        <ele>861.263752</ele>
        <time>2021-11-13T10:33:33.927Z</time>
      </trkpt>
      <trkpt lat="47.639079" lon="7.947097">
        <ele>861.089484</ele>
        <time>2021-11-13T10:33:35.188Z</time>
      </trkpt>
      <trkpt lat="47.638801" lon="7.946735">
        <ele>860.587659</ele>
        <time>2021-11-13T10:33:39.281Z</time>
      </trkpt>
      <trkpt lat="47.638633" lon="7.946522">
        <ele>860.287846</ele>
        <time>2021-11-13T10:33:42.028Z</time>
      </trkpt>
      <trkpt lat="47.638601" lon="7.946470">
        <ele>860.223459</ele>
        <time>2021-11-13T10:33:42.582Z</time>
      </trkpt>
      <trkpt lat="47.638490" lon="7.946296">
        <ele>860.004388</ele>
        <time>2021-11-13T10:33:44.249Z</time>
      </trkpt>
      <trkpt lat="47.638187" lon="7.945494">
        <ele>859.673072</ele>
        <time>2021-11-13T10:33:52.204Z</time>
      </trkpt>
      <trkpt lat="47.638180" lon="7.945471">
        <ele>859.665732</ele>
        <time>2021-11-13T10:33:52.346Z</time>
      </trkpt>
      <trkpt lat="47.638087" lon="7.945165">
        <ele>859.568088</ele>
        <time>2021-11-13T10:33:56.052Z</time>
      </trkpt>
      <trkpt lat="47.637977" lon="7.944887">
        <ele>859.474312</ele>
        <time>2021-11-13T10:33:58.744Z</time>
      </trkpt>
      <trkpt lat="47.637846" lon="7.944700">
        <ele>859.395847</ele>
        <time>2021-11-13T10:34:01.840Z</time>
      </trkpt>
      <trkpt lat="47.637690" lon="7.944520">
        <ele>859.310544</ele>
        <time>2021-11-13T10:34:04.209Z</time>
      </trkpt>
      <trkpt lat="47.637583" lon="7.944404">
        <ele>859.253342</ele>
        <time>2021-11-13T10:34:06.473Z</time>
      </trkpt>
      <trkpt lat="47.637442" lon="7.944256">
        <ele>859.178788</ele>
        <time>2021-11-13T10:34:08.743Z</time>
      </trkpt>
      <trkpt lat="47.637571" lon="7.944037">
        <ele>859.195971</ele>
        <time>2021-11-13T10:34:12.459Z</time>
      </trkpt>
      <trkpt lat="47.637613" lon="7.943952">
        <ele>859.243156</ele>
        <time>2021-11-13T10:34:13.776Z</time>
      </trkpt>
      <trkpt lat="47.637910" lon="7.943332">
        <ele>859.583693</ele>
        <time>2021-11-13T10:34:23.112Z</time>
      </trkpt>
      <trkpt lat="47.638082" lon="7.942969">
        <ele>859.782347</ele>
        <time>2021-11-13T10:34:29.065Z</time>
      </trkpt>
      <trkpt lat="47.638178" lon="7.942718">
        <ele>859.911547</ele>
        <time>2021-11-13T10:34:33.205Z</time>
      </trkpt>
      <trkpt lat="47.638425" lon="7.941930">
        <ele>860.300596</ele>
        <time>2021-11-13T10:34:43.461Z</time>
      </trkpt>
      <trkpt lat="47.638557" lon="7.941269">
        <ele>859.510215</ele>
        <time>2021-11-13T10:34:49.761Z</time>
      </trkpt>
      <trkpt lat="47.638649" lon="7.940702">
        <ele>858.746578</ele>
        <time>2021-11-13T10:34:54.884Z</time>
      </trkpt>
      <trkpt lat="47.638720" lon="7.939846">
        <ele>857.617296</ele>
        <time>2021-11-13T10:35:01.206Z</time>
      </trkpt>
      <trkpt lat="47.638539" lon="7.938594">
        <ele>854.176677</ele>
        <time>2021-11-13T10:35:09.411Z</time>
      </trkpt>
      <trkpt lat="47.638716" lon="7.938236">
        <ele>852.447227</ele>
        <time>2021-11-13T10:35:12.166Z</time>
      </trkpt>
      <trkpt lat="47.638865" lon="7.938060">
        <ele>851.346460</ele>
        <time>2021-11-13T10:35:13.923Z</time>
      </trkpt>
      <trkpt lat="47.638997" lon="7.937892">
        <ele>850.341309</ele>
        <time>2021-11-13T10:35:15.503Z</time>
      </trkpt>
      <trkpt lat="47.639124" lon="7.937579">
        <ele>848.918266</ele>
        <time>2021-11-13T10:35:17.759Z</time>
      </trkpt>
      <trkpt lat="47.639320" lon="7.936602">
        <ele>844.433258</ele>
        <time>2021-11-13T10:35:23.982Z</time>
      </trkpt>
      <trkpt lat="47.639308" lon="7.936143">
        <ele>842.025852</ele>
        <time>2021-11-13T10:35:26.737Z</time>
      </trkpt>
      <trkpt lat="47.639093" lon="7.935378">
        <ele>837.681725</ele>
        <time>2021-11-13T10:35:31.662Z</time>
      </trkpt>
      <trkpt lat="47.638983" lon="7.935124">
        <ele>836.099265</ele>
        <time>2021-11-13T10:35:33.503Z</time>
      </trkpt>
      <trkpt lat="47.638891" lon="7.934970">
        <ele>835.020603</ele>
        <time>2021-11-13T10:35:34.696Z</time>
      </trkpt>
      <trkpt lat="47.638822" lon="7.934800">
        <ele>833.980472</ele>
        <time>2021-11-13T10:35:35.876Z</time>
      </trkpt>
      <trkpt lat="47.638794" lon="7.934551">
        <ele>832.657415</ele>
        <time>2021-11-13T10:35:37.390Z</time>
      </trkpt>
      <trkpt lat="47.638943" lon="7.934020">
        <ele>828.991910</ele>
        <time>2021-11-13T10:35:40.770Z</time>
      </trkpt>
      <trkpt lat="47.639130" lon="7.933575">
        <ele>825.605299</ele>
        <time>2021-11-13T10:35:43.836Z</time>
      </trkpt>
      <trkpt lat="47.639165" lon="7.933477">
        <ele>824.889070</ele>
        <time>2021-11-13T10:35:44.456Z</time>
      </trkpt>
      <trkpt lat="47.639206" lon="7.933065">
        <ele>822.199749</ele>
        <time>2021-11-13T10:35:46.923Z</time>
      </trkpt>
      <trkpt lat="47.639161" lon="7.932537">
        <ele>818.763060</ele>
        <time>2021-11-13T10:35:50.022Z</time>
      </trkpt>
      <trkpt lat="47.639059" lon="7.932072">
        <ele>815.605240</ele>
        <time>2021-11-13T10:35:52.837Z</time>
      </trkpt>
      <trkpt lat="47.638875" lon="7.931601">
        <ele>812.150311</ele>
        <time>2021-11-13T10:35:55.959Z</time>
      </trkpt>
      <trkpt lat="47.638612" lon="7.931348">
        <ele>809.205136</ele>
        <time>2021-11-13T10:35:58.648Z</time>
      </trkpt>
      <trkpt lat="47.638146" lon="7.931131">
        <ele>804.615632</ele>
        <time>2021-11-13T10:36:02.931Z</time>
      </trkpt>
      <trkpt lat="47.637860" lon="7.930973">
        <ele>801.747924</ele>
        <time>2021-11-13T10:36:05.598Z</time>
      </trkpt>
      <trkpt lat="47.637092" lon="7.930719">
        <ele>794.346188</ele>
        <time>2021-11-13T10:36:12.466Z</time>
      </trkpt>
      <trkpt lat="47.636603" lon="7.930541">
        <ele>789.605509</ele>
        <time>2021-11-13T10:36:16.825Z</time>
      </trkpt>
      <trkpt lat="47.636022" lon="7.930655">
        <ele>784.087468</ele>
        <time>2021-11-13T10:36:21.901Z</time>
      </trkpt>
      <trkpt lat="47.635717" lon="7.930591">
        <ele>781.146396</ele>
        <time>2021-11-13T10:36:24.570Z</time>
      </trkpt>
      <trkpt lat="47.635488" lon="7.930306">
        <ele>777.712653</ele>
        <time>2021-11-13T10:36:27.146Z</time>
      </trkpt>
      <trkpt lat="47.635221" lon="7.929664">
        <ele>771.871920</ele>
        <time>2021-11-13T10:36:31.474Z</time>
      </trkpt>
      <trkpt lat="47.634762" lon="7.929013">
        <ele>764.577278</ele>
        <time>2021-11-13T10:36:36.844Z</time>
      </trkpt>
      <trkpt lat="47.634257" lon="7.928526">
        <ele>757.372968</ele>
        <time>2021-11-13T10:36:41.912Z</time>
      </trkpt>
      <trkpt lat="47.633595" lon="7.928236">
        <ele>748.701986</ele>
        <time>2021-11-13T10:36:47.710Z</time>
      </trkpt>
      <trkpt lat="47.632437" lon="7.928120">
        <ele>734.444526</ele>
        <time>2021-11-13T10:36:57.497Z</time>
      </trkpt>
      <trkpt lat="47.630399" lon="7.928619">
        <ele>710.148125</ele>
        <time>2021-11-13T10:37:15.070Z</time>
      </trkpt>
      <trkpt lat="47.629245" lon="7.928563">
        <ele>695.934024</ele>
        <time>2021-11-13T10:37:24.771Z</time>
      </trkpt>
      <trkpt lat="47.628543" lon="7.928608">
        <ele>688.337846</ele>
        <time>2021-11-13T10:37:30.702Z</time>
      </trkpt>
      <trkpt lat="47.628161" lon="7.928726">
        <ele>684.173718</ele>
        <time>2021-11-13T10:37:34.052Z</time>
      </trkpt>
      <trkpt lat="47.627834" lon="7.928864">
        <ele>680.545554</ele>
        <time>2021-11-13T10:37:37.018Z</time>
      </trkpt>
      <trkpt lat="47.626987" lon="7.929783">
        <ele>670.198469</ele>
        <time>2021-11-13T10:37:46.095Z</time>
      </trkpt>
      <trkpt lat="47.626886" lon="7.929825">
        <ele>669.222110</ele>
        <time>2021-11-13T10:37:46.991Z</time>
      </trkpt>
      <trkpt lat="47.626513" lon="7.929764">
        <ele>665.729099</ele>
        <time>2021-11-13T10:37:50.287Z</time>
      </trkpt>
      <trkpt lat="47.626414" lon="7.929713">
        <ele>664.753619</ele>
        <time>2021-11-13T10:37:51.241Z</time>
      </trkpt>
      <trkpt lat="47.626033" lon="7.929516">
        <ele>660.997997</ele>
        <time>2021-11-13T10:37:54.751Z</time>
      </trkpt>
      <trkpt lat="47.625522" lon="7.929345">
        <ele>655.878603</ele>
        <time>2021-11-13T10:37:59.245Z</time>
      </trkpt>
      <trkpt lat="47.624693" lon="7.929271">
        <ele>647.549391</ele>
        <time>2021-11-13T10:38:06.346Z</time>
      </trkpt>
      <trkpt lat="47.624516" lon="7.929342">
        <ele>645.710497</ele>
        <time>2021-11-13T10:38:07.922Z</time>
      </trkpt>
      <trkpt lat="47.624148" lon="7.929878">
        <ele>640.550785</ele>
        <time>2021-11-13T10:38:12.384Z</time>
      </trkpt>
      <trkpt lat="47.623898" lon="7.929981">
        <ele>637.994746</ele>
        <time>2021-11-13T10:38:14.708Z</time>
      </trkpt>
      <trkpt lat="47.623661" lon="7.929775">
        <ele>635.288813</ele>
        <time>2021-11-13T10:38:17.073Z</time>
      </trkpt>
      <trkpt lat="47.623515" lon="7.929516">
        <ele>633.046909</ele>
        <time>2021-11-13T10:38:19.029Z</time>
      </trkpt>
      <trkpt lat="47.623243" lon="7.929290">
        <ele>629.975759</ele>
        <time>2021-11-13T10:38:21.745Z</time>
      </trkpt>
      <trkpt lat="47.623184" lon="7.929263">
        <ele>629.367506</ele>
        <time>2021-11-13T10:38:22.271Z</time>
      </trkpt>
      <trkpt lat="47.623083" lon="7.929217">
        <ele>628.326691</ele>
        <time>2021-11-13T10:38:23.214Z</time>
      </trkpt>
      <trkpt lat="47.622989" lon="7.929175">
        <ele>627.359579</ele>
        <time>2021-11-13T10:38:24.087Z</time>
      </trkpt>
      <trkpt lat="47.622990" lon="7.929067">
        <ele>626.642402</ele>
        <time>2021-11-13T10:38:24.688Z</time>
      </trkpt>
      <trkpt lat="47.622913" lon="7.928884">
        <ele>625.209963</ele>
        <time>2021-11-13T10:38:25.945Z</time>
      </trkpt>
      <trkpt lat="47.621861" lon="7.928723">
        <ele>613.413816</ele>
        <time>2021-11-13T10:38:34.907Z</time>
      </trkpt>
      <trkpt lat="47.620569" lon="7.928919">
        <ele>599.333422</ele>
        <time>2021-11-13T10:38:45.940Z</time>
      </trkpt>
      <trkpt lat="47.619928" lon="7.929124">
        <ele>593.107164</ele>
        <time>2021-11-13T10:38:51.606Z</time>
      </trkpt>
      <trkpt lat="47.619604" lon="7.929315">
        <ele>589.796731</ele>
        <time>2021-11-13T10:38:54.644Z</time>
      </trkpt>
      <trkpt lat="47.619329" lon="7.929527">
        <ele>586.854048</ele>
        <time>2021-11-13T10:38:57.372Z</time>
      </trkpt>
      <trkpt lat="47.618921" lon="7.930073">
        <ele>582.701830</ele>
        <time>2021-11-13T10:39:02.266Z</time>
      </trkpt>
      <trkpt lat="47.618761" lon="7.930033">
        <ele>581.545316</ele>
        <time>2021-11-13T10:39:03.771Z</time>
      </trkpt>
      <trkpt lat="47.618733" lon="7.929945">
        <ele>581.077782</ele>
        <time>2021-11-13T10:39:04.361Z</time>
      </trkpt>
      <trkpt lat="47.618734" lon="7.929873">
        <ele>580.731783</ele>
        <time>2021-11-13T10:39:04.772Z</time>
      </trkpt>
      <trkpt lat="47.618861" lon="7.929607">
        <ele>579.165671</ele>
        <time>2021-11-13T10:39:06.842Z</time>
      </trkpt>
      <trkpt lat="47.619053" lon="7.929381">
        <ele>577.418717</ele>
        <time>2021-11-13T10:39:09.071Z</time>
      </trkpt>
      <trkpt lat="47.620384" lon="7.928242">
        <ele>564.093155</ele>
        <time>2021-11-13T10:39:22.745Z</time>
      </trkpt>
      <trkpt lat="47.620796" lon="7.927816">
        <ele>559.230666</ele>
        <time>2021-11-13T10:39:27.017Z</time>
      </trkpt>
      <trkpt lat="47.620873" lon="7.927631">
        <ele>557.811641</ele>
        <time>2021-11-13T10:39:28.257Z</time>
      </trkpt>
      <trkpt lat="47.620930" lon="7.927423">
        <ele>556.346247</ele>
        <time>2021-11-13T10:39:29.519Z</time>
      </trkpt>
      <trkpt lat="47.620993" lon="7.927078">
        <ele>553.521456</ele>
        <time>2021-11-13T10:39:31.555Z</time>
      </trkpt>
      <trkpt lat="47.621010" lon="7.926916">
        <ele>552.134146</ele>
        <time>2021-11-13T10:39:32.484Z</time>
      </trkpt>
      <trkpt lat="47.621008" lon="7.926716">
        <ele>550.441618</ele>
        <time>2021-11-13T10:39:33.621Z</time>
      </trkpt>
      <trkpt lat="47.621092" lon="7.926230">
        <ele>546.196179</ele>
        <time>2021-11-13T10:39:36.464Z</time>
      </trkpt>
      <trkpt lat="47.621290" lon="7.925709">
        <ele>541.135179</ele>
        <time>2021-11-13T10:39:39.849Z</time>
      </trkpt>
      <trkpt lat="47.621339" lon="7.925596">
        <ele>539.998229</ele>
        <time>2021-11-13T10:39:40.600Z</time>
      </trkpt>
      <trkpt lat="47.621723" lon="7.924936">
        <ele>532.694374</ele>
        <time>2021-11-13T10:39:45.541Z</time>
      </trkpt>
      <trkpt lat="47.623053" lon="7.924259">
        <ele>517.796709</ele>
        <time>2021-11-13T10:39:57.644Z</time>
      </trkpt>
      <trkpt lat="47.623206" lon="7.923969">
        <ele>515.166792</ele>
        <time>2021-11-13T10:39:59.809Z</time>
      </trkpt>
      <trkpt lat="47.623246" lon="7.923768">
        <ele>513.638902</ele>
        <time>2021-11-13T10:40:01.005Z</time>
      </trkpt>
      <trkpt lat="47.623227" lon="7.922954">
        <ele>507.325417</ele>
        <time>2021-11-13T10:40:05.675Z</time>
      </trkpt>
      <trkpt lat="47.623251" lon="7.922713">
        <ele>505.437031</ele>
        <time>2021-11-13T10:40:07.052Z</time>
      </trkpt>
      <trkpt lat="47.623298" lon="7.922501">
        <ele>503.707104</ele>
        <time>2021-11-13T10:40:08.335Z</time>
      </trkpt>
      <trkpt lat="47.623564" lon="7.921962">
        <ele>498.528833</ele>
        <time>2021-11-13T10:40:12.143Z</time>
      </trkpt>
      <trkpt lat="47.623626" lon="7.921633">
        <ele>495.880807</ele>
        <time>2021-11-13T10:40:14.102Z</time>
      </trkpt>
      <trkpt lat="47.623611" lon="7.921528">
        <ele>495.048827</ele>
        <time>2021-11-13T10:40:14.705Z</time>
      </trkpt>
      <trkpt lat="47.623588" lon="7.921368">
        <ele>493.780705</ele>
        <time>2021-11-13T10:40:15.639Z</time>
      </trkpt>
      <trkpt lat="47.623561" lon="7.920975">
        <ele>490.959524</ele>
        <time>2021-11-13T10:40:17.894Z</time>
      </trkpt>
      <trkpt lat="47.623430" lon="7.919875">
        <ele>483.093456</ele>
        <time>2021-11-13T10:40:24.361Z</time>
      </trkpt>
      <trkpt lat="47.623255" lon="7.919315">
        <ele>478.746739</ele>
        <time>2021-11-13T10:40:27.935Z</time>
      </trkpt>
      <trkpt lat="47.623010" lon="7.918947">
        <ele>475.104241</ele>
        <time>2021-11-13T10:40:30.918Z</time>
      </trkpt>
      <trkpt lat="47.622446" lon="7.918652">
        <ele>469.237084</ele>
        <time>2021-11-13T10:40:36.139Z</time>
      </trkpt>
      <trkpt lat="47.622366" lon="7.918470">
        <ele>467.809187</ele>
        <time>2021-11-13T10:40:37.393Z</time>
      </trkpt>
      <trkpt lat="47.622381" lon="7.918164">
        <ele>465.792963</ele>
        <time>2021-11-13T10:40:39.203Z</time>
      </trkpt>
      <trkpt lat="47.622424" lon="7.918069">
        <ele>465.040950</ele>
        <time>2021-11-13T10:40:39.860Z</time>
      </trkpt>
      <trkpt lat="47.622587" lon="7.917873">
        <ele>462.995291</ele>
        <time>2021-11-13T10:40:41.674Z</time>
      </trkpt>
      <trkpt lat="47.622656" lon="7.917625">
        <ele>461.232146</ele>
        <time>2021-11-13T10:40:43.236Z</time>
      </trkpt>
      <trkpt lat="47.622677" lon="7.917170">
        <ele>458.235077</ele>
        <time>2021-11-13T10:40:45.892Z</time>
      </trkpt>
      <trkpt lat="47.622647" lon="7.916647">
        <ele>454.742363</ele>
        <time>2021-11-13T10:40:48.928Z</time>
      </trkpt>
      <trkpt lat="47.622576" lon="7.916379">
        <ele>452.813323</ele>
        <time>2021-11-13T10:40:50.584Z</time>
      </trkpt>
      <trkpt lat="47.622393" lon="7.916077">
        <ele>450.092820</ele>
        <time>2021-11-13T10:40:52.919Z</time>
      </trkpt>
      <trkpt lat="47.621809" lon="7.915582">
        <ele>443.407983</ele>
        <time>2021-11-13T10:40:58.732Z</time>
      </trkpt>
      <trkpt lat="47.621530" lon="7.915222">
        <ele>439.732975</ele>
        <time>2021-11-13T10:41:01.938Z</time>
      </trkpt>
      <trkpt lat="47.621037" lon="7.914355">
        <ele>432.017511</ele>
        <time>2021-11-13T10:41:08.568Z</time>
      </trkpt>
      <trkpt lat="47.620869" lon="7.913635">
        <ele>426.828425</ele>
        <time>2021-11-13T10:41:12.931Z</time>
      </trkpt>
      <trkpt lat="47.620841" lon="7.913331">
        <ele>424.738779</ele>
        <time>2021-11-13T10:41:14.710Z</time>
      </trkpt>
      <trkpt lat="47.620822" lon="7.912670">
        <ele>420.349073</ele>
        <time>2021-11-13T10:41:18.538Z</time>
      </trkpt>
      <trkpt lat="47.620858" lon="7.912289">
        <ele>418.141141</ele>
        <time>2021-11-13T10:41:20.798Z</time>
      </trkpt>
      <trkpt lat="47.620910" lon="7.911951">
        <ele>416.151480</ele>
        <time>2021-11-13T10:41:22.813Z</time>
      </trkpt>
      <trkpt lat="47.620953" lon="7.911653">
        <ele>414.402516</ele>
        <time>2021-11-13T10:41:24.603Z</time>
      </trkpt>
      <trkpt lat="47.620946" lon="7.911321">
        <ele>412.496246</ele>
        <time>2021-11-13T10:41:26.574Z</time>
      </trkpt>
      <trkpt lat="47.620846" lon="7.911023">
        <ele>410.585805</ele>
        <time>2021-11-13T10:41:28.545Z</time>
      </trkpt>
      <trkpt lat="47.620625" lon="7.910808">
        <ele>408.335653</ele>
        <time>2021-11-13T10:41:30.875Z</time>
      </trkpt>
      <trkpt lat="47.620181" lon="7.910694">
        <ele>404.919424</ele>
        <time>2021-11-13T10:41:34.881Z</time>
      </trkpt>
      <trkpt lat="47.620162" lon="7.910587">
        <ele>404.514957</ele>
        <time>2021-11-13T10:41:35.549Z</time>
      </trkpt>
      <trkpt lat="47.620245" lon="7.910440">
        <ele>403.814007</ele>
        <time>2021-11-13T10:41:36.721Z</time>
      </trkpt>
      <trkpt lat="47.620712" lon="7.910483">
        <ele>401.276577</ele>
        <time>2021-11-13T10:41:41.175Z</time>
      </trkpt>
      <trkpt lat="47.621308" lon="7.910162">
        <ele>397.838059</ele>
        <time>2021-11-13T10:41:47.230Z</time>
      </trkpt>
      <trkpt lat="47.621461" lon="7.910146">
        <ele>397.006276</ele>
        <time>2021-11-13T10:41:48.641Z</time>
      </trkpt>
      <trkpt lat="47.622368" lon="7.910396">
        <ele>392.422811</ele>
        <time>2021-11-13T10:41:57.340Z</time>
      </trkpt>
      <trkpt lat="47.622666" lon="7.910254">
        <ele>390.908003</ele>
        <time>2021-11-13T10:42:00.354Z</time>
      </trkpt>
      <trkpt lat="47.622755" lon="7.910176">
        <ele>390.407728</ele>
        <time>2021-11-13T10:42:01.306Z</time>
      </trkpt>
      <trkpt lat="47.622850" lon="7.910055">
        <ele>389.801767</ele>
        <time>2021-11-13T10:42:02.519Z</time>
      </trkpt>
      <trkpt lat="47.623414" lon="7.909173">
        <ele>385.579092</ele>
        <time>2021-11-13T10:42:10.363Z</time>
      </trkpt>
      <trkpt lat="47.623851" lon="7.909030">
        <ele>383.004977</ele>
        <time>2021-11-13T10:42:14.535Z</time>
      </trkpt>
      <trkpt lat="47.624367" lon="7.909092">
        <ele>380.027134</ele>
        <time>2021-11-13T10:42:19.453Z</time>
      </trkpt>
      <trkpt lat="47.624823" lon="7.909229">
        <ele>377.350905</ele>
        <time>2021-11-13T10:42:23.666Z</time>
      </trkpt>
      <trkpt lat="47.624962" lon="7.909272">
        <ele>376.344401</ele>
        <time>2021-11-13T10:42:24.896Z</time>
      </trkpt>
      <trkpt lat="47.625366" lon="7.909623">
        <ele>372.041707</ele>
        <time>2021-11-13T10:42:29.015Z</time>
      </trkpt>
      <trkpt lat="47.625586" lon="7.909712">
        <ele>369.945984</ele>
        <time>2021-11-13T10:42:31.002Z</time>
      </trkpt>
      <trkpt lat="47.625630" lon="7.909700">
        <ele>369.534826</ele>
        <time>2021-11-13T10:42:31.374Z</time>
      </trkpt>
      <trkpt lat="47.625660" lon="7.909693">
        <ele>369.255722</ele>
        <time>2021-11-13T10:42:31.630Z</time>
      </trkpt>
      <trkpt lat="47.625738" lon="7.909657">
        <ele>368.504980</ele>
        <time>2021-11-13T10:42:32.377Z</time>
      </trkpt>
      <trkpt lat="47.625820" lon="7.909530">
        <ele>367.415588</ele>
        <time>2021-11-13T10:42:33.413Z</time>
      </trkpt>
      <trkpt lat="47.625875" lon="7.909372">
        <ele>366.314084</ele>
        <time>2021-11-13T10:42:34.419Z</time>
      </trkpt>
      <trkpt lat="47.626074" lon="7.908682">
        <ele>361.665268</ele>
        <time>2021-11-13T10:42:38.788Z</time>
      </trkpt>
      <trkpt lat="47.626373" lon="7.908242">
        <ele>358.645785</ele>
        <time>2021-11-13T10:42:42.420Z</time>
      </trkpt>
      <trkpt lat="47.626436" lon="7.907974">
        <ele>357.479818</ele>
        <time>2021-11-13T10:42:44.047Z</time>
      </trkpt>
      <trkpt lat="47.626446" lon="7.907798">
        <ele>356.754261</ele>
        <time>2021-11-13T10:42:45.128Z</time>
      </trkpt>
      <trkpt lat="47.626442" lon="7.907543">
        <ele>355.706460</ele>
        <time>2021-11-13T10:42:46.617Z</time>
      </trkpt>
      <trkpt lat="47.626436" lon="7.907187">
        <ele>354.243586</ele>
        <time>2021-11-13T10:42:48.848Z</time>
      </trkpt>
      <trkpt lat="47.626436" lon="7.907061">
        <ele>353.725989</ele>
        <time>2021-11-13T10:42:49.671Z</time>
      </trkpt>
      <trkpt lat="47.626436" lon="7.906623">
        <ele>351.926724</ele>
        <time>2021-11-13T10:42:52.537Z</time>
      </trkpt>
      <trkpt lat="47.626439" lon="7.906299">
        <ele>350.595635</ele>
        <time>2021-11-13T10:42:54.691Z</time>
      </trkpt>
      <trkpt lat="47.626443" lon="7.905945">
        <ele>349.367300</ele>
        <time>2021-11-13T10:42:57.243Z</time>
      </trkpt>
      <trkpt lat="47.626460" lon="7.905124">
        <ele>349.510526</ele>
        <time>2021-11-13T10:43:04.149Z</time>
      </trkpt>
      <trkpt lat="47.626440" lon="7.905007">
        <ele>349.531573</ele>
        <time>2021-11-13T10:43:05.946Z</time>
      </trkpt>
      <trkpt lat="47.626399" lon="7.904961">
        <ele>349.544872</ele>
        <time>2021-11-13T10:43:06.746Z</time>
      </trkpt>
      <trkpt lat="47.626221" lon="7.904920">
        <ele>349.591476</ele>
        <time>2021-11-13T10:43:09.778Z</time>
      </trkpt>
      <trkpt lat="47.626086" lon="7.904879">
        <ele>349.627129</ele>
        <time>2021-11-13T10:43:12.965Z</time>
      </trkpt>
      <trkpt lat="47.625742" lon="7.904774">
        <ele>349.717994</ele>
        <time>2021-11-13T10:43:20.589Z</time>
      </trkpt>
      <trkpt lat="47.625516" lon="7.904701">
        <ele>349.777835</ele>
        <time>2021-11-13T10:43:25.222Z</time>
      </trkpt>
      <trkpt lat="47.625088" lon="7.904563">
        <ele>349.888222</ele>
        <time>2021-11-13T10:43:34.545Z</time>
      </trkpt>
      <trkpt lat="47.624956" lon="7.904522">
        <ele>349.921602</ele>
        <time>2021-11-13T10:43:37.300Z</time>
      </trkpt>
      <trkpt lat="47.624761" lon="7.904481">
        <ele>349.970351</ele>
        <time>2021-11-13T10:43:40.471Z</time>
      </trkpt>
      <trkpt lat="47.624565" lon="7.904455">
        <ele>350.019058</ele>
        <time>2021-11-13T10:43:43.531Z</time>
      </trkpt>
      <trkpt lat="47.624472" lon="7.904367">
        <ele>350.046360</ele>
        <time>2021-11-13T10:43:45.217Z</time>
      </trkpt>
      <trkpt lat="47.624451" lon="7.904332">
        <ele>350.054178</ele>
        <time>2021-11-13T10:43:45.738Z</time>
      </trkpt>
      <trkpt lat="47.624399" lon="7.904386">
        <ele>350.069888</ele>
        <time>2021-11-13T10:43:46.656Z</time>
      </trkpt>
      <trkpt lat="47.624263" lon="7.904484">
        <ele>350.107311</ele>
        <time>2021-11-13T10:43:48.878Z</time>
      </trkpt>
      <trkpt lat="47.624120" lon="7.904530">
        <ele>350.143529</ele>
        <time>2021-11-13T10:43:51.050Z</time>
      </trkpt>
      <trkpt lat="47.623650" lon="7.904642">
        <ele>350.261354</ele>
        <time>2021-11-13T10:43:57.328Z</time>
      </trkpt>
      <trkpt lat="47.622648" lon="7.904863">
        <ele>349.032322</ele>
        <time>2021-11-13T10:44:09.738Z</time>
      </trkpt>
      <trkpt lat="47.622424" lon="7.904919">
        <ele>348.746782</ele>
        <time>2021-11-13T10:44:12.345Z</time>
      </trkpt>
      <trkpt lat="47.622235" lon="7.904957">
        <ele>348.507035</ele>
        <time>2021-11-13T10:44:14.507Z</time>
      </trkpt>
      <trkpt lat="47.621248" lon="7.905159">
        <ele>346.687510</ele>
        <time>2021-11-13T10:44:25.618Z</time>
      </trkpt>
      <trkpt lat="47.621107" lon="7.905191">
        <ele>346.373194</ele>
        <time>2021-11-13T10:44:27.185Z</time>
      </trkpt>
      <trkpt lat="47.620699" lon="7.905223">
        <ele>345.472888</ele>
        <time>2021-11-13T10:44:31.613Z</time>
      </trkpt>
      <trkpt lat="47.620426" lon="7.905244">
        <ele>344.870509</ele>
        <time>2021-11-13T10:44:34.577Z</time>
      </trkpt>
      <trkpt lat="47.619447" lon="7.905300">
        <ele>342.070231</ele>
        <time>2021-11-13T10:44:44.705Z</time>
      </trkpt>
      <trkpt lat="47.619299" lon="7.905308">
        <ele>341.586827</ele>
        <time>2021-11-13T10:44:46.107Z</time>
      </trkpt>
      <trkpt lat="47.619155" lon="7.905319">
        <ele>341.116178</ele>
        <time>2021-11-13T10:44:47.688Z</time>
      </trkpt>
      <trkpt lat="47.618976" lon="7.905535">
        <ele>340.363037</ele>
        <time>2021-11-13T10:44:49.934Z</time>
      </trkpt>
      <trkpt lat="47.618920" lon="7.906208">
        <ele>338.871078</ele>
        <time>2021-11-13T10:44:54.627Z</time>
      </trkpt>
      <trkpt lat="47.618888" lon="7.906392">
        <ele>338.452988</ele>
        <time>2021-11-13T10:44:55.887Z</time>
      </trkpt>
      <trkpt lat="47.618867" lon="7.906514">
        <ele>338.175952</ele>
        <time>2021-11-13T10:44:56.671Z</time>
      </trkpt>
      <trkpt lat="47.618719" lon="7.906838">
        <ele>337.383069</ele>
        <time>2021-11-13T10:44:59.385Z</time>
      </trkpt>
      <trkpt lat="47.618579" lon="7.906988">
        <ele>336.864187</ele>
        <time>2021-11-13T10:45:01.043Z</time>
      </trkpt>
      <trkpt lat="47.618470" lon="7.907083">
        <ele>336.484345</ele>
        <time>2021-11-13T10:45:02.343Z</time>
      </trkpt>
      <trkpt lat="47.617957" lon="7.907285">
        <ele>334.889596</ele>
        <time>2021-11-13T10:45:07.651Z</time>
      </trkpt>
      <trkpt lat="47.617238" lon="7.908130">
        <ele>332.497850</ele>
        <time>2021-11-13T10:45:17.471Z</time>
      </trkpt>
      <trkpt lat="47.617086" lon="7.908230">
        <ele>332.284620</ele>
        <time>2021-11-13T10:45:19.360Z</time>
      </trkpt>
      <trkpt lat="47.616832" lon="7.908284">
        <ele>331.955566</ele>
        <time>2021-11-13T10:45:22.238Z</time>
      </trkpt>
      <trkpt lat="47.616604" lon="7.908203">
        <ele>331.654915</ele>
        <time>2021-11-13T10:45:24.864Z</time>
      </trkpt>
      <trkpt lat="47.616124" lon="7.907729">
        <ele>330.915464</ele>
        <time>2021-11-13T10:45:31.684Z</time>
      </trkpt>
      <trkpt lat="47.616009" lon="7.907686">
        <ele>330.763377</ele>
        <time>2021-11-13T10:45:33.248Z</time>
      </trkpt>
      <trkpt lat="47.615946" lon="7.907692">
        <ele>330.682420</ele>
        <time>2021-11-13T10:45:34.015Z</time>
      </trkpt>
      <trkpt lat="47.615821" lon="7.907747">
        <ele>330.515220</ele>
        <time>2021-11-13T10:45:36.093Z</time>
      </trkpt>
      <trkpt lat="47.615669" lon="7.907870">
        <ele>330.532356</ele>
        <time>2021-11-13T10:45:38.773Z</time>
      </trkpt>
      <trkpt lat="47.615460" lon="7.908111">
        <ele>330.672173</ele>
        <time>2021-11-13T10:45:43.144Z</time>
      </trkpt>
      <trkpt lat="47.615374" lon="7.908222">
        <ele>330.732383</ele>
        <time>2021-11-13T10:45:45.062Z</time>
      </trkpt>
      <trkpt lat="47.615246" lon="7.908385">
        <ele>330.821483</ele>
        <time>2021-11-13T10:45:48.086Z</time>
      </trkpt>
      <trkpt lat="47.615085" lon="7.908567">
        <ele>330.928396</ele>
        <time>2021-11-13T10:45:51.497Z</time>
      </trkpt>
      <trkpt lat="47.614876" lon="7.908760">
        <ele>331.058427</ele>
        <time>2021-11-13T10:45:55.815Z</time>
      </trkpt>
      <trkpt lat="47.614784" lon="7.908839">
        <ele>331.114573</ele>
        <time>2021-11-13T10:45:57.619Z</time>
      </trkpt>
      <trkpt lat="47.614412" lon="7.909095">
        <ele>331.331169</ele>
        <time>2021-11-13T10:46:04.888Z</time>
      </trkpt>
      <trkpt lat="47.614063" lon="7.909285">
        <ele>331.578838</ele>
        <time>2021-11-13T10:46:11.883Z</time>
      </trkpt>
      <trkpt lat="47.613934" lon="7.909339">
        <ele>331.681240</ele>
        <time>2021-11-13T10:46:14.434Z</time>
      </trkpt>
      <trkpt lat="47.613360" lon="7.909602">
        <ele>332.140208</ele>
        <time>2021-11-13T10:46:26.306Z</time>
      </trkpt>
      <trkpt lat="47.613280" lon="7.909624">
        <ele>332.202368</ele>
        <time>2021-11-13T10:46:27.735Z</time>
      </trkpt>
      <trkpt lat="47.613015" lon="7.909755">
        <ele>332.415770</ele>
        <time>2021-11-13T10:46:33.003Z</time>
      </trkpt>
      <trkpt lat="47.613015" lon="7.909755">
        <ele>332.415770</ele>
        <time>2021-11-13T10:46:33.009Z</time>
      </trkpt>
      <trkpt lat="47.613015" lon="7.909754">
        <ele>332.416285</ele>
        <time>2021-11-13T10:46:33.022Z</time>
      </trkpt>
      <trkpt lat="47.612200" lon="7.910044">
        <ele>332.756460</ele>
        <time>2021-11-13T10:46:48.554Z</time>
      </trkpt>
      <trkpt lat="47.612083" lon="7.910099">
        <ele>332.745945</ele>
        <time>2021-11-13T10:46:50.911Z</time>
      </trkpt>
      <trkpt lat="47.612007" lon="7.910135">
        <ele>332.739110</ele>
        <time>2021-11-13T10:46:52.890Z</time>
      </trkpt>
      <trkpt lat="47.611721" lon="7.910294">
        <ele>332.712944</ele>
        <time>2021-11-13T10:46:58.706Z</time>
      </trkpt>
      <trkpt lat="47.611724" lon="7.910345">
        <ele>332.709987</ele>
        <time>2021-11-13T10:46:59.704Z</time>
      </trkpt>
      <trkpt lat="47.611410" lon="7.910540">
        <ele>332.680824</ele>
        <time>2021-11-13T10:47:04.458Z</time>
      </trkpt>
      <trkpt lat="47.611075" lon="7.910790">
        <ele>332.648697</ele>
        <time>2021-11-13T10:47:09.796Z</time>
      </trkpt>
      <trkpt lat="47.610601" lon="7.911148">
        <ele>332.350267</ele>
        <time>2021-11-13T10:47:16.994Z</time>
      </trkpt>
      <trkpt lat="47.609176" lon="7.911865">
        <ele>331.111705</ele>
        <time>2021-11-13T10:47:35.473Z</time>
      </trkpt>
      <trkpt lat="47.608352" lon="7.912531">
        <ele>330.253491</ele>
        <time>2021-11-13T10:47:46.973Z</time>
      </trkpt>
      <trkpt lat="47.607435" lon="7.913089">
        <ele>329.371559</ele>
        <time>2021-11-13T10:47:59.510Z</time>
      </trkpt>
      <trkpt lat="47.607362" lon="7.913064">
        <ele>329.313178</ele>
        <time>2021-11-13T10:48:00.372Z</time>
      </trkpt>
      <trkpt lat="47.607309" lon="7.913028">
        <ele>329.267753</ele>
        <time>2021-11-13T10:48:01.105Z</time>
      </trkpt>
      <trkpt lat="47.607149" lon="7.913091">
        <ele>329.138756</ele>
        <time>2021-11-13T10:48:03.174Z</time>
      </trkpt>
      <trkpt lat="47.607112" lon="7.913184">
        <ele>329.082024</ele>
        <time>2021-11-13T10:48:04.049Z</time>
      </trkpt>
      <trkpt lat="47.607218" lon="7.913269">
        <ele>328.988126</ele>
        <time>2021-11-13T10:48:05.505Z</time>
      </trkpt>
      <trkpt lat="47.607250" lon="7.913358">
        <ele>328.935134</ele>
        <time>2021-11-13T10:48:06.371Z</time>
      </trkpt>
      <trkpt lat="47.607292" lon="7.913435">
        <ele>328.883099</ele>
        <time>2021-11-13T10:48:07.244Z</time>
      </trkpt>
      <trkpt lat="47.606938" lon="7.913697">
        <ele>328.574813</ele>
        <time>2021-11-13T10:48:12.298Z</time>
      </trkpt>
      <trkpt lat="47.606706" lon="7.913869">
        <ele>328.372702</ele>
        <time>2021-11-13T10:48:15.676Z</time>
      </trkpt>
      <trkpt lat="47.606558" lon="7.913988">
        <ele>328.241518</ele>
        <time>2021-11-13T10:48:17.896Z</time>
      </trkpt>
      <trkpt lat="47.606450" lon="7.914067">
        <ele>328.147682</ele>
        <time>2021-11-13T10:48:19.451Z</time>
      </trkpt>
      <trkpt lat="47.606200" lon="7.914255">
        <ele>327.828928</ele>
        <time>2021-11-13T10:48:23.046Z</time>
      </trkpt>
      <trkpt lat="47.605929" lon="7.914457">
        <ele>327.462351</ele>
        <time>2021-11-13T10:48:26.810Z</time>
      </trkpt>
      <trkpt lat="47.605648" lon="7.914613">
        <ele>327.099712</ele>
        <time>2021-11-13T10:48:30.373Z</time>
      </trkpt>
      <trkpt lat="47.605408" lon="7.914750">
        <ele>326.788897</ele>
        <time>2021-11-13T10:48:33.325Z</time>
      </trkpt>
      <trkpt lat="47.605105" lon="7.914869">
        <ele>326.410059</ele>
        <time>2021-11-13T10:48:36.895Z</time>
      </trkpt>
      <trkpt lat="47.604722" lon="7.914915">
        <ele>325.945635</ele>
        <time>2021-11-13T10:48:41.346Z</time>
      </trkpt>
      <trkpt lat="47.604393" lon="7.914885">
        <ele>325.451808</ele>
        <time>2021-11-13T10:48:45.207Z</time>
      </trkpt>
      <trkpt lat="47.604062" lon="7.914772">
        <ele>324.940881</ele>
        <time>2021-11-13T10:48:49.150Z</time>
      </trkpt>
      <trkpt lat="47.603884" lon="7.914671">
        <ele>324.654198</ele>
        <time>2021-11-13T10:48:51.265Z</time>
      </trkpt>
      <trkpt lat="47.603615" lon="7.914449">
        <ele>324.191128</ele>
        <time>2021-11-13T10:48:54.738Z</time>
      </trkpt>
      <trkpt lat="47.603466" lon="7.914620">
        <ele>323.907727</ele>
        <time>2021-11-13T10:48:56.902Z</time>
      </trkpt>
      <trkpt lat="47.603302" lon="7.914722">
        <ele>323.640217</ele>
        <time>2021-11-13T10:48:58.884Z</time>
      </trkpt>
      <trkpt lat="47.602754" lon="7.914823">
        <ele>323.033441</ele>
        <time>2021-11-13T10:49:05.364Z</time>
      </trkpt>
      <trkpt lat="47.602131" lon="7.915025">
        <ele>322.582764</ele>
        <time>2021-11-13T10:49:13.246Z</time>
      </trkpt>
      <trkpt lat="47.601546" lon="7.915285">
        <ele>322.151176</ele>
        <time>2021-11-13T10:49:21.741Z</time>
      </trkpt>
      <trkpt lat="47.601054" lon="7.915633">
        <ele>321.823290</ele>
        <time>2021-11-13T10:49:29.518Z</time>
      </trkpt>
      <trkpt lat="47.600689" lon="7.915853">
        <ele>321.626816</ele>
        <time>2021-11-13T10:49:34.874Z</time>
      </trkpt>
      <trkpt lat="47.600545" lon="7.915898">
        <ele>321.553430</ele>
        <time>2021-11-13T10:49:36.919Z</time>
      </trkpt>
      <trkpt lat="47.600344" lon="7.915900">
        <ele>321.453195</ele>
        <time>2021-11-13T10:49:39.554Z</time>
      </trkpt>
      <trkpt lat="47.600078" lon="7.915859">
        <ele>321.319834</ele>
        <time>2021-11-13T10:49:43.091Z</time>
      </trkpt>
      <trkpt lat="47.599906" lon="7.915798">
        <ele>321.231644</ele>
        <time>2021-11-13T10:49:45.390Z</time>
      </trkpt>
      <trkpt lat="47.599374" lon="7.915625">
        <ele>320.823726</ele>
        <time>2021-11-13T10:49:52.238Z</time>
      </trkpt>
      <trkpt lat="47.599120" lon="7.915596">
        <ele>320.529757</ele>
        <time>2021-11-13T10:49:55.395Z</time>
      </trkpt>
      <trkpt lat="47.597656" lon="7.915778">
        <ele>318.860052</ele>
        <time>2021-11-13T10:50:12.503Z</time>
      </trkpt>
      <trkpt lat="47.597083" lon="7.915733">
        <ele>318.308111</ele>
        <time>2021-11-13T10:50:19.812Z</time>
      </trkpt>
      <trkpt lat="47.596850" lon="7.915674">
        <ele>318.080744</ele>
        <time>2021-11-13T10:50:22.854Z</time>
      </trkpt>
      <trkpt lat="47.596736" lon="7.915598">
        <ele>317.960516</ele>
        <time>2021-11-13T10:50:24.591Z</time>
      </trkpt>
      <trkpt lat="47.596349" lon="7.915301">
        <ele>317.541365</ele>
        <time>2021-11-13T10:50:30.084Z</time>
      </trkpt>
      <trkpt lat="47.596117" lon="7.915243">
        <ele>317.315055</ele>
        <time>2021-11-13T10:50:32.954Z</time>
      </trkpt>
      <trkpt lat="47.595949" lon="7.915202">
        <ele>317.058695</ele>
        <time>2021-11-13T10:50:34.907Z</time>
      </trkpt>
      <trkpt lat="47.595909" lon="7.915188">
        <ele>316.984908</ele>
        <time>2021-11-13T10:50:35.352Z</time>
      </trkpt>
      <trkpt lat="47.595861" lon="7.915155">
        <ele>316.889920</ele>
        <time>2021-11-13T10:50:35.973Z</time>
      </trkpt>
      <trkpt lat="47.595688" lon="7.915084">
        <ele>316.567650</ele>
        <time>2021-11-13T10:50:38.110Z</time>
      </trkpt>
      <trkpt lat="47.595476" lon="7.914889">
        <ele>316.119762</ele>
        <time>2021-11-13T10:50:40.908Z</time>
      </trkpt>
      <trkpt lat="47.595292" lon="7.914664">
        <ele>315.691586</ele>
        <time>2021-11-13T10:50:43.629Z</time>
      </trkpt>
      <trkpt lat="47.595031" lon="7.914316">
        <ele>315.061435</ele>
        <time>2021-11-13T10:50:47.576Z</time>
      </trkpt>
      <trkpt lat="47.594871" lon="7.914141">
        <ele>314.704494</ele>
        <time>2021-11-13T10:50:49.694Z</time>
      </trkpt>
      <trkpt lat="47.594719" lon="7.914022">
        <ele>314.395903</ele>
        <time>2021-11-13T10:50:51.566Z</time>
      </trkpt>
      <trkpt lat="47.594163" lon="7.913924">
        <ele>313.228902</ele>
        <time>2021-11-13T10:50:57.499Z</time>
      </trkpt>
      <trkpt lat="47.593654" lon="7.913672">
        <ele>312.021323</ele>
        <time>2021-11-13T10:51:03.191Z</time>
      </trkpt>
      <trkpt lat="47.593511" lon="7.913649">
        <ele>311.697636</ele>
        <time>2021-11-13T10:51:04.683Z</time>
      </trkpt>
      <trkpt lat="47.593189" lon="7.913725">
        <ele>310.963905</ele>
        <time>2021-11-13T10:51:08.163Z</time>
      </trkpt>
      <trkpt lat="47.592807" lon="7.913929">
        <ele>310.050225</ele>
        <time>2021-11-13T10:51:12.583Z</time>
      </trkpt>
      <trkpt lat="47.592672" lon="7.914009">
        <ele>309.821249</ele>
        <time>2021-11-13T10:51:14.506Z</time>
      </trkpt>
      <trkpt lat="47.592589" lon="7.914035">
        <ele>309.702903</ele>
        <time>2021-11-13T10:51:15.519Z</time>
      </trkpt>
      <trkpt lat="47.592496" lon="7.914014">
        <ele>309.571666</ele>
        <time>2021-11-13T10:51:16.424Z</time>
      </trkpt>
      <trkpt lat="47.591953" lon="7.913843">
        <ele>308.797251</ele>
        <time>2021-11-13T10:51:23.017Z</time>
      </trkpt>
      <trkpt lat="47.591858" lon="7.913783">
        <ele>308.653198</ele>
        <time>2021-11-13T10:51:24.258Z</time>
      </trkpt>
      <trkpt lat="47.591809" lon="7.913704">
        <ele>308.552217</ele>
        <time>2021-11-13T10:51:25.004Z</time>
      </trkpt>
      <trkpt lat="47.591746" lon="7.913330">
        <ele>308.189531</ele>
        <time>2021-11-13T10:51:28.554Z</time>
      </trkpt>
      <trkpt lat="47.591721" lon="7.913096">
        <ele>307.966629</ele>
        <time>2021-11-13T10:51:30.289Z</time>
      </trkpt>
      <trkpt lat="47.591714" lon="7.913064">
        <ele>307.934978</ele>
        <time>2021-11-13T10:51:30.583Z</time>
      </trkpt>
      <trkpt lat="47.591605" lon="7.912829">
        <ele>307.666636</ele>
        <time>2021-11-13T10:51:33.091Z</time>
      </trkpt>
      <trkpt lat="47.591443" lon="7.912678">
        <ele>307.432794</ele>
        <time>2021-11-13T10:51:35.224Z</time>
      </trkpt>
      <trkpt lat="47.591348" lon="7.912662">
        <ele>307.360328</ele>
        <time>2021-11-13T10:51:36.506Z</time>
      </trkpt>
      <trkpt lat="47.591044" lon="7.912710">
        <ele>307.128615</ele>
        <time>2021-11-13T10:51:40.122Z</time>
      </trkpt>
      <trkpt lat="47.590570" lon="7.912784">
        <ele>306.767370</ele>
        <time>2021-11-13T10:51:45.909Z</time>
      </trkpt>
      <trkpt lat="47.590231" lon="7.912830">
        <ele>306.509358</ele>
        <time>2021-11-13T10:51:50.188Z</time>
      </trkpt>
      <trkpt lat="47.589873" lon="7.912855">
        <ele>306.237719</ele>
        <time>2021-11-13T10:51:55.161Z</time>
      </trkpt>
      <trkpt lat="47.589326" lon="7.912720">
        <ele>305.983681</ele>
        <time>2021-11-13T10:52:03.125Z</time>
      </trkpt>
      <trkpt lat="47.588907" lon="7.912607">
        <ele>305.844992</ele>
        <time>2021-11-13T10:52:09.421Z</time>
      </trkpt>
      <trkpt lat="47.587897" lon="7.912517">
        <ele>305.465029</ele>
        <time>2021-11-13T10:52:23.985Z</time>
      </trkpt>
      <trkpt lat="47.587725" lon="7.912508">
        <ele>305.041882</ele>
        <time>2021-11-13T10:52:25.971Z</time>
      </trkpt>
      <trkpt lat="47.586917" lon="7.912301">
        <ele>303.025873</ele>
        <time>2021-11-13T10:52:34.974Z</time>
      </trkpt>
      <trkpt lat="47.586622" lon="7.912140">
        <ele>302.253000</ele>
        <time>2021-11-13T10:52:38.295Z</time>
      </trkpt>
      <trkpt lat="47.586433" lon="7.912047">
        <ele>301.763396</ele>
        <time>2021-11-13T10:52:40.284Z</time>
      </trkpt>
      <trkpt lat="47.586263" lon="7.911881">
        <ele>301.262923</ele>
        <time>2021-11-13T10:52:42.246Z</time>
      </trkpt>
      <trkpt lat="47.586028" lon="7.911561">
        <ele>299.968630</ele>
        <time>2021-11-13T10:52:45.325Z</time>
      </trkpt>
      <trkpt lat="47.585610" lon="7.910640">
        <ele>296.620291</ele>
        <time>2021-11-13T10:52:52.382Z</time>
      </trkpt>
      <trkpt lat="47.585430" lon="7.910346">
        <ele>295.422652</ele>
        <time>2021-11-13T10:52:54.888Z</time>
      </trkpt>
      <trkpt lat="47.585271" lon="7.910136">
        <ele>294.470391</ele>
        <time>2021-11-13T10:52:56.930Z</time>
      </trkpt>
      <trkpt lat="47.585157" lon="7.909965">
        <ele>293.745177</ele>
        <time>2021-11-13T10:52:58.525Z</time>
      </trkpt>
      <trkpt lat="47.585093" lon="7.909869">
        <ele>293.338038</ele>
        <time>2021-11-13T10:52:59.471Z</time>
      </trkpt>
      <trkpt lat="47.585066" lon="7.909809">
        <ele>293.120479</ele>
        <time>2021-11-13T10:52:59.956Z</time>
      </trkpt>
      <trkpt lat="47.585051" lon="7.909751">
        <ele>292.965618</ele>
        <time>2021-11-13T10:53:00.372Z</time>
      </trkpt>
      <trkpt lat="47.585045" lon="7.909674">
        <ele>292.792889</ele>
        <time>2021-11-13T10:53:00.859Z</time>
      </trkpt>
      <trkpt lat="47.585078" lon="7.909509">
        <ele>292.409378</ele>
        <time>2021-11-13T10:53:02.015Z</time>
      </trkpt>
      <trkpt lat="47.585337" lon="7.909031">
        <ele>291.043067</ele>
        <time>2021-11-13T10:53:06.121Z</time>
      </trkpt>
      <trkpt lat="47.585222" lon="7.908901">
        <ele>290.565285</ele>
        <time>2021-11-13T10:53:07.562Z</time>
      </trkpt>
      <trkpt lat="47.585149" lon="7.908804">
        <ele>290.241417</ele>
        <time>2021-11-13T10:53:08.504Z</time>
      </trkpt>
      <trkpt lat="47.585084" lon="7.908692">
        <ele>289.912164</ele>
        <time>2021-11-13T10:53:09.491Z</time>
      </trkpt>
      <trkpt lat="47.584719" lon="7.908091">
        <ele>288.109985</ele>
        <time>2021-11-13T10:53:15.078Z</time>
      </trkpt>
      <trkpt lat="47.583887" lon="7.907113">
        <ele>285.622483</ele>
        <time>2021-11-13T10:53:26.379Z</time>
      </trkpt>
      <trkpt lat="47.583711" lon="7.906911">
        <ele>285.185717</ele>
        <time>2021-11-13T10:53:28.799Z</time>
      </trkpt>
      <trkpt lat="47.583451" lon="7.906619">
        <ele>284.545650</ele>
        <time>2021-11-13T10:53:32.445Z</time>
      </trkpt>
      <trkpt lat="47.583245" lon="7.906443">
        <ele>284.079092</ele>
        <time>2021-11-13T10:53:35.187Z</time>
      </trkpt>
      <trkpt lat="47.583077" lon="7.906399">
        <ele>283.744318</ele>
        <time>2021-11-13T10:53:37.112Z</time>
      </trkpt>
      <trkpt lat="47.583078" lon="7.906333">
        <ele>283.656937</ele>
        <time>2021-11-13T10:53:38.265Z</time>
      </trkpt>
      <trkpt lat="47.582978" lon="7.906058">
        <ele>283.417540</ele>
        <time>2021-11-13T10:53:43.377Z</time>
      </trkpt>
      <trkpt lat="47.582444" lon="7.905407">
        <ele>282.751141</ele>
        <time>2021-11-13T10:54:00.431Z</time>
      </trkpt>
      <trkpt lat="47.582363" lon="7.904904">
        <ele>282.414912</ele>
        <time>2021-11-13T10:54:09.261Z</time>
      </trkpt>
      <trkpt lat="47.582239" lon="7.904634">
        <ele>282.202538</ele>
        <time>2021-11-13T10:54:14.800Z</time>
      </trkpt>
      <trkpt lat="47.582142" lon="7.904333">
        <ele>281.985647</ele>
        <time>2021-11-13T10:54:20.556Z</time>
      </trkpt>
      <trkpt lat="47.582160" lon="7.904319">
        <ele>281.966054</ele>
        <time>2021-11-13T10:54:21.071Z</time>
      </trkpt>
      <trkpt lat="47.582349" lon="7.904176">
        <ele>281.811321</ele>
        <time>2021-11-13T10:54:23.844Z</time>
      </trkpt>
      <trkpt lat="47.582359" lon="7.904169">
        <ele>281.806533</ele>
        <time>2021-11-13T10:54:24.118Z</time>
      </trkpt>
      <trkpt lat="47.582292" lon="7.903924">
        <ele>281.729314</ele>
        <time>2021-11-13T10:54:37.631Z</time>
      </trkpt>
      <trkpt lat="47.582281" lon="7.903499">
        <ele>281.605086</ele>
        <time>2021-11-13T10:54:59.657Z</time>
      </trkpt>
      <trkpt lat="47.582367" lon="7.903320">
        <ele>281.540895</ele>
        <time>2021-11-13T10:55:10.980Z</time>
      </trkpt>
      <trkpt lat="47.583690" lon="7.901743">
        <ele>281.501508</ele>
        <time>2021-11-13T10:57:24.131Z</time>
      </trkpt>
      <trkpt lat="47.583908" lon="7.901447">
        <ele>281.706682</ele>
        <time>2021-11-13T10:57:48.716Z</time>
      </trkpt>
      <trkpt lat="47.583958" lon="7.901371">
        <ele>281.756383</ele>
        <time>2021-11-13T10:57:51.541Z</time>
      </trkpt>
      <trkpt lat="47.584030" lon="7.901259">
        <ele>281.828816</ele>
        <time>2021-11-13T10:57:54.628Z</time>
      </trkpt>
      <trkpt lat="47.584184" lon="7.901068">
        <ele>281.968172</ele>
        <time>2021-11-13T10:57:58.864Z</time>
      </trkpt>
      <trkpt lat="47.585046" lon="7.900322">
        <ele>282.956440</ele>
        <time>2021-11-13T10:58:19.233Z</time>
      </trkpt>
      <trkpt lat="47.585046" lon="7.900322">
        <ele>282.956440</ele>
        <time>2021-11-13T10:58:19.335Z</time>
      </trkpt>
      <trkpt lat="47.585269" lon="7.900343">
        <ele>283.246537</ele>
        <time>2021-11-13T10:58:23.780Z</time>
      </trkpt>
      <trkpt lat="47.585995" lon="7.900985">
        <ele>284.344000</ele>
        <time>2021-11-13T10:58:41.083Z</time>
      </trkpt>
      <trkpt lat="47.586252" lon="7.900599">
        <ele>284.723508</ele>
        <time>2021-11-13T10:58:48.265Z</time>
      </trkpt>
      <trkpt lat="47.587652" lon="7.896710">
        <ele>285.775602</ele>
        <time>2021-11-13T10:59:36.658Z</time>
      </trkpt>
      <trkpt lat="47.587920" lon="7.895460">
        <ele>285.702440</ele>
        <time>2021-11-13T10:59:48.619Z</time>
      </trkpt>
      <trkpt lat="47.588181" lon="7.894619">
        <ele>285.486752</ele>
        <time>2021-11-13T10:59:56.889Z</time>
      </trkpt>
      <trkpt lat="47.588308" lon="7.893899">
        <ele>285.313363</ele>
        <time>2021-11-13T11:00:03.522Z</time>
      </trkpt>
      <trkpt lat="47.588446" lon="7.893562">
        <ele>285.221509</ele>
        <time>2021-11-13T11:00:07.098Z</time>
      </trkpt>
      <trkpt lat="47.588527" lon="7.892870">
        <ele>285.675929</ele>
        <time>2021-11-13T11:00:14.650Z</time>
      </trkpt>
      <trkpt lat="47.588665" lon="7.892418">
        <ele>286.016937</ele>
        <time>2021-11-13T11:00:20.449Z</time>
      </trkpt>
      <trkpt lat="47.588978" lon="7.891785">
        <ele>286.556396</ele>
        <time>2021-11-13T11:00:30.841Z</time>
      </trkpt>
      <trkpt lat="47.589091" lon="7.891624">
        <ele>286.716099</ele>
        <time>2021-11-13T11:00:33.934Z</time>
      </trkpt>
      <trkpt lat="47.589229" lon="7.891458">
        <ele>286.897188</ele>
        <time>2021-11-13T11:00:38.163Z</time>
      </trkpt>
      <trkpt lat="47.589499" lon="7.891160">
        <ele>287.537577</ele>
        <time>2021-11-13T11:00:46.014Z</time>
      </trkpt>
      <trkpt lat="47.590049" lon="7.890882">
        <ele>289.042471</ele>
        <time>2021-11-13T11:01:00.514Z</time>
      </trkpt>
      <trkpt lat="47.590244" lon="7.890664">
        <ele>289.674948</ele>
        <time>2021-11-13T11:01:07.148Z</time>
      </trkpt>
      <trkpt lat="47.590839" lon="7.889929">
        <ele>291.680591</ele>
        <time>2021-11-13T11:01:28.050Z</time>
      </trkpt>
      <trkpt lat="47.591491" lon="7.889123">
        <ele>293.111479</ele>
        <time>2021-11-13T11:01:48.011Z</time>
      </trkpt>
      <trkpt lat="47.591631" lon="7.888967">
        <ele>293.404866</ele>
        <time>2021-11-13T11:01:51.631Z</time>
      </trkpt>
      <trkpt lat="47.591709" lon="7.888913">
        <ele>293.549081</ele>
        <time>2021-11-13T11:01:54.011Z</time>
      </trkpt>
      <trkpt lat="47.591826" lon="7.888492">
        <ele>294.063546</ele>
        <time>2021-11-13T11:02:00.043Z</time>
      </trkpt>
      <trkpt lat="47.591875" lon="7.888327">
        <ele>294.267243</ele>
        <time>2021-11-13T11:02:02.520Z</time>
      </trkpt>
      <trkpt lat="47.592704" lon="7.885535">
        <ele>294.942667</ele>
        <time>2021-11-13T11:02:34.784Z</time>
      </trkpt>
      <trkpt lat="47.593108" lon="7.884664">
        <ele>294.384509</ele>
        <time>2021-11-13T11:02:43.467Z</time>
      </trkpt>
      <trkpt lat="47.593166" lon="7.884637">
        <ele>294.336067</ele>
        <time>2021-11-13T11:02:44.702Z</time>
      </trkpt>
      <trkpt lat="47.593037" lon="7.884537">
        <ele>294.220072</ele>
        <time>2021-11-13T11:02:46.417Z</time>
      </trkpt>
      <trkpt lat="47.592977" lon="7.884463">
        <ele>294.157884</ele>
        <time>2021-11-13T11:02:47.259Z</time>
      </trkpt>
      <trkpt lat="47.592959" lon="7.884237">
        <ele>294.035588</ele>
        <time>2021-11-13T11:02:49.355Z</time>
      </trkpt>
      <trkpt lat="47.592917" lon="7.883969">
        <ele>293.887727</ele>
        <time>2021-11-13T11:02:51.515Z</time>
      </trkpt>
      <trkpt lat="47.592842" lon="7.883686">
        <ele>293.724322</ele>
        <time>2021-11-13T11:02:54.179Z</time>
      </trkpt>
      <trkpt lat="47.592487" lon="7.882778">
        <ele>293.066953</ele>
        <time>2021-11-13T11:03:02.946Z</time>
      </trkpt>
      <trkpt lat="47.592493" lon="7.882622">
        <ele>292.960617</ele>
        <time>2021-11-13T11:03:04.225Z</time>
      </trkpt>
      <trkpt lat="47.592531" lon="7.882114">
        <ele>292.612787</ele>
        <time>2021-11-13T11:03:08.279Z</time>
      </trkpt>
      <trkpt lat="47.592592" lon="7.881680">
        <ele>292.311090</ele>
        <time>2021-11-13T11:03:12.002Z</time>
      </trkpt>
      <trkpt lat="47.592680" lon="7.881162">
        <ele>291.947562</ele>
        <time>2021-11-13T11:03:16.564Z</time>
      </trkpt>
      <trkpt lat="47.592804" lon="7.880549">
        <ele>291.368823</ele>
        <time>2021-11-13T11:03:21.861Z</time>
      </trkpt>
      <trkpt lat="47.592855" lon="7.880299">
        <ele>291.052514</ele>
        <time>2021-11-13T11:03:23.946Z</time>
      </trkpt>
      <trkpt lat="47.592558" lon="7.880084">
        <ele>290.459013</ele>
        <time>2021-11-13T11:03:27.699Z</time>
      </trkpt>
      <trkpt lat="47.592176" lon="7.879859">
        <ele>289.720899</ele>
        <time>2021-11-13T11:03:32.252Z</time>
      </trkpt>
      <trkpt lat="47.591747" lon="7.879696">
        <ele>288.925633</ele>
        <time>2021-11-13T11:03:37.018Z</time>
      </trkpt>
      <trkpt lat="47.591433" lon="7.879589">
        <ele>288.334470</ele>
        <time>2021-11-13T11:03:40.446Z</time>
      </trkpt>
      <trkpt lat="47.591348" lon="7.879568">
        <ele>288.163311</ele>
        <time>2021-11-13T11:03:41.359Z</time>
      </trkpt>
      <trkpt lat="47.591318" lon="7.879563">
        <ele>288.103349</ele>
        <time>2021-11-13T11:03:41.686Z</time>
      </trkpt>
      <trkpt lat="47.591234" lon="7.879550">
        <ele>287.935597</ele>
        <time>2021-11-13T11:03:42.571Z</time>
      </trkpt>
      <trkpt lat="47.591221" lon="7.879083">
        <ele>287.309490</ele>
        <time>2021-11-13T11:03:45.965Z</time>
      </trkpt>
      <trkpt lat="47.591201" lon="7.878391">
        <ele>286.381663</ele>
        <time>2021-11-13T11:03:51.008Z</time>
      </trkpt>
      <trkpt lat="47.591165" lon="7.877839">
        <ele>285.638776</ele>
        <time>2021-11-13T11:03:55.110Z</time>
      </trkpt>
      <trkpt lat="47.591021" lon="7.877714">
        <ele>285.307346</ele>
        <time>2021-11-13T11:03:57.026Z</time>
      </trkpt>
      <trkpt lat="47.590631" lon="7.877615">
        <ele>284.712272</ele>
        <time>2021-11-13T11:04:01.720Z</time>
      </trkpt>
      <trkpt lat="47.590500" lon="7.877526">
        <ele>284.572950</ele>
        <time>2021-11-13T11:04:03.405Z</time>
      </trkpt>
      <trkpt lat="47.590479" lon="7.877434">
        <ele>284.509617</ele>
        <time>2021-11-13T11:04:04.181Z</time>
      </trkpt>
      <trkpt lat="47.590532" lon="7.877177">
        <ele>284.334374</ele>
        <time>2021-11-13T11:04:06.498Z</time>
      </trkpt>
      <trkpt lat="47.590592" lon="7.876946">
        <ele>284.172959</ele>
        <time>2021-11-13T11:04:08.458Z</time>
      </trkpt>
      <trkpt lat="47.590643" lon="7.876593">
        <ele>283.937555</ele>
        <time>2021-11-13T11:04:11.527Z</time>
      </trkpt>
      <trkpt lat="47.590771" lon="7.875667">
        <ele>283.321183</ele>
        <time>2021-11-13T11:04:19.557Z</time>
      </trkpt>
      <trkpt lat="47.590851" lon="7.875195">
        <ele>283.069120</ele>
        <time>2021-11-13T11:04:23.724Z</time>
      </trkpt>
      <trkpt lat="47.591067" lon="7.874101">
        <ele>282.648471</ele>
        <time>2021-11-13T11:04:34.054Z</time>
      </trkpt>
      <trkpt lat="47.591105" lon="7.873760">
        <ele>282.520930</ele>
        <time>2021-11-13T11:04:37.242Z</time>
      </trkpt>
      <trkpt lat="47.591074" lon="7.872343">
        <ele>281.942006</ele>
        <time>2021-11-13T11:04:49.732Z</time>
      </trkpt>
      <trkpt lat="47.590993" lon="7.871168">
        <ele>281.365138</ele>
        <time>2021-11-13T11:04:59.669Z</time>
      </trkpt>
      <trkpt lat="47.590885" lon="7.870375">
        <ele>280.970013</ele>
        <time>2021-11-13T11:05:06.488Z</time>
      </trkpt>
      <trkpt lat="47.590882" lon="7.870356">
        <ele>280.960482</ele>
        <time>2021-11-13T11:05:06.670Z</time>
      </trkpt>
      <trkpt lat="47.590872" lon="7.870300">
        <ele>280.932189</ele>
        <time>2021-11-13T11:05:07.254Z</time>
      </trkpt>
      <trkpt lat="47.590870" lon="7.870288">
        <ele>280.926151</ele>
        <time>2021-11-13T11:05:07.401Z</time>
      </trkpt>
      <trkpt lat="47.590773" lon="7.869984">
        <ele>280.843666</ele>
        <time>2021-11-13T11:05:10.300Z</time>
      </trkpt>
      <trkpt lat="47.590705" lon="7.869768">
        <ele>280.817370</ele>
        <time>2021-11-13T11:05:12.520Z</time>
      </trkpt>
      <trkpt lat="47.590470" lon="7.869069">
        <ele>280.731213</ele>
        <time>2021-11-13T11:05:19.551Z</time>
      </trkpt>
      <trkpt lat="47.590421" lon="7.868927">
        <ele>280.713618</ele>
        <time>2021-11-13T11:05:21.018Z</time>
      </trkpt>
      <trkpt lat="47.590348" lon="7.868680">
        <ele>280.683869</ele>
        <time>2021-11-13T11:05:23.892Z</time>
      </trkpt>
      <trkpt lat="47.590292" lon="7.868520">
        <ele>280.663984</ele>
        <time>2021-11-13T11:05:25.520Z</time>
      </trkpt>
      <trkpt lat="47.590365" lon="7.868441">
        <ele>280.649202</ele>
        <time>2021-11-13T11:05:26.910Z</time>
      </trkpt>
      <trkpt lat="47.590348" lon="7.868400">
        <ele>280.643893</ele>
        <time>2021-11-13T11:05:27.575Z</time>
      </trkpt>
      <trkpt lat="47.590333" lon="7.867008">
        <ele>280.733948</ele>
        <time>2021-11-13T11:05:42.568Z</time>
      </trkpt>
      <trkpt lat="47.590274" lon="7.866644">
        <ele>280.813856</ele>
        <time>2021-11-13T11:05:47.067Z</time>
      </trkpt>
      <trkpt lat="47.590266" lon="7.866595">
        <ele>280.824617</ele>
        <time>2021-11-13T11:05:47.604Z</time>
      </trkpt>
      <trkpt lat="47.590251" lon="7.866509">
        <ele>280.843577</ele>
        <time>2021-11-13T11:05:48.482Z</time>
      </trkpt>
      <trkpt lat="47.589823" lon="7.864422">
        <ele>281.154532</ele>
        <time>2021-11-13T11:06:11.753Z</time>
      </trkpt>
      <trkpt lat="47.589471" lon="7.862994">
        <ele>281.177818</ele>
        <time>2021-11-13T11:06:26.498Z</time>
      </trkpt>
      <trkpt lat="47.587447" lon="7.853842">
        <ele>280.837726</ele>
        <time>2021-11-13T11:08:01.147Z</time>
      </trkpt>
      <trkpt lat="47.587300" lon="7.853345">
        <ele>280.868554</ele>
        <time>2021-11-13T11:08:06.717Z</time>
      </trkpt>
      <trkpt lat="47.586757" lon="7.850579">
        <ele>281.288397</ele>
        <time>2021-11-13T11:08:37.473Z</time>
      </trkpt>
      <trkpt lat="47.586522" lon="7.848600">
        <ele>281.698049</ele>
        <time>2021-11-13T11:08:59.623Z</time>
      </trkpt>
      <trkpt lat="47.586484" lon="7.848370">
        <ele>281.748600</ele>
        <time>2021-11-13T11:09:02.274Z</time>
      </trkpt>
      <trkpt lat="47.586486" lon="7.847936">
        <ele>281.841252</ele>
        <time>2021-11-13T11:09:06.984Z</time>
      </trkpt>
      <trkpt lat="47.586452" lon="7.845634">
        <ele>282.051713</ele>
        <time>2021-11-13T11:09:31.241Z</time>
      </trkpt>
      <trkpt lat="47.586790" lon="7.842637">
        <ele>281.856570</ele>
        <time>2021-11-13T11:10:00.534Z</time>
      </trkpt>
      <trkpt lat="47.586802" lon="7.842180">
        <ele>281.802793</ele>
        <time>2021-11-13T11:10:04.811Z</time>
      </trkpt>
      <trkpt lat="47.586809" lon="7.842018">
        <ele>281.783705</ele>
        <time>2021-11-13T11:10:06.314Z</time>
      </trkpt>
      <trkpt lat="47.586920" lon="7.841604">
        <ele>281.692689</ele>
        <time>2021-11-13T11:10:10.486Z</time>
      </trkpt>
      <trkpt lat="47.587628" lon="7.835942">
        <ele>280.470606</ele>
        <time>2021-11-13T11:11:03.794Z</time>
      </trkpt>
      <trkpt lat="47.587700" lon="7.835383">
        <ele>280.336556</ele>
        <time>2021-11-13T11:11:08.949Z</time>
      </trkpt>
      <trkpt lat="47.587848" lon="7.834235">
        <ele>280.061251</ele>
        <time>2021-11-13T11:11:19.654Z</time>
      </trkpt>
      <trkpt lat="47.586496" lon="7.833050">
        <ele>280.457884</ele>
        <time>2021-11-13T11:11:42.139Z</time>
      </trkpt>
      <trkpt lat="47.586276" lon="7.833601">
        <ele>280.988790</ele>
        <time>2021-11-13T11:11:50.392Z</time>
      </trkpt>
      <trkpt lat="47.585278" lon="7.832688">
        <ele>284.313468</ele>
        <time>2021-11-13T11:12:21.865Z</time>
      </trkpt>
      <trkpt lat="47.585247" lon="7.832651">
        <ele>284.426296</ele>
        <time>2021-11-13T11:12:23.184Z</time>
      </trkpt>
      <trkpt lat="47.585195" lon="7.832588">
        <ele>284.616682</ele>
        <time>2021-11-13T11:12:25.411Z</time>
      </trkpt>
      <trkpt lat="47.585027" lon="7.832425">
        <ele>285.185898</ele>
        <time>2021-11-13T11:12:30.750Z</time>
      </trkpt>
      <trkpt lat="47.584717" lon="7.832264">
        <ele>286.362556</ele>
        <time>2021-11-13T11:12:40.415Z</time>
      </trkpt>
      <trkpt lat="47.584367" lon="7.832247">
        <ele>287.855447</ele>
        <time>2021-11-13T11:12:51.516Z</time>
      </trkpt>
      <trkpt lat="47.584156" lon="7.832334">
        <ele>288.789105</ele>
        <time>2021-11-13T11:12:59.301Z</time>
      </trkpt>
      <trkpt lat="47.584029" lon="7.832543">
        <ele>289.597999</ele>
        <time>2021-11-13T11:13:05.958Z</time>
      </trkpt>
      <trkpt lat="47.583849" lon="7.832883">
        <ele>290.840854</ele>
        <time>2021-11-13T11:13:16.477Z</time>
      </trkpt>
      <trkpt lat="47.583849" lon="7.832883">
        <ele>290.840854</ele>
        <time>2021-11-13T11:13:16.479Z</time>
      </trkpt>
      <trkpt lat="47.583696" lon="7.833171">
        <ele>291.895024</ele>
        <time>2021-11-13T11:13:25.267Z</time>
      </trkpt>
      <trkpt lat="47.583523" lon="7.833509">
        <ele>293.115098</ele>
        <time>2021-11-13T11:13:33.693Z</time>
      </trkpt>
      <trkpt lat="47.583401" lon="7.833658">
        <ele>293.560921</ele>
        <time>2021-11-13T11:13:37.638Z</time>
      </trkpt>
      <trkpt lat="47.583327" lon="7.833750">
        <ele>293.781512</ele>
        <time>2021-11-13T11:13:40.644Z</time>
      </trkpt>
      <trkpt lat="47.583163" lon="7.833942">
        <ele>294.258823</ele>
        <time>2021-11-13T11:13:46.232Z</time>
      </trkpt>
      <trkpt lat="47.582828" lon="7.834117">
        <ele>295.070116</ele>
        <time>2021-11-13T11:13:54.677Z</time>
      </trkpt>
      <trkpt lat="47.580816" lon="7.834599">
        <ele>298.358826</ele>
        <time>2021-11-13T11:14:38.463Z</time>
      </trkpt>
      <trkpt lat="47.580667" lon="7.834627">
        <ele>298.499754</ele>
        <time>2021-11-13T11:14:40.845Z</time>
      </trkpt>
      <trkpt lat="47.579073" lon="7.834987">
        <ele>298.478110</ele>
        <time>2021-11-13T11:15:04.806Z</time>
      </trkpt>
      <trkpt lat="47.576219" lon="7.835650">
        <ele>295.371770</ele>
        <time>2021-11-13T11:15:38.466Z</time>
      </trkpt>
      <trkpt lat="47.575959" lon="7.835718">
        <ele>295.219022</ele>
        <time>2021-11-13T11:15:41.621Z</time>
      </trkpt>
      <trkpt lat="47.575033" lon="7.835907">
        <ele>294.678222</ele>
        <time>2021-11-13T11:15:54.075Z</time>
      </trkpt>
      <trkpt lat="47.574568" lon="7.836025">
        <ele>294.540302</ele>
        <time>2021-11-13T11:16:01.061Z</time>
      </trkpt>
      <trkpt lat="47.574158" lon="7.836106">
        <ele>294.692156</ele>
        <time>2021-11-13T11:16:07.734Z</time>
      </trkpt>
      <trkpt lat="47.573815" lon="7.836215">
        <ele>294.820943</ele>
        <time>2021-11-13T11:16:15.413Z</time>
      </trkpt>
      <trkpt lat="47.573348" lon="7.836386">
        <ele>294.997547</ele>
        <time>2021-11-13T11:16:26.265Z</time>
      </trkpt>
      <trkpt lat="47.572760" lon="7.836606">
        <ele>295.270543</ele>
        <time>2021-11-13T11:16:39.876Z</time>
      </trkpt>
      <trkpt lat="47.572296" lon="7.836777">
        <ele>295.568885</ele>
        <time>2021-11-13T11:16:50.302Z</time>
      </trkpt>
      <trkpt lat="47.572139" lon="7.836834">
        <ele>295.669747</ele>
        <time>2021-11-13T11:16:53.788Z</time>
      </trkpt>
      <trkpt lat="47.571871" lon="7.836932">
        <ele>295.841988</ele>
        <time>2021-11-13T11:16:59.825Z</time>
      </trkpt>
      <trkpt lat="47.571771" lon="7.836971">
        <ele>295.906510</ele>
        <time>2021-11-13T11:17:02.061Z</time>
      </trkpt>
      <trkpt lat="47.571254" lon="7.837161">
        <ele>296.238877</ele>
        <time>2021-11-13T11:17:14.512Z</time>
      </trkpt>
      <trkpt lat="47.570985" lon="7.837265">
        <ele>296.574847</ele>
        <time>2021-11-13T11:17:21.465Z</time>
      </trkpt>
      <trkpt lat="47.570872" lon="7.837307">
        <ele>296.730846</ele>
        <time>2021-11-13T11:17:24.482Z</time>
      </trkpt>
      <trkpt lat="47.570298" lon="7.837528">
        <ele>297.524974</ele>
        <time>2021-11-13T11:17:39.803Z</time>
      </trkpt>
      <trkpt lat="47.570038" lon="7.837643">
        <ele>297.888300</ele>
        <time>2021-11-13T11:17:46.927Z</time>
      </trkpt>
      <trkpt lat="47.569907" lon="7.837696">
        <ele>298.070135</ele>
        <time>2021-11-13T11:17:50.448Z</time>
      </trkpt>
      <trkpt lat="47.569814" lon="7.837733">
        <ele>298.199075</ele>
        <time>2021-11-13T11:17:53.010Z</time>
      </trkpt>
      <trkpt lat="47.569665" lon="7.837789">
        <ele>298.404910</ele>
        <time>2021-11-13T11:17:56.973Z</time>
      </trkpt>
      <trkpt lat="47.569522" lon="7.837844">
        <ele>298.602737</ele>
        <time>2021-11-13T11:18:00.828Z</time>
      </trkpt>
      <trkpt lat="47.569310" lon="7.837922">
        <ele>298.863550</ele>
        <time>2021-11-13T11:18:06.575Z</time>
      </trkpt>
      <trkpt lat="47.568988" lon="7.838054">
        <ele>299.245359</ele>
        <time>2021-11-13T11:18:15.352Z</time>
      </trkpt>
      <trkpt lat="47.568420" lon="7.838300">
        <ele>299.921634</ele>
        <time>2021-11-13T11:18:30.610Z</time>
      </trkpt>
      <trkpt lat="47.568160" lon="7.838415">
        <ele>300.231720</ele>
        <time>2021-11-13T11:18:37.023Z</time>
      </trkpt>
      <trkpt lat="47.568042" lon="7.838436">
        <ele>300.367543</ele>
        <time>2021-11-13T11:18:39.758Z</time>
      </trkpt>
      <trkpt lat="47.567936" lon="7.838380">
        <ele>300.496149</ele>
        <time>2021-11-13T11:18:42.291Z</time>
      </trkpt>
      <trkpt lat="47.567846" lon="7.838609">
        <ele>300.700500</ele>
        <time>2021-11-13T11:18:45.319Z</time>
      </trkpt>
      <trkpt lat="47.567823" lon="7.838648">
        <ele>300.738477</ele>
        <time>2021-11-13T11:18:45.975Z</time>
      </trkpt>
      <trkpt lat="47.567634" lon="7.839037">
        <ele>300.984353</ele>
        <time>2021-11-13T11:18:51.390Z</time>
      </trkpt>
      <trkpt lat="47.567626" lon="7.839064">
        <ele>300.999479</ele>
        <time>2021-11-13T11:18:51.804Z</time>
      </trkpt>
      <trkpt lat="47.567564" lon="7.839283">
        <ele>301.121297</ele>
        <time>2021-11-13T11:18:54.521Z</time>
      </trkpt>
      <trkpt lat="47.567530" lon="7.839459">
        <ele>301.215200</ele>
        <time>2021-11-13T11:18:56.711Z</time>
      </trkpt>
      <trkpt lat="47.567510" lon="7.839548">
        <ele>301.263316</ele>
        <time>2021-11-13T11:18:57.833Z</time>
      </trkpt>
      <trkpt lat="47.567481" lon="7.839664">
        <ele>301.326768</ele>
        <time>2021-11-13T11:18:59.174Z</time>
      </trkpt>
      <trkpt lat="47.567406" lon="7.839778">
        <ele>301.408438</ele>
        <time>2021-11-13T11:19:01.224Z</time>
      </trkpt>
      <trkpt lat="47.567271" lon="7.839879">
        <ele>301.523400</ele>
        <time>2021-11-13T11:19:03.989Z</time>
      </trkpt>
      <trkpt lat="47.567111" lon="7.839998">
        <ele>301.659490</ele>
        <time>2021-11-13T11:19:07.205Z</time>
      </trkpt>
      <trkpt lat="47.566826" lon="7.840179">
        <ele>301.895203</ele>
        <time>2021-11-13T11:19:12.726Z</time>
      </trkpt>
      <trkpt lat="47.566592" lon="7.840279">
        <ele>302.080339</ele>
        <time>2021-11-13T11:19:17.355Z</time>
      </trkpt>
      <trkpt lat="47.566515" lon="7.840312">
        <ele>302.161578</ele>
        <time>2021-11-13T11:19:18.645Z</time>
      </trkpt>
      <trkpt lat="47.566450" lon="7.840326">
        <ele>302.237272</ele>
        <time>2021-11-13T11:19:19.883Z</time>
      </trkpt>
      <trkpt lat="47.566350" lon="7.840350">
        <ele>302.354016</ele>
        <time>2021-11-13T11:19:21.791Z</time>
      </trkpt>
      <trkpt lat="47.566221" lon="7.840340">
        <ele>302.502881</ele>
        <time>2021-11-13T11:19:24.124Z</time>
      </trkpt>
      <trkpt lat="47.566142" lon="7.840322">
        <ele>302.594992</ele>
        <time>2021-11-13T11:19:25.357Z</time>
      </trkpt>
      <trkpt lat="47.566081" lon="7.840309">
        <ele>302.666013</ele>
        <time>2021-11-13T11:19:26.570Z</time>
      </trkpt>
      <trkpt lat="47.565906" lon="7.840272">
        <ele>302.869729</ele>
        <time>2021-11-13T11:19:30.020Z</time>
      </trkpt>
      <trkpt lat="47.565343" lon="7.840185">
        <ele>303.522059</ele>
        <time>2021-11-13T11:19:41.341Z</time>
      </trkpt>
      <trkpt lat="47.565233" lon="7.840176">
        <ele>303.649019</ele>
        <time>2021-11-13T11:19:43.679Z</time>
      </trkpt>
      <trkpt lat="47.565168" lon="7.840179">
        <ele>303.723962</ele>
        <time>2021-11-13T11:19:45.055Z</time>
      </trkpt>
      <trkpt lat="47.565057" lon="7.840213">
        <ele>303.854585</ele>
        <time>2021-11-13T11:19:47.297Z</time>
      </trkpt>
      <trkpt lat="47.564936" lon="7.840261">
        <ele>303.998937</ele>
        <time>2021-11-13T11:19:50.014Z</time>
      </trkpt>
      <trkpt lat="47.564558" lon="7.840516">
        <ele>304.451132</ele>
        <time>2021-11-13T11:19:58.296Z</time>
      </trkpt>
      <trkpt lat="47.564534" lon="7.840532">
        <ele>304.478813</ele>
        <time>2021-11-13T11:19:58.793Z</time>
      </trkpt>
      <trkpt lat="47.564463" lon="7.840580">
        <ele>304.560898</ele>
        <time>2021-11-13T11:20:00.407Z</time>
      </trkpt>
      <trkpt lat="47.564094" lon="7.840838">
        <ele>304.990062</ele>
        <time>2021-11-13T11:20:08.068Z</time>
      </trkpt>
      <trkpt lat="47.563986" lon="7.840916">
        <ele>305.116434</ele>
        <time>2021-11-13T11:20:10.355Z</time>
      </trkpt>
      <trkpt lat="47.563941" lon="7.840948">
        <ele>305.168935</ele>
        <time>2021-11-13T11:20:11.281Z</time>
      </trkpt>
      <trkpt lat="47.563805" lon="7.841046">
        <ele>305.328001</ele>
        <time>2021-11-13T11:20:14.087Z</time>
      </trkpt>
      <trkpt lat="47.563659" lon="7.841150">
        <ele>305.498391</ele>
        <time>2021-11-13T11:20:16.979Z</time>
      </trkpt>
      <trkpt lat="47.563483" lon="7.841269">
        <ele>305.701876</ele>
        <time>2021-11-13T11:20:20.708Z</time>
      </trkpt>
      <trkpt lat="47.563300" lon="7.841391">
        <ele>305.912946</ele>
        <time>2021-11-13T11:20:24.268Z</time>
      </trkpt>
      <trkpt lat="47.563016" lon="7.841568">
        <ele>306.268414</ele>
        <time>2021-11-13T11:20:30.124Z</time>
      </trkpt>
      <trkpt lat="47.562965" lon="7.841597">
        <ele>306.336461</ele>
        <time>2021-11-13T11:20:31.103Z</time>
      </trkpt>
      <trkpt lat="47.562904" lon="7.841632">
        <ele>306.417945</ele>
        <time>2021-11-13T11:20:32.332Z</time>
      </trkpt>
      <trkpt lat="47.562574" lon="7.841873">
        <ele>306.876229</ele>
        <time>2021-11-13T11:20:39.298Z</time>
      </trkpt>
      <trkpt lat="47.562440" lon="7.842083">
        <ele>307.119176</ele>
        <time>2021-11-13T11:20:42.917Z</time>
      </trkpt>
      <trkpt lat="47.562385" lon="7.842183">
        <ele>307.227618</ele>
        <time>2021-11-13T11:20:44.484Z</time>
      </trkpt>
      <trkpt lat="47.562300" lon="7.842326">
        <ele>307.387806</ele>
        <time>2021-11-13T11:20:47.384Z</time>
      </trkpt>
      <trkpt lat="47.562179" lon="7.842500">
        <ele>307.597834</ele>
        <time>2021-11-13T11:20:50.862Z</time>
      </trkpt>
      <trkpt lat="47.561498" lon="7.843130">
        <ele>308.528100</ele>
        <time>2021-11-13T11:21:07.574Z</time>
      </trkpt>
      <trkpt lat="47.561434" lon="7.843181">
        <ele>308.596890</ele>
        <time>2021-11-13T11:21:09.378Z</time>
      </trkpt>
      <trkpt lat="47.561038" lon="7.843502">
        <ele>309.024188</ele>
        <time>2021-11-13T11:21:18.079Z</time>
      </trkpt>
      <trkpt lat="47.560934" lon="7.843550">
        <ele>309.127306</ele>
        <time>2021-11-13T11:21:20.234Z</time>
      </trkpt>
      <trkpt lat="47.560812" lon="7.843560">
        <ele>309.242976</ele>
        <time>2021-11-13T11:21:22.478Z</time>
      </trkpt>
      <trkpt lat="47.560515" lon="7.843379">
        <ele>309.546982</ele>
        <time>2021-11-13T11:21:28.214Z</time>
      </trkpt>
      <trkpt lat="47.560430" lon="7.843341">
        <ele>309.631031</ele>
        <time>2021-11-13T11:21:30.016Z</time>
      </trkpt>
      <trkpt lat="47.560338" lon="7.843341">
        <ele>309.718124</ele>
        <time>2021-11-13T11:21:31.239Z</time>
      </trkpt>
      <trkpt lat="47.560209" lon="7.843393">
        <ele>309.844681</ele>
        <time>2021-11-13T11:21:33.715Z</time>
      </trkpt>
      <trkpt lat="47.560139" lon="7.843433">
        <ele>309.915704</ele>
        <time>2021-11-13T11:21:35.034Z</time>
      </trkpt>
      <trkpt lat="47.559847" lon="7.843604">
        <ele>309.988079</ele>
        <time>2021-11-13T11:21:40.202Z</time>
      </trkpt>
      <trkpt lat="47.559583" lon="7.843813">
        <ele>309.957617</ele>
        <time>2021-11-13T11:21:44.693Z</time>
      </trkpt>
      <trkpt lat="47.559158" lon="7.844233">
        <ele>309.905627</ele>
        <time>2021-11-13T11:21:51.902Z</time>
      </trkpt>
      <trkpt lat="47.559109" lon="7.844229">
        <ele>309.900633</ele>
        <time>2021-11-13T11:21:52.492Z</time>
      </trkpt>
      <trkpt lat="47.559060" lon="7.844197">
        <ele>309.895183</ele>
        <time>2021-11-13T11:21:53.124Z</time>
      </trkpt>
      <trkpt lat="47.558884" lon="7.843836">
        <ele>309.864596</ele>
        <time>2021-11-13T11:21:57.276Z</time>
      </trkpt>
      <trkpt lat="47.558555" lon="7.843392">
        <ele>309.836387</ele>
        <time>2021-11-13T11:22:03.312Z</time>
      </trkpt>
      <trkpt lat="47.558471" lon="7.843365">
        <ele>309.847444</ele>
        <time>2021-11-13T11:22:04.569Z</time>
      </trkpt>
      <trkpt lat="47.558405" lon="7.843371">
        <ele>309.855950</ele>
        <time>2021-11-13T11:22:05.738Z</time>
      </trkpt>
      <trkpt lat="47.558136" lon="7.843582">
        <ele>309.895104</ele>
        <time>2021-11-13T11:22:09.945Z</time>
      </trkpt>
      <trkpt lat="47.557967" lon="7.843683">
        <ele>309.918545</ele>
        <time>2021-11-13T11:22:12.663Z</time>
      </trkpt>
      <trkpt lat="47.557846" lon="7.843756">
        <ele>309.935351</ele>
        <time>2021-11-13T11:22:14.507Z</time>
      </trkpt>
      <trkpt lat="47.557759" lon="7.843839">
        <ele>309.948662</ele>
        <time>2021-11-13T11:22:16.284Z</time>
      </trkpt>
      <trkpt lat="47.557715" lon="7.843940">
        <ele>309.959098</ele>
        <time>2021-11-13T11:22:17.512Z</time>
      </trkpt>
      <trkpt lat="47.557560" lon="7.844433">
        <ele>310.006313</ele>
        <time>2021-11-13T11:22:23.472Z</time>
      </trkpt>
      <trkpt lat="47.557282" lon="7.844832">
        <ele>310.056100</ele>
        <time>2021-11-13T11:22:29.904Z</time>
      </trkpt>
      <trkpt lat="47.557134" lon="7.845095">
        <ele>310.221234</ele>
        <time>2021-11-13T11:22:33.679Z</time>
      </trkpt>
      <trkpt lat="47.556636" lon="7.845928">
        <ele>310.791833</ele>
        <time>2021-11-13T11:22:46.530Z</time>
      </trkpt>
      <trkpt lat="47.556060" lon="7.846859">
        <ele>311.449508</ele>
        <time>2021-11-13T11:23:02.657Z</time>
      </trkpt>
      <trkpt lat="47.555990" lon="7.846965">
        <ele>311.577804</ele>
        <time>2021-11-13T11:23:04.652Z</time>
      </trkpt>
      <trkpt lat="47.555966" lon="7.846932">
        <ele>311.619774</ele>
        <time>2021-11-13T11:23:05.236Z</time>
      </trkpt>
      <trkpt lat="47.555892" lon="7.846856">
        <ele>311.735187</ele>
        <time>2021-11-13T11:23:06.784Z</time>
      </trkpt>
      <trkpt lat="47.555855" lon="7.846815">
        <ele>311.794411</ele>
        <time>2021-11-13T11:23:07.694Z</time>
      </trkpt>
      <trkpt lat="47.555727" lon="7.846715">
        <ele>311.979896</ele>
        <time>2021-11-13T11:23:10.713Z</time>
      </trkpt>
      <trkpt lat="47.555199" lon="7.846687">
        <ele>312.657144</ele>
        <time>2021-11-13T11:23:20.664Z</time>
      </trkpt>
      <trkpt lat="47.555068" lon="7.846672">
        <ele>312.825566</ele>
        <time>2021-11-13T11:23:23.527Z</time>
      </trkpt>
      <trkpt lat="47.554995" lon="7.846915">
        <ele>313.055670</ele>
        <time>2021-11-13T11:23:27.254Z</time>
      </trkpt>
      <trkpt lat="47.554892" lon="7.847148">
        <ele>313.296629</ele>
        <time>2021-11-13T11:23:31.221Z</time>
      </trkpt>
      <trkpt lat="47.554878" lon="7.847174">
        <ele>313.325404</ele>
        <time>2021-11-13T11:23:31.736Z</time>
      </trkpt>
      <trkpt lat="47.554759" lon="7.847388">
        <ele>313.565283</ele>
        <time>2021-11-13T11:23:35.541Z</time>
      </trkpt>
      <trkpt lat="47.554618" lon="7.847626">
        <ele>313.851419</ele>
        <time>2021-11-13T11:23:40.115Z</time>
      </trkpt>
      <trkpt lat="47.554465" lon="7.847858">
        <ele>314.163391</ele>
        <time>2021-11-13T11:23:44.736Z</time>
      </trkpt>
      <trkpt lat="47.554351" lon="7.848049">
        <ele>314.408621</ele>
        <time>2021-11-13T11:23:48.207Z</time>
      </trkpt>
      <trkpt lat="47.554269" lon="7.848188">
        <ele>314.586181</ele>
        <time>2021-11-13T11:23:50.728Z</time>
      </trkpt>
      <trkpt lat="47.554209" lon="7.848300">
        <ele>314.723710</ele>
        <time>2021-11-13T11:23:52.810Z</time>
      </trkpt>
      <trkpt lat="47.554055" lon="7.848586">
        <ele>315.075599</ele>
        <time>2021-11-13T11:23:57.678Z</time>
      </trkpt>
      <trkpt lat="47.553725" lon="7.849291">
        <ele>315.900775</ele>
        <time>2021-11-13T11:24:09.045Z</time>
      </trkpt>
      <trkpt lat="47.553605" lon="7.849629">
        <ele>316.268094</ele>
        <time>2021-11-13T11:24:14.500Z</time>
      </trkpt>
      <trkpt lat="47.553537" lon="7.849904">
        <ele>316.674798</ele>
        <time>2021-11-13T11:24:18.690Z</time>
      </trkpt>
      <trkpt lat="47.553380" lon="7.850453">
        <ele>317.528096</ele>
        <time>2021-11-13T11:24:27.542Z</time>
      </trkpt>
      <trkpt lat="47.553344" lon="7.850525">
        <ele>317.656332</ele>
        <time>2021-11-13T11:24:28.809Z</time>
      </trkpt>
      <trkpt lat="47.553283" lon="7.850634">
        <ele>317.858975</ele>
        <time>2021-11-13T11:24:30.862Z</time>
      </trkpt>
      <trkpt lat="47.552876" lon="7.851300">
        <ele>319.144767</ele>
        <time>2021-11-13T11:24:44.695Z</time>
      </trkpt>
      <trkpt lat="47.552678" lon="7.851709">
        <ele>319.865104</ele>
        <time>2021-11-13T11:24:53.377Z</time>
      </trkpt>
      <trkpt lat="47.552449" lon="7.852231">
        <ele>321.102956</ele>
        <time>2021-11-13T11:25:04.676Z</time>
      </trkpt>
      <trkpt lat="47.552272" lon="7.852167">
        <ele>321.695903</ele>
        <time>2021-11-13T11:25:10.077Z</time>
      </trkpt>
      <trkpt lat="47.552097" lon="7.852063">
        <ele>322.309541</ele>
        <time>2021-11-13T11:25:15.324Z</time>
      </trkpt>
      <trkpt lat="47.552042" lon="7.852007">
        <ele>322.526727</ele>
        <time>2021-11-13T11:25:17.724Z</time>
      </trkpt>
      <trkpt lat="47.551925" lon="7.851845">
        <ele>323.047887</ele>
        <time>2021-11-13T11:25:21.989Z</time>
      </trkpt>
      <trkpt lat="47.551830" lon="7.851603">
        <ele>323.662820</ele>
        <time>2021-11-13T11:25:27.811Z</time>
      </trkpt>
      <trkpt lat="47.551660" lon="7.851725">
        <ele>324.277562</ele>
        <time>2021-11-13T11:25:33.045Z</time>
      </trkpt>
      <trkpt lat="47.551516" lon="7.851950">
        <ele>324.958650</ele>
        <time>2021-11-13T11:25:39.603Z</time>
      </trkpt>
      <trkpt lat="47.550221" lon="7.853833">
        <ele>329.662319</ele>
        <time>2021-11-13T11:26:26.895Z</time>
      </trkpt>
      <trkpt lat="47.549883" lon="7.854434">
        <ele>330.469216</ele>
        <time>2021-11-13T11:26:37.015Z</time>
      </trkpt>
      <trkpt lat="47.549566" lon="7.855225">
        <ele>330.703300</ele>
        <time>2021-11-13T11:26:50.874Z</time>
      </trkpt>
      <trkpt lat="47.549362" lon="7.855774">
        <ele>330.862770</ele>
        <time>2021-11-13T11:26:59.363Z</time>
      </trkpt>
      <trkpt lat="47.548887" lon="7.857308">
        <ele>331.183096</ele>
        <time>2021-11-13T11:27:21.471Z</time>
      </trkpt>
      <trkpt lat="47.548743" lon="7.857692">
        <ele>331.242700</ele>
        <time>2021-11-13T11:27:27.443Z</time>
      </trkpt>
      <trkpt lat="47.548701" lon="7.857893">
        <ele>331.271250</ele>
        <time>2021-11-13T11:27:30.414Z</time>
      </trkpt>
      <trkpt lat="47.548686" lon="7.857973">
        <ele>331.282515</ele>
        <time>2021-11-13T11:27:31.537Z</time>
      </trkpt>
      <trkpt lat="47.548611" lon="7.858381">
        <ele>331.339891</ele>
        <time>2021-11-13T11:27:37.751Z</time>
      </trkpt>
      <trkpt lat="47.548334" lon="7.859801">
        <ele>332.167160</ele>
        <time>2021-11-13T11:28:00.789Z</time>
      </trkpt>
      <trkpt lat="47.548049" lon="7.860929">
        <ele>333.180899</ele>
        <time>2021-11-13T11:28:21.807Z</time>
      </trkpt>
      <trkpt lat="47.547930" lon="7.861711">
        <ele>333.903367</ele>
        <time>2021-11-13T11:28:36.571Z</time>
      </trkpt>
      <trkpt lat="47.547568" lon="7.863151">
        <ele>335.517186</ele>
        <time>2021-11-13T11:29:05.699Z</time>
      </trkpt>
      <trkpt lat="47.547320" lon="7.863864">
        <ele>336.359582</ele>
        <time>2021-11-13T11:29:19.639Z</time>
      </trkpt>
      <trkpt lat="47.546974" lon="7.864423">
        <ele>336.389498</ele>
        <time>2021-11-13T11:29:30.462Z</time>
      </trkpt>
      <trkpt lat="47.546885" lon="7.864500">
        <ele>336.372883</ele>
        <time>2021-11-13T11:29:33.547Z</time>
      </trkpt>
      <trkpt lat="47.546894" lon="7.864837">
        <ele>336.336185</ele>
        <time>2021-11-13T11:29:37.431Z</time>
      </trkpt>
      <trkpt lat="47.546889" lon="7.865225">
        <ele>336.293958</ele>
        <time>2021-11-13T11:29:42.856Z</time>
      </trkpt>
      <trkpt lat="47.546819" lon="7.865489">
        <ele>336.263095</ele>
        <time>2021-11-13T11:29:46.800Z</time>
      </trkpt>
      <trkpt lat="47.546510" lon="7.865766">
        <ele>336.204873</ele>
        <time>2021-11-13T11:29:53.434Z</time>
      </trkpt>
      <trkpt lat="47.546327" lon="7.865959">
        <ele>336.161035</ele>
        <time>2021-11-13T11:29:56.949Z</time>
      </trkpt>
      <trkpt lat="47.546096" lon="7.866147">
        <ele>336.005128</ele>
        <time>2021-11-13T11:30:01.505Z</time>
      </trkpt>
      <trkpt lat="47.545240" lon="7.866887">
        <ele>335.418865</ele>
        <time>2021-11-13T11:30:18.179Z</time>
      </trkpt>
      <trkpt lat="47.545160" lon="7.866985">
        <ele>335.357459</ele>
        <time>2021-11-13T11:30:20.135Z</time>
      </trkpt>
      <trkpt lat="47.545003" lon="7.867278">
        <ele>335.208085</ele>
        <time>2021-11-13T11:30:25.803Z</time>
      </trkpt>
      <trkpt lat="47.544568" lon="7.867693">
        <ele>335.566180</ele>
        <time>2021-11-13T11:30:38.594Z</time>
      </trkpt>
      <trkpt lat="47.544469" lon="7.867776">
        <ele>335.716340</ele>
        <time>2021-11-13T11:30:41.456Z</time>
      </trkpt>
      <trkpt lat="47.544410" lon="7.867825">
        <ele>335.805626</ele>
        <time>2021-11-13T11:30:43.544Z</time>
      </trkpt>
      <trkpt lat="47.544246" lon="7.867967">
        <ele>336.056378</ele>
        <time>2021-11-13T11:30:48.228Z</time>
      </trkpt>
      <trkpt lat="47.544214" lon="7.867988">
        <ele>336.102578</ele>
        <time>2021-11-13T11:30:49.076Z</time>
      </trkpt>
      <trkpt lat="47.543801" lon="7.868269">
        <ele>336.702505</ele>
        <time>2021-11-13T11:31:00.679Z</time>
      </trkpt>
      <trkpt lat="47.543657" lon="7.868359">
        <ele>336.908816</ele>
        <time>2021-11-13T11:31:05.028Z</time>
      </trkpt>
      <trkpt lat="47.543201" lon="7.868657">
        <ele>337.481832</ele>
        <time>2021-11-13T11:31:15.229Z</time>
      </trkpt>
      <trkpt lat="47.543105" lon="7.868711">
        <ele>337.481832</ele>
        <time>2021-11-13T11:31:17.813Z</time>
      </trkpt>
      <trkpt lat="47.543049" lon="7.868759">
        <ele>337.481832</ele>
        <time>2021-11-13T11:31:19.190Z</time>
      </trkpt>
      <trkpt lat="47.542722" lon="7.869201">
        <ele>337.481832</ele>
        <time>2021-11-13T11:31:29.022Z</time>
      </trkpt>
      <trkpt lat="47.542696" lon="7.869257">
        <ele>337.481832</ele>
        <time>2021-11-13T11:31:29.852Z</time>
      </trkpt>
      <trkpt lat="47.542657" lon="7.869354">
        <ele>337.481832</ele>
        <time>2021-11-13T11:31:31.287Z</time>
      </trkpt>
      <trkpt lat="47.542372" lon="7.869746">
        <ele>337.481832</ele>
        <time>2021-11-13T11:31:38.494Z</time>
      </trkpt>
      <trkpt lat="47.542329" lon="7.869820">
        <ele>337.481832</ele>
        <time>2021-11-13T11:31:39.717Z</time>
      </trkpt>
      <trkpt lat="47.542348" lon="7.869983">
        <ele>337.481832</ele>
        <time>2021-11-13T11:31:41.277Z</time>
      </trkpt>
      <trkpt lat="47.542317" lon="7.870012">
        <ele>337.481832</ele>
        <time>2021-11-13T11:31:41.981Z</time>
      </trkpt>
      <trkpt lat="47.542181" lon="7.870131">
        <ele>337.481832</ele>
        <time>2021-11-13T11:31:44.601Z</time>
      </trkpt>
      <trkpt lat="47.542118" lon="7.870135">
        <ele>337.481832</ele>
        <time>2021-11-13T11:31:45.638Z</time>
      </trkpt>
      <trkpt lat="47.542014" lon="7.870126">
        <ele>337.481832</ele>
        <time>2021-11-13T11:31:47.010Z</time>
      </trkpt>
      <trkpt lat="47.541910" lon="7.870106">
        <ele>337.481832</ele>
        <time>2021-11-13T11:31:48.674Z</time>
      </trkpt>
      <trkpt lat="47.541606" lon="7.870424">
        <ele>337.481832</ele>
        <time>2021-11-13T11:31:54.047Z</time>
      </trkpt>
      <trkpt lat="47.541521" lon="7.870517">
        <ele>337.481832</ele>
        <time>2021-11-13T11:31:55.548Z</time>
      </trkpt>
      <trkpt lat="47.541550" lon="7.870601">
        <ele>337.481832</ele>
        <time>2021-11-13T11:31:56.417Z</time>
      </trkpt>
      <trkpt lat="47.541576" lon="7.870664">
        <ele>337.481832</ele>
        <time>2021-11-13T11:31:57.089Z</time>
      </trkpt>
      <trkpt lat="47.541410" lon="7.870791">
        <ele>337.481832</ele>
        <time>2021-11-13T11:32:00.286Z</time>
      </trkpt>
      <trkpt lat="47.541339" lon="7.870850">
        <ele>337.481832</ele>
        <time>2021-11-13T11:32:01.429Z</time>
      </trkpt>
    </trkseg>
  </trk>
</gpx>